<?xml version="1.0" encoding="UTF-8" standalone="no" ?>
<gpx xmlns="http://www.topografix.com/GPX/1/1" xmlns:xsi="http://www.w3.org/2001/XMLSchema-instance" xsi:schemaLocation="http://www.topografix.com/GPX/1/1 http://www.topografix.com/GPX/1/1/gpx.xsd" version="1.1" creator="VisuGPX - https://www.visugpx.com">
  <metadata>
    <name>La chapelle en Lafaye - Biaud (Perigneux) via Marols 21km</name>
    <desc><![CDATA[fait le 30 Mai 2023 - arrivée dans un lieu privé]]></desc>
  </metadata>
  <trk>
    <name><![CDATA[2023-05-29 14:32:40]]></name>
    <extensions>
      <line xmlns="http://www.topografix.com/GPX/gpx_style/0/2">
        <color>ff0000</color>
        <width>4</width>
      </line>
    </extensions>
    <trkseg>
      <trkpt lat="45.46261" lon="3.98842">
        <ele>1064.8</ele>
        <time>2023-05-29T06:51:07Z</time>
      </trkpt>
      <trkpt lat="45.46261" lon="3.98843">
        <ele>1068.64</ele>
        <time>2023-05-29T06:51:29Z</time>
      </trkpt>
      <trkpt lat="45.46259" lon="3.98844">
        <ele>1067.2</ele>
        <time>2023-05-29T06:51:48Z</time>
      </trkpt>
      <trkpt lat="45.4626" lon="3.98846">
        <ele>1067.2</ele>
        <time>2023-05-29T06:52:17Z</time>
      </trkpt>
      <trkpt lat="45.4626" lon="3.98846">
        <ele>1065.76</ele>
        <time>2023-05-29T06:52:41Z</time>
      </trkpt>
      <trkpt lat="45.46261" lon="3.98846">
        <ele>1065.28</ele>
        <time>2023-05-29T06:52:59Z</time>
      </trkpt>
      <trkpt lat="45.46261" lon="3.98844">
        <ele>1065.76</ele>
        <time>2023-05-29T06:53:22Z</time>
      </trkpt>
      <trkpt lat="45.46263" lon="3.98843">
        <ele>1064.8</ele>
        <time>2023-05-29T06:53:39Z</time>
      </trkpt>
      <trkpt lat="45.46261" lon="3.98841">
        <ele>1066.24</ele>
        <time>2023-05-29T06:53:58Z</time>
      </trkpt>
      <trkpt lat="45.46264" lon="3.98841">
        <ele>1066.24</ele>
        <time>2023-05-29T06:54:18Z</time>
      </trkpt>
      <trkpt lat="45.46265" lon="3.98844">
        <ele>1064.8</ele>
        <time>2023-05-29T06:54:34Z</time>
      </trkpt>
      <trkpt lat="45.46265" lon="3.98847">
        <ele>1065.28</ele>
        <time>2023-05-29T06:55:09Z</time>
      </trkpt>
      <trkpt lat="45.46266" lon="3.98843">
        <ele>1064.8</ele>
        <time>2023-05-29T06:55:28Z</time>
      </trkpt>
      <trkpt lat="45.46271" lon="3.98828">
        <ele>1065.28</ele>
        <time>2023-05-29T06:55:38Z</time>
      </trkpt>
      <trkpt lat="45.46282" lon="3.98831">
        <ele>1068.16</ele>
        <time>2023-05-29T06:55:52Z</time>
      </trkpt>
      <trkpt lat="45.46291" lon="3.9884">
        <ele>1070.08</ele>
        <time>2023-05-29T06:56:05Z</time>
      </trkpt>
      <trkpt lat="45.46291" lon="3.98856">
        <ele>1068.64</ele>
        <time>2023-05-29T06:56:15Z</time>
      </trkpt>
      <trkpt lat="45.46289" lon="3.98886">
        <ele>1071.05</ele>
        <time>2023-05-29T06:56:34Z</time>
      </trkpt>
      <trkpt lat="45.46289" lon="3.98888">
        <ele>1071.05</ele>
        <time>2023-05-29T06:56:35Z</time>
      </trkpt>
      <trkpt lat="45.46289" lon="3.98901">
        <ele>1071.05</ele>
        <time>2023-05-29T06:56:44Z</time>
      </trkpt>
      <trkpt lat="45.46268" lon="3.98913">
        <ele>1070.57</ele>
        <time>2023-05-29T06:57:02Z</time>
      </trkpt>
      <trkpt lat="45.46264" lon="3.98914">
        <ele>1071.05</ele>
        <time>2023-05-29T06:57:16Z</time>
      </trkpt>
      <trkpt lat="45.4626" lon="3.98917">
        <ele>1072.97</ele>
        <time>2023-05-29T06:57:35Z</time>
      </trkpt>
      <trkpt lat="45.46262" lon="3.98914">
        <ele>1071.53</ele>
        <time>2023-05-29T06:58:05Z</time>
      </trkpt>
      <trkpt lat="45.46261" lon="3.98916">
        <ele>1074.41</ele>
        <time>2023-05-29T06:58:27Z</time>
      </trkpt>
      <trkpt lat="45.46262" lon="3.98918">
        <ele>1074.41</ele>
        <time>2023-05-29T06:58:48Z</time>
      </trkpt>
      <trkpt lat="45.4626" lon="3.98917">
        <ele>1075.37</ele>
        <time>2023-05-29T06:59:12Z</time>
      </trkpt>
      <trkpt lat="45.46259" lon="3.98917">
        <ele>1074.41</ele>
        <time>2023-05-29T06:59:31Z</time>
      </trkpt>
      <trkpt lat="45.46261" lon="3.98915">
        <ele>1073.45</ele>
        <time>2023-05-29T06:59:47Z</time>
      </trkpt>
      <trkpt lat="45.46265" lon="3.98913">
        <ele>1072.97</ele>
        <time>2023-05-29T07:00:09Z</time>
      </trkpt>
      <trkpt lat="45.46265" lon="3.98913">
        <ele>1072.97</ele>
        <time>2023-05-29T07:00:11Z</time>
      </trkpt>
      <trkpt lat="45.4627" lon="3.98911">
        <ele>1072.01</ele>
        <time>2023-05-29T07:00:17Z</time>
      </trkpt>
      <trkpt lat="45.46272" lon="3.98907">
        <ele>1072.49</ele>
        <time>2023-05-29T07:00:28Z</time>
      </trkpt>
      <trkpt lat="45.46269" lon="3.98903">
        <ele>1075.85</ele>
        <time>2023-05-29T07:00:46Z</time>
      </trkpt>
      <trkpt lat="45.46271" lon="3.98906">
        <ele>1075.85</ele>
        <time>2023-05-29T07:01:04Z</time>
      </trkpt>
      <trkpt lat="45.46273" lon="3.98911">
        <ele>1073.45</ele>
        <time>2023-05-29T07:01:22Z</time>
      </trkpt>
      <trkpt lat="45.4627" lon="3.98914">
        <ele>1072.97</ele>
        <time>2023-05-29T07:01:37Z</time>
      </trkpt>
      <trkpt lat="45.46267" lon="3.98915">
        <ele>1073.93</ele>
        <time>2023-05-29T07:02:05Z</time>
      </trkpt>
      <trkpt lat="45.46267" lon="3.98913">
        <ele>1072.97</ele>
        <time>2023-05-29T07:02:29Z</time>
      </trkpt>
      <trkpt lat="45.46268" lon="3.98912">
        <ele>1072.49</ele>
        <time>2023-05-29T07:02:58Z</time>
      </trkpt>
      <trkpt lat="45.46269" lon="3.98909">
        <ele>1069.6</ele>
        <time>2023-05-29T07:03:33Z</time>
      </trkpt>
      <trkpt lat="45.46267" lon="3.98912">
        <ele>1070.08</ele>
        <time>2023-05-29T07:04:01Z</time>
      </trkpt>
      <trkpt lat="45.46266" lon="3.98912">
        <ele>1070.08</ele>
        <time>2023-05-29T07:04:35Z</time>
      </trkpt>
      <trkpt lat="45.4627" lon="3.98916">
        <ele>1070.08</ele>
        <time>2023-05-29T07:04:41Z</time>
      </trkpt>
      <trkpt lat="45.46294" lon="3.98904">
        <ele>1072.97</ele>
        <time>2023-05-29T07:05:01Z</time>
      </trkpt>
      <trkpt lat="45.4632" lon="3.98911">
        <ele>1077.78</ele>
        <time>2023-05-29T07:05:20Z</time>
      </trkpt>
      <trkpt lat="45.46345" lon="3.98928">
        <ele>1084.02</ele>
        <time>2023-05-29T07:05:41Z</time>
      </trkpt>
      <trkpt lat="45.46367" lon="3.98939">
        <ele>1087.39</ele>
        <time>2023-05-29T07:05:59Z</time>
      </trkpt>
      <trkpt lat="45.46392" lon="3.98962">
        <ele>1085.95</ele>
        <time>2023-05-29T07:06:18Z</time>
      </trkpt>
      <trkpt lat="45.46411" lon="3.9899">
        <ele>1083.54</ele>
        <time>2023-05-29T07:06:38Z</time>
      </trkpt>
      <trkpt lat="45.46433" lon="3.99011">
        <ele>1081.62</ele>
        <time>2023-05-29T07:06:58Z</time>
      </trkpt>
      <trkpt lat="45.46461" lon="3.99026">
        <ele>1083.54</ele>
        <time>2023-05-29T07:07:19Z</time>
      </trkpt>
      <trkpt lat="45.46479" lon="3.99043">
        <ele>1085.95</ele>
        <time>2023-05-29T07:07:35Z</time>
      </trkpt>
      <trkpt lat="45.46498" lon="3.99079">
        <ele>1086.43</ele>
        <time>2023-05-29T07:07:55Z</time>
      </trkpt>
      <trkpt lat="45.46516" lon="3.99121">
        <ele>1087.39</ele>
        <time>2023-05-29T07:08:17Z</time>
      </trkpt>
      <trkpt lat="45.46528" lon="3.9915">
        <ele>1089.31</ele>
        <time>2023-05-29T07:08:33Z</time>
      </trkpt>
      <trkpt lat="45.46546" lon="3.99194">
        <ele>1093.64</ele>
        <time>2023-05-29T07:08:57Z</time>
      </trkpt>
      <trkpt lat="45.46552" lon="3.99235">
        <ele>1097.48</ele>
        <time>2023-05-29T07:09:18Z</time>
      </trkpt>
      <trkpt lat="45.46558" lon="3.99274">
        <ele>1097.96</ele>
        <time>2023-05-29T07:09:39Z</time>
      </trkpt>
      <trkpt lat="45.46572" lon="3.99308">
        <ele>1098.44</ele>
        <time>2023-05-29T07:09:57Z</time>
      </trkpt>
      <trkpt lat="45.46586" lon="3.99339">
        <ele>1094.12</ele>
        <time>2023-05-29T07:10:14Z</time>
      </trkpt>
      <trkpt lat="45.46605" lon="3.99374">
        <ele>1092.2</ele>
        <time>2023-05-29T07:10:34Z</time>
      </trkpt>
      <trkpt lat="45.46625" lon="3.99402">
        <ele>1091.23</ele>
        <time>2023-05-29T07:10:50Z</time>
      </trkpt>
      <trkpt lat="45.46644" lon="3.9943">
        <ele>1090.27</ele>
        <time>2023-05-29T07:11:07Z</time>
      </trkpt>
      <trkpt lat="45.46656" lon="3.99451">
        <ele>1093.16</ele>
        <time>2023-05-29T07:11:21Z</time>
      </trkpt>
      <trkpt lat="45.46671" lon="3.99496">
        <ele>1096.04</ele>
        <time>2023-05-29T07:11:41Z</time>
      </trkpt>
      <trkpt lat="45.46689" lon="3.99527">
        <ele>1097.96</ele>
        <time>2023-05-29T07:12:00Z</time>
      </trkpt>
      <trkpt lat="45.46694" lon="3.99535">
        <ele>1097.96</ele>
        <time>2023-05-29T07:12:06Z</time>
      </trkpt>
      <trkpt lat="45.46697" lon="3.99542">
        <ele>1100.37</ele>
        <time>2023-05-29T07:12:10Z</time>
      </trkpt>
      <trkpt lat="45.46695" lon="3.99567">
        <ele>1104.21</ele>
        <time>2023-05-29T07:12:24Z</time>
      </trkpt>
      <trkpt lat="45.46697" lon="3.99598">
        <ele>1106.61</ele>
        <time>2023-05-29T07:12:41Z</time>
      </trkpt>
      <trkpt lat="45.46704" lon="3.99629">
        <ele>1110.46</ele>
        <time>2023-05-29T07:12:58Z</time>
      </trkpt>
      <trkpt lat="45.46713" lon="3.99653">
        <ele>1111.9</ele>
        <time>2023-05-29T07:13:11Z</time>
      </trkpt>
      <trkpt lat="45.46718" lon="3.9968">
        <ele>1117.19</ele>
        <time>2023-05-29T07:13:27Z</time>
      </trkpt>
      <trkpt lat="45.4673" lon="3.99699">
        <ele>1128.24</ele>
        <time>2023-05-29T07:13:42Z</time>
      </trkpt>
      <trkpt lat="45.46724" lon="3.99745">
        <ele>1136.42</ele>
        <time>2023-05-29T07:13:55Z</time>
      </trkpt>
      <trkpt lat="45.46721" lon="3.99787">
        <ele>1138.34</ele>
        <time>2023-05-29T07:14:10Z</time>
      </trkpt>
      <trkpt lat="45.46721" lon="3.99815">
        <ele>1137.86</ele>
        <time>2023-05-29T07:14:24Z</time>
      </trkpt>
      <trkpt lat="45.46721" lon="3.99817">
        <ele>1137.86</ele>
        <time>2023-05-29T07:14:26Z</time>
      </trkpt>
      <trkpt lat="45.46729" lon="3.99843">
        <ele>1139.78</ele>
        <time>2023-05-29T07:14:40Z</time>
      </trkpt>
      <trkpt lat="45.46745" lon="3.9986">
        <ele>1141.22</ele>
        <time>2023-05-29T07:14:54Z</time>
      </trkpt>
      <trkpt lat="45.46759" lon="3.99866">
        <ele>1147.47</ele>
        <time>2023-05-29T07:15:07Z</time>
      </trkpt>
      <trkpt lat="45.46777" lon="3.99882">
        <ele>1151.32</ele>
        <time>2023-05-29T07:15:18Z</time>
      </trkpt>
      <trkpt lat="45.46785" lon="3.99887">
        <ele>1151.8</ele>
        <time>2023-05-29T07:15:23Z</time>
      </trkpt>
      <trkpt lat="45.46806" lon="3.99907">
        <ele>1152.28</ele>
        <time>2023-05-29T07:15:39Z</time>
      </trkpt>
      <trkpt lat="45.46821" lon="3.99921">
        <ele>1155.16</ele>
        <time>2023-05-29T07:15:53Z</time>
      </trkpt>
      <trkpt lat="45.4684" lon="3.99939">
        <ele>1154.2</ele>
        <time>2023-05-29T07:16:07Z</time>
      </trkpt>
      <trkpt lat="45.46856" lon="3.99953">
        <ele>1154.68</ele>
        <time>2023-05-29T07:16:20Z</time>
      </trkpt>
      <trkpt lat="45.46871" lon="3.99964">
        <ele>1156.12</ele>
        <time>2023-05-29T07:16:31Z</time>
      </trkpt>
      <trkpt lat="45.4689" lon="3.99979">
        <ele>1157.08</ele>
        <time>2023-05-29T07:16:44Z</time>
      </trkpt>
      <trkpt lat="45.46903" lon="3.99995">
        <ele>1158.05</ele>
        <time>2023-05-29T07:16:57Z</time>
      </trkpt>
      <trkpt lat="45.46909" lon="4.00002">
        <ele>1159.97</ele>
        <time>2023-05-29T07:17:05Z</time>
      </trkpt>
      <trkpt lat="45.46915" lon="4.00008">
        <ele>1160.45</ele>
        <time>2023-05-29T07:17:10Z</time>
      </trkpt>
      <trkpt lat="45.46925" lon="4.00019">
        <ele>1159.01</ele>
        <time>2023-05-29T07:17:15Z</time>
      </trkpt>
      <trkpt lat="45.46927" lon="4.0002">
        <ele>1158.53</ele>
        <time>2023-05-29T07:17:16Z</time>
      </trkpt>
      <trkpt lat="45.4694" lon="4.00034">
        <ele>1159.49</ele>
        <time>2023-05-29T07:17:27Z</time>
      </trkpt>
      <trkpt lat="45.46941" lon="4.00035">
        <ele>1159.49</ele>
        <time>2023-05-29T07:17:28Z</time>
      </trkpt>
      <trkpt lat="45.46957" lon="4.0005">
        <ele>1158.05</ele>
        <time>2023-05-29T07:17:40Z</time>
      </trkpt>
      <trkpt lat="45.46973" lon="4.00061">
        <ele>1158.53</ele>
        <time>2023-05-29T07:17:53Z</time>
      </trkpt>
      <trkpt lat="45.46998" lon="4.00076">
        <ele>1156.6</ele>
        <time>2023-05-29T07:18:11Z</time>
      </trkpt>
      <trkpt lat="45.47014" lon="4.00076">
        <ele>1156.12</ele>
        <time>2023-05-29T07:18:24Z</time>
      </trkpt>
      <trkpt lat="45.47014" lon="4.00075">
        <ele>1156.6</ele>
        <time>2023-05-29T07:18:25Z</time>
      </trkpt>
      <trkpt lat="45.47036" lon="4.00071">
        <ele>1156.6</ele>
        <time>2023-05-29T07:18:41Z</time>
      </trkpt>
      <trkpt lat="45.47044" lon="4.0007">
        <ele>1156.12</ele>
        <time>2023-05-29T07:18:46Z</time>
      </trkpt>
      <trkpt lat="45.47046" lon="4.00069">
        <ele>1155.64</ele>
        <time>2023-05-29T07:18:47Z</time>
      </trkpt>
      <trkpt lat="45.47047" lon="4.00069">
        <ele>1155.64</ele>
        <time>2023-05-29T07:18:48Z</time>
      </trkpt>
      <trkpt lat="45.47049" lon="4.00068">
        <ele>1155.64</ele>
        <time>2023-05-29T07:18:49Z</time>
      </trkpt>
      <trkpt lat="45.4705" lon="4.00069">
        <ele>1155.16</ele>
        <time>2023-05-29T07:18:50Z</time>
      </trkpt>
      <trkpt lat="45.47071" lon="4.0007">
        <ele>1157.08</ele>
        <time>2023-05-29T07:19:05Z</time>
      </trkpt>
      <trkpt lat="45.47092" lon="4.00078">
        <ele>1158.53</ele>
        <time>2023-05-29T07:19:20Z</time>
      </trkpt>
      <trkpt lat="45.47093" lon="4.0008">
        <ele>1159.01</ele>
        <time>2023-05-29T07:19:21Z</time>
      </trkpt>
      <trkpt lat="45.47112" lon="4.00084">
        <ele>1158.53</ele>
        <time>2023-05-29T07:19:34Z</time>
      </trkpt>
      <trkpt lat="45.4714" lon="4.00088">
        <ele>1161.41</ele>
        <time>2023-05-29T07:19:51Z</time>
      </trkpt>
      <trkpt lat="45.47159" lon="4.001">
        <ele>1161.89</ele>
        <time>2023-05-29T07:20:03Z</time>
      </trkpt>
      <trkpt lat="45.47175" lon="4.00115">
        <ele>1163.33</ele>
        <time>2023-05-29T07:20:14Z</time>
      </trkpt>
      <trkpt lat="45.47194" lon="4.00143">
        <ele>1161.41</ele>
        <time>2023-05-29T07:20:26Z</time>
      </trkpt>
      <trkpt lat="45.47215" lon="4.00174">
        <ele>1157.56</ele>
        <time>2023-05-29T07:20:42Z</time>
      </trkpt>
      <trkpt lat="45.47229" lon="4.00193">
        <ele>1156.6</ele>
        <time>2023-05-29T07:20:54Z</time>
      </trkpt>
      <trkpt lat="45.4723" lon="4.00195">
        <ele>1157.08</ele>
        <time>2023-05-29T07:20:55Z</time>
      </trkpt>
      <trkpt lat="45.47231" lon="4.00197">
        <ele>1157.08</ele>
        <time>2023-05-29T07:20:56Z</time>
      </trkpt>
      <trkpt lat="45.47232" lon="4.00198">
        <ele>1157.08</ele>
        <time>2023-05-29T07:20:57Z</time>
      </trkpt>
      <trkpt lat="45.47233" lon="4.002">
        <ele>1157.08</ele>
        <time>2023-05-29T07:20:58Z</time>
      </trkpt>
      <trkpt lat="45.47234" lon="4.00201">
        <ele>1157.08</ele>
        <time>2023-05-29T07:20:59Z</time>
      </trkpt>
      <trkpt lat="45.47236" lon="4.00204">
        <ele>1156.6</ele>
        <time>2023-05-29T07:21:01Z</time>
      </trkpt>
      <trkpt lat="45.47237" lon="4.00205">
        <ele>1156.6</ele>
        <time>2023-05-29T07:21:02Z</time>
      </trkpt>
      <trkpt lat="45.47251" lon="4.00224">
        <ele>1157.56</ele>
        <time>2023-05-29T07:21:16Z</time>
      </trkpt>
      <trkpt lat="45.47252" lon="4.00224">
        <ele>1157.56</ele>
        <time>2023-05-29T07:21:17Z</time>
      </trkpt>
      <trkpt lat="45.4727" lon="4.00242">
        <ele>1160.45</ele>
        <time>2023-05-29T07:21:34Z</time>
      </trkpt>
      <trkpt lat="45.47272" lon="4.00244">
        <ele>1160.93</ele>
        <time>2023-05-29T07:21:36Z</time>
      </trkpt>
      <trkpt lat="45.47274" lon="4.00245">
        <ele>1160.93</ele>
        <time>2023-05-29T07:21:37Z</time>
      </trkpt>
      <trkpt lat="45.47275" lon="4.00246">
        <ele>1160.93</ele>
        <time>2023-05-29T07:21:38Z</time>
      </trkpt>
      <trkpt lat="45.47287" lon="4.00256">
        <ele>1163.33</ele>
        <time>2023-05-29T07:21:50Z</time>
      </trkpt>
      <trkpt lat="45.47289" lon="4.00258">
        <ele>1163.81</ele>
        <time>2023-05-29T07:21:52Z</time>
      </trkpt>
      <trkpt lat="45.4729" lon="4.00259">
        <ele>1164.29</ele>
        <time>2023-05-29T07:21:53Z</time>
      </trkpt>
      <trkpt lat="45.47309" lon="4.00268">
        <ele>1171.5</ele>
        <time>2023-05-29T07:22:07Z</time>
      </trkpt>
      <trkpt lat="45.4731" lon="4.00269">
        <ele>1171.98</ele>
        <time>2023-05-29T07:22:08Z</time>
      </trkpt>
      <trkpt lat="45.47315" lon="4.00272">
        <ele>1174.39</ele>
        <time>2023-05-29T07:22:12Z</time>
      </trkpt>
      <trkpt lat="45.47318" lon="4.00273">
        <ele>1174.87</ele>
        <time>2023-05-29T07:22:13Z</time>
      </trkpt>
      <trkpt lat="45.4732" lon="4.00274">
        <ele>1175.83</ele>
        <time>2023-05-29T07:22:14Z</time>
      </trkpt>
      <trkpt lat="45.47322" lon="4.00275">
        <ele>1175.83</ele>
        <time>2023-05-29T07:22:15Z</time>
      </trkpt>
      <trkpt lat="45.47324" lon="4.00275">
        <ele>1175.83</ele>
        <time>2023-05-29T07:22:16Z</time>
      </trkpt>
      <trkpt lat="45.47325" lon="4.00275">
        <ele>1176.31</ele>
        <time>2023-05-29T07:22:17Z</time>
      </trkpt>
      <trkpt lat="45.47326" lon="4.00276">
        <ele>1176.79</ele>
        <time>2023-05-29T07:22:18Z</time>
      </trkpt>
      <trkpt lat="45.47338" lon="4.00288">
        <ele>1178.71</ele>
        <time>2023-05-29T07:22:29Z</time>
      </trkpt>
      <trkpt lat="45.47361" lon="4.00312">
        <ele>1178.71</ele>
        <time>2023-05-29T07:22:48Z</time>
      </trkpt>
      <trkpt lat="45.4738" lon="4.00313">
        <ele>1176.79</ele>
        <time>2023-05-29T07:23:05Z</time>
      </trkpt>
      <trkpt lat="45.47404" lon="4.00319">
        <ele>1180.16</ele>
        <time>2023-05-29T07:23:22Z</time>
      </trkpt>
      <trkpt lat="45.47407" lon="4.0032">
        <ele>1180.16</ele>
        <time>2023-05-29T07:23:23Z</time>
      </trkpt>
      <trkpt lat="45.47427" lon="4.00329">
        <ele>1181.12</ele>
        <time>2023-05-29T07:23:36Z</time>
      </trkpt>
      <trkpt lat="45.47432" lon="4.00335">
        <ele>1181.12</ele>
        <time>2023-05-29T07:23:40Z</time>
      </trkpt>
      <trkpt lat="45.47433" lon="4.00338">
        <ele>1181.12</ele>
        <time>2023-05-29T07:23:41Z</time>
      </trkpt>
      <trkpt lat="45.47433" lon="4.00339">
        <ele>1181.12</ele>
        <time>2023-05-29T07:23:42Z</time>
      </trkpt>
      <trkpt lat="45.47429" lon="4.00365">
        <ele>1177.75</ele>
        <time>2023-05-29T07:23:56Z</time>
      </trkpt>
      <trkpt lat="45.4741" lon="4.00392">
        <ele>1174.39</ele>
        <time>2023-05-29T07:24:11Z</time>
      </trkpt>
      <trkpt lat="45.47399" lon="4.00419">
        <ele>1173.91</ele>
        <time>2023-05-29T07:24:26Z</time>
      </trkpt>
      <trkpt lat="45.47402" lon="4.00439">
        <ele>1175.35</ele>
        <time>2023-05-29T07:24:40Z</time>
      </trkpt>
      <trkpt lat="45.47404" lon="4.00465">
        <ele>1179.67</ele>
        <time>2023-05-29T07:24:54Z</time>
      </trkpt>
      <trkpt lat="45.47407" lon="4.00481">
        <ele>1180.64</ele>
        <time>2023-05-29T07:24:59Z</time>
      </trkpt>
      <trkpt lat="45.4741" lon="4.00484">
        <ele>1180.64</ele>
        <time>2023-05-29T07:25:00Z</time>
      </trkpt>
      <trkpt lat="45.47419" lon="4.00505">
        <ele>1179.67</ele>
        <time>2023-05-29T07:25:09Z</time>
      </trkpt>
      <trkpt lat="45.4742" lon="4.00508">
        <ele>1179.67</ele>
        <time>2023-05-29T07:25:10Z</time>
      </trkpt>
      <trkpt lat="45.4742" lon="4.00534">
        <ele>1181.12</ele>
        <time>2023-05-29T07:25:23Z</time>
      </trkpt>
      <trkpt lat="45.4742" lon="4.00536">
        <ele>1180.64</ele>
        <time>2023-05-29T07:25:24Z</time>
      </trkpt>
      <trkpt lat="45.47427" lon="4.00576">
        <ele>1183.52</ele>
        <time>2023-05-29T07:25:41Z</time>
      </trkpt>
      <trkpt lat="45.47424" lon="4.00604">
        <ele>1186.4</ele>
        <time>2023-05-29T07:25:58Z</time>
      </trkpt>
      <trkpt lat="45.4743" lon="4.00633">
        <ele>1184</ele>
        <time>2023-05-29T07:26:09Z</time>
      </trkpt>
      <trkpt lat="45.47439" lon="4.00669">
        <ele>1181.12</ele>
        <time>2023-05-29T07:26:26Z</time>
      </trkpt>
      <trkpt lat="45.47448" lon="4.0069">
        <ele>1180.16</ele>
        <time>2023-05-29T07:26:41Z</time>
      </trkpt>
      <trkpt lat="45.47458" lon="4.00718">
        <ele>1181.12</ele>
        <time>2023-05-29T07:26:58Z</time>
      </trkpt>
      <trkpt lat="45.47471" lon="4.00749">
        <ele>1176.31</ele>
        <time>2023-05-29T07:27:16Z</time>
      </trkpt>
      <trkpt lat="45.47479" lon="4.00771">
        <ele>1175.83</ele>
        <time>2023-05-29T07:27:32Z</time>
      </trkpt>
      <trkpt lat="45.47493" lon="4.00804">
        <ele>1174.39</ele>
        <time>2023-05-29T07:27:47Z</time>
      </trkpt>
      <trkpt lat="45.47494" lon="4.00805">
        <ele>1174.39</ele>
        <time>2023-05-29T07:27:48Z</time>
      </trkpt>
      <trkpt lat="45.47498" lon="4.00821">
        <ele>1175.35</ele>
        <time>2023-05-29T07:27:53Z</time>
      </trkpt>
      <trkpt lat="45.47507" lon="4.00854">
        <ele>1176.31</ele>
        <time>2023-05-29T07:28:08Z</time>
      </trkpt>
      <trkpt lat="45.47509" lon="4.00858">
        <ele>1176.31</ele>
        <time>2023-05-29T07:28:10Z</time>
      </trkpt>
      <trkpt lat="45.47532" lon="4.00893">
        <ele>1175.35</ele>
        <time>2023-05-29T07:28:27Z</time>
      </trkpt>
      <trkpt lat="45.47547" lon="4.00923">
        <ele>1178.23</ele>
        <time>2023-05-29T07:28:41Z</time>
      </trkpt>
      <trkpt lat="45.47559" lon="4.0095">
        <ele>1174.87</ele>
        <time>2023-05-29T07:28:57Z</time>
      </trkpt>
      <trkpt lat="45.47564" lon="4.0097">
        <ele>1173.43</ele>
        <time>2023-05-29T07:29:08Z</time>
      </trkpt>
      <trkpt lat="45.4757" lon="4.01">
        <ele>1170.54</ele>
        <time>2023-05-29T07:29:24Z</time>
      </trkpt>
      <trkpt lat="45.47582" lon="4.01024">
        <ele>1165.26</ele>
        <time>2023-05-29T07:29:38Z</time>
      </trkpt>
      <trkpt lat="45.47603" lon="4.01042">
        <ele>1162.37</ele>
        <time>2023-05-29T07:29:50Z</time>
      </trkpt>
      <trkpt lat="45.47593" lon="4.0107">
        <ele>1158.53</ele>
        <time>2023-05-29T07:30:07Z</time>
      </trkpt>
      <trkpt lat="45.4757" lon="4.01091">
        <ele>1153.24</ele>
        <time>2023-05-29T07:30:23Z</time>
      </trkpt>
      <trkpt lat="45.47559" lon="4.01101">
        <ele>1151.8</ele>
        <time>2023-05-29T07:30:30Z</time>
      </trkpt>
      <trkpt lat="45.47535" lon="4.01121">
        <ele>1146.99</ele>
        <time>2023-05-29T07:30:47Z</time>
      </trkpt>
      <trkpt lat="45.47511" lon="4.01153">
        <ele>1142.18</ele>
        <time>2023-05-29T07:31:07Z</time>
      </trkpt>
      <trkpt lat="45.47488" lon="4.01168">
        <ele>1139.3</ele>
        <time>2023-05-29T07:31:24Z</time>
      </trkpt>
      <trkpt lat="45.47483" lon="4.01181">
        <ele>1142.18</ele>
        <time>2023-05-29T07:31:45Z</time>
      </trkpt>
      <trkpt lat="45.47463" lon="4.01205">
        <ele>1138.34</ele>
        <time>2023-05-29T07:32:05Z</time>
      </trkpt>
      <trkpt lat="45.47452" lon="4.01238">
        <ele>1133.53</ele>
        <time>2023-05-29T07:32:26Z</time>
      </trkpt>
      <trkpt lat="45.47452" lon="4.01258">
        <ele>1128.24</ele>
        <time>2023-05-29T07:32:43Z</time>
      </trkpt>
      <trkpt lat="45.47444" lon="4.0128">
        <ele>1121.03</ele>
        <time>2023-05-29T07:32:59Z</time>
      </trkpt>
      <trkpt lat="45.47441" lon="4.01284">
        <ele>1120.07</ele>
        <time>2023-05-29T07:33:02Z</time>
      </trkpt>
      <trkpt lat="45.47439" lon="4.0129">
        <ele>1118.63</ele>
        <time>2023-05-29T07:33:06Z</time>
      </trkpt>
      <trkpt lat="45.47437" lon="4.01295">
        <ele>1117.19</ele>
        <time>2023-05-29T07:33:09Z</time>
      </trkpt>
      <trkpt lat="45.47436" lon="4.01302">
        <ele>1116.23</ele>
        <time>2023-05-29T07:33:13Z</time>
      </trkpt>
      <trkpt lat="45.47429" lon="4.01327">
        <ele>1110.94</ele>
        <time>2023-05-29T07:33:30Z</time>
      </trkpt>
      <trkpt lat="45.47426" lon="4.01337">
        <ele>1109.02</ele>
        <time>2023-05-29T07:33:35Z</time>
      </trkpt>
      <trkpt lat="45.47424" lon="4.01347">
        <ele>1107.1</ele>
        <time>2023-05-29T07:33:40Z</time>
      </trkpt>
      <trkpt lat="45.47411" lon="4.01376">
        <ele>1103.73</ele>
        <time>2023-05-29T07:33:56Z</time>
      </trkpt>
      <trkpt lat="45.47408" lon="4.01384">
        <ele>1101.81</ele>
        <time>2023-05-29T07:34:02Z</time>
      </trkpt>
      <trkpt lat="45.47388" lon="4.01408">
        <ele>1101.81</ele>
        <time>2023-05-29T07:34:18Z</time>
      </trkpt>
      <trkpt lat="45.47377" lon="4.01425">
        <ele>1103.73</ele>
        <time>2023-05-29T07:34:33Z</time>
      </trkpt>
      <trkpt lat="45.47366" lon="4.01446">
        <ele>1102.29</ele>
        <time>2023-05-29T07:34:52Z</time>
      </trkpt>
      <trkpt lat="45.47355" lon="4.01465">
        <ele>1099.4</ele>
        <time>2023-05-29T07:35:08Z</time>
      </trkpt>
      <trkpt lat="45.47345" lon="4.01486">
        <ele>1093.64</ele>
        <time>2023-05-29T07:35:25Z</time>
      </trkpt>
      <trkpt lat="45.47332" lon="4.01515">
        <ele>1087.87</ele>
        <time>2023-05-29T07:35:42Z</time>
      </trkpt>
      <trkpt lat="45.47329" lon="4.01523">
        <ele>1087.39</ele>
        <time>2023-05-29T07:35:46Z</time>
      </trkpt>
      <trkpt lat="45.47318" lon="4.01554">
        <ele>1089.31</ele>
        <time>2023-05-29T07:36:00Z</time>
      </trkpt>
      <trkpt lat="45.47308" lon="4.01571">
        <ele>1086.43</ele>
        <time>2023-05-29T07:36:14Z</time>
      </trkpt>
      <trkpt lat="45.47302" lon="4.01595">
        <ele>1085.95</ele>
        <time>2023-05-29T07:36:30Z</time>
      </trkpt>
      <trkpt lat="45.47296" lon="4.01616">
        <ele>1087.39</ele>
        <time>2023-05-29T07:36:47Z</time>
      </trkpt>
      <trkpt lat="45.47307" lon="4.01644">
        <ele>1089.79</ele>
        <time>2023-05-29T07:37:05Z</time>
      </trkpt>
      <trkpt lat="45.47311" lon="4.01653">
        <ele>1089.79</ele>
        <time>2023-05-29T07:37:12Z</time>
      </trkpt>
      <trkpt lat="45.47327" lon="4.0167">
        <ele>1084.5</ele>
        <time>2023-05-29T07:37:29Z</time>
      </trkpt>
      <trkpt lat="45.47335" lon="4.01691">
        <ele>1081.62</ele>
        <time>2023-05-29T07:37:45Z</time>
      </trkpt>
      <trkpt lat="45.47357" lon="4.0172">
        <ele>1080.66</ele>
        <time>2023-05-29T07:37:59Z</time>
      </trkpt>
      <trkpt lat="45.47372" lon="4.01744">
        <ele>1080.18</ele>
        <time>2023-05-29T07:38:13Z</time>
      </trkpt>
      <trkpt lat="45.47374" lon="4.01746">
        <ele>1078.74</ele>
        <time>2023-05-29T07:38:16Z</time>
      </trkpt>
      <trkpt lat="45.47375" lon="4.01748">
        <ele>1078.26</ele>
        <time>2023-05-29T07:38:17Z</time>
      </trkpt>
      <trkpt lat="45.47376" lon="4.01749">
        <ele>1078.26</ele>
        <time>2023-05-29T07:38:18Z</time>
      </trkpt>
      <trkpt lat="45.47385" lon="4.01764">
        <ele>1072.01</ele>
        <time>2023-05-29T07:38:33Z</time>
      </trkpt>
      <trkpt lat="45.47391" lon="4.01784">
        <ele>1069.12</ele>
        <time>2023-05-29T07:38:49Z</time>
      </trkpt>
      <trkpt lat="45.47392" lon="4.0181">
        <ele>1067.68</ele>
        <time>2023-05-29T07:39:04Z</time>
      </trkpt>
      <trkpt lat="45.47393" lon="4.01834">
        <ele>1065.76</ele>
        <time>2023-05-29T07:39:17Z</time>
      </trkpt>
      <trkpt lat="45.47382" lon="4.01867">
        <ele>1057.59</ele>
        <time>2023-05-29T07:39:35Z</time>
      </trkpt>
      <trkpt lat="45.47365" lon="4.01889">
        <ele>1051.34</ele>
        <time>2023-05-29T07:39:51Z</time>
      </trkpt>
      <trkpt lat="45.47364" lon="4.0189">
        <ele>1050.86</ele>
        <time>2023-05-29T07:39:52Z</time>
      </trkpt>
      <trkpt lat="45.47363" lon="4.01892">
        <ele>1050.86</ele>
        <time>2023-05-29T07:39:53Z</time>
      </trkpt>
      <trkpt lat="45.47362" lon="4.01894">
        <ele>1050.86</ele>
        <time>2023-05-29T07:39:54Z</time>
      </trkpt>
      <trkpt lat="45.47361" lon="4.01896">
        <ele>1050.38</ele>
        <time>2023-05-29T07:39:55Z</time>
      </trkpt>
      <trkpt lat="45.47361" lon="4.01898">
        <ele>1050.38</ele>
        <time>2023-05-29T07:39:56Z</time>
      </trkpt>
      <trkpt lat="45.47359" lon="4.01921">
        <ele>1051.34</ele>
        <time>2023-05-29T07:40:06Z</time>
      </trkpt>
      <trkpt lat="45.47355" lon="4.01957">
        <ele>1052.78</ele>
        <time>2023-05-29T07:40:20Z</time>
      </trkpt>
      <trkpt lat="45.4735" lon="4.01985">
        <ele>1054.22</ele>
        <time>2023-05-29T07:40:34Z</time>
      </trkpt>
      <trkpt lat="45.47342" lon="4.02018">
        <ele>1051.34</ele>
        <time>2023-05-29T07:40:49Z</time>
      </trkpt>
      <trkpt lat="45.47326" lon="4.0203">
        <ele>1052.78</ele>
        <time>2023-05-29T07:41:04Z</time>
      </trkpt>
      <trkpt lat="45.47313" lon="4.02024">
        <ele>1053.74</ele>
        <time>2023-05-29T07:41:17Z</time>
      </trkpt>
      <trkpt lat="45.473" lon="4.02026">
        <ele>1051.82</ele>
        <time>2023-05-29T07:41:28Z</time>
      </trkpt>
      <trkpt lat="45.47298" lon="4.02027">
        <ele>1051.82</ele>
        <time>2023-05-29T07:41:29Z</time>
      </trkpt>
      <trkpt lat="45.47289" lon="4.02054">
        <ele>1051.34</ele>
        <time>2023-05-29T07:41:44Z</time>
      </trkpt>
      <trkpt lat="45.47299" lon="4.02077">
        <ele>1047.49</ele>
        <time>2023-05-29T07:42:00Z</time>
      </trkpt>
      <trkpt lat="45.47302" lon="4.02078">
        <ele>1046.53</ele>
        <time>2023-05-29T07:42:17Z</time>
      </trkpt>
      <trkpt lat="45.47304" lon="4.02081">
        <ele>1047.97</ele>
        <time>2023-05-29T07:42:35Z</time>
      </trkpt>
      <trkpt lat="45.47306" lon="4.02084">
        <ele>1047.97</ele>
        <time>2023-05-29T07:42:41Z</time>
      </trkpt>
      <trkpt lat="45.47307" lon="4.02086">
        <ele>1047.49</ele>
        <time>2023-05-29T07:42:42Z</time>
      </trkpt>
      <trkpt lat="45.47307" lon="4.02087">
        <ele>1047.49</ele>
        <time>2023-05-29T07:42:43Z</time>
      </trkpt>
      <trkpt lat="45.47308" lon="4.02089">
        <ele>1047.01</ele>
        <time>2023-05-29T07:42:44Z</time>
      </trkpt>
      <trkpt lat="45.47309" lon="4.02091">
        <ele>1047.01</ele>
        <time>2023-05-29T07:42:45Z</time>
      </trkpt>
      <trkpt lat="45.4731" lon="4.02093">
        <ele>1046.53</ele>
        <time>2023-05-29T07:42:46Z</time>
      </trkpt>
      <trkpt lat="45.47311" lon="4.02094">
        <ele>1046.53</ele>
        <time>2023-05-29T07:42:47Z</time>
      </trkpt>
      <trkpt lat="45.47317" lon="4.0213">
        <ele>1046.05</ele>
        <time>2023-05-29T07:43:06Z</time>
      </trkpt>
      <trkpt lat="45.47315" lon="4.02141">
        <ele>1047.01</ele>
        <time>2023-05-29T07:43:22Z</time>
      </trkpt>
      <trkpt lat="45.47315" lon="4.02142">
        <ele>1046.53</ele>
        <time>2023-05-29T07:43:43Z</time>
      </trkpt>
      <trkpt lat="45.47313" lon="4.02142">
        <ele>1047.01</ele>
        <time>2023-05-29T07:44:07Z</time>
      </trkpt>
      <trkpt lat="45.47315" lon="4.02141">
        <ele>1045.09</ele>
        <time>2023-05-29T07:44:29Z</time>
      </trkpt>
      <trkpt lat="45.47314" lon="4.02143">
        <ele>1044.61</ele>
        <time>2023-05-29T07:44:34Z</time>
      </trkpt>
      <trkpt lat="45.47313" lon="4.02143">
        <ele>1044.61</ele>
        <time>2023-05-29T07:44:35Z</time>
      </trkpt>
      <trkpt lat="45.47287" lon="4.02144">
        <ele>1045.09</ele>
        <time>2023-05-29T07:44:52Z</time>
      </trkpt>
      <trkpt lat="45.47253" lon="4.02133">
        <ele>1046.05</ele>
        <time>2023-05-29T07:45:15Z</time>
      </trkpt>
      <trkpt lat="45.47222" lon="4.02131">
        <ele>1047.97</ele>
        <time>2023-05-29T07:45:35Z</time>
      </trkpt>
      <trkpt lat="45.47206" lon="4.02154">
        <ele>1050.86</ele>
        <time>2023-05-29T07:45:51Z</time>
      </trkpt>
      <trkpt lat="45.47188" lon="4.02175">
        <ele>1049.42</ele>
        <time>2023-05-29T07:46:08Z</time>
      </trkpt>
      <trkpt lat="45.47168" lon="4.02194">
        <ele>1047.49</ele>
        <time>2023-05-29T07:46:23Z</time>
      </trkpt>
      <trkpt lat="45.47161" lon="4.02201">
        <ele>1049.42</ele>
        <time>2023-05-29T07:46:30Z</time>
      </trkpt>
      <trkpt lat="45.4716" lon="4.02203">
        <ele>1050.38</ele>
        <time>2023-05-29T07:46:31Z</time>
      </trkpt>
      <trkpt lat="45.47159" lon="4.02205">
        <ele>1050.86</ele>
        <time>2023-05-29T07:46:32Z</time>
      </trkpt>
      <trkpt lat="45.47141" lon="4.02233">
        <ele>1053.26</ele>
        <time>2023-05-29T07:46:49Z</time>
      </trkpt>
      <trkpt lat="45.47125" lon="4.02266">
        <ele>1051.82</ele>
        <time>2023-05-29T07:47:06Z</time>
      </trkpt>
      <trkpt lat="45.47118" lon="4.02279">
        <ele>1050.86</ele>
        <time>2023-05-29T07:47:14Z</time>
      </trkpt>
      <trkpt lat="45.47117" lon="4.02282">
        <ele>1050.86</ele>
        <time>2023-05-29T07:47:15Z</time>
      </trkpt>
      <trkpt lat="45.47116" lon="4.02284">
        <ele>1050.38</ele>
        <time>2023-05-29T07:47:16Z</time>
      </trkpt>
      <trkpt lat="45.47115" lon="4.02287">
        <ele>1050.38</ele>
        <time>2023-05-29T07:47:17Z</time>
      </trkpt>
      <trkpt lat="45.47115" lon="4.0229">
        <ele>1050.38</ele>
        <time>2023-05-29T07:47:18Z</time>
      </trkpt>
      <trkpt lat="45.47107" lon="4.02326">
        <ele>1046.05</ele>
        <time>2023-05-29T07:47:34Z</time>
      </trkpt>
      <trkpt lat="45.47108" lon="4.02356">
        <ele>1043.65</ele>
        <time>2023-05-29T07:47:49Z</time>
      </trkpt>
      <trkpt lat="45.47116" lon="4.0238">
        <ele>1040.76</ele>
        <time>2023-05-29T07:48:05Z</time>
      </trkpt>
      <trkpt lat="45.47118" lon="4.02415">
        <ele>1040.28</ele>
        <time>2023-05-29T07:48:22Z</time>
      </trkpt>
      <trkpt lat="45.47099" lon="4.02448">
        <ele>1039.8</ele>
        <time>2023-05-29T07:48:42Z</time>
      </trkpt>
      <trkpt lat="45.47089" lon="4.02468">
        <ele>1041.25</ele>
        <time>2023-05-29T07:49:00Z</time>
      </trkpt>
      <trkpt lat="45.47074" lon="4.0249">
        <ele>1037.4</ele>
        <time>2023-05-29T07:49:17Z</time>
      </trkpt>
      <trkpt lat="45.47062" lon="4.0251">
        <ele>1034.52</ele>
        <time>2023-05-29T07:49:34Z</time>
      </trkpt>
      <trkpt lat="45.47055" lon="4.02537">
        <ele>1032.59</ele>
        <time>2023-05-29T07:49:50Z</time>
      </trkpt>
      <trkpt lat="45.47044" lon="4.02568">
        <ele>1030.19</ele>
        <time>2023-05-29T07:50:06Z</time>
      </trkpt>
      <trkpt lat="45.47043" lon="4.02577">
        <ele>1028.27</ele>
        <time>2023-05-29T07:50:13Z</time>
      </trkpt>
      <trkpt lat="45.47043" lon="4.02579">
        <ele>1027.79</ele>
        <time>2023-05-29T07:50:14Z</time>
      </trkpt>
      <trkpt lat="45.47043" lon="4.02581">
        <ele>1028.27</ele>
        <time>2023-05-29T07:50:15Z</time>
      </trkpt>
      <trkpt lat="45.47045" lon="4.02608">
        <ele>1030.67</ele>
        <time>2023-05-29T07:50:28Z</time>
      </trkpt>
      <trkpt lat="45.47034" lon="4.02641">
        <ele>1033.07</ele>
        <time>2023-05-29T07:50:44Z</time>
      </trkpt>
      <trkpt lat="45.47031" lon="4.02656">
        <ele>1034.52</ele>
        <time>2023-05-29T07:50:53Z</time>
      </trkpt>
      <trkpt lat="45.47028" lon="4.02661">
        <ele>1034.52</ele>
        <time>2023-05-29T07:50:56Z</time>
      </trkpt>
      <trkpt lat="45.47015" lon="4.0269">
        <ele>1029.23</ele>
        <time>2023-05-29T07:51:10Z</time>
      </trkpt>
      <trkpt lat="45.47013" lon="4.02693">
        <ele>1028.27</ele>
        <time>2023-05-29T07:51:12Z</time>
      </trkpt>
      <trkpt lat="45.47013" lon="4.02695">
        <ele>1028.27</ele>
        <time>2023-05-29T07:51:13Z</time>
      </trkpt>
      <trkpt lat="45.47012" lon="4.02697">
        <ele>1027.79</ele>
        <time>2023-05-29T07:51:14Z</time>
      </trkpt>
      <trkpt lat="45.47011" lon="4.02699">
        <ele>1027.79</ele>
        <time>2023-05-29T07:51:15Z</time>
      </trkpt>
      <trkpt lat="45.47011" lon="4.02701">
        <ele>1027.79</ele>
        <time>2023-05-29T07:51:16Z</time>
      </trkpt>
      <trkpt lat="45.4701" lon="4.02702">
        <ele>1027.79</ele>
        <time>2023-05-29T07:51:17Z</time>
      </trkpt>
      <trkpt lat="45.47009" lon="4.02704">
        <ele>1027.79</ele>
        <time>2023-05-29T07:51:18Z</time>
      </trkpt>
      <trkpt lat="45.47007" lon="4.02706">
        <ele>1027.79</ele>
        <time>2023-05-29T07:51:19Z</time>
      </trkpt>
      <trkpt lat="45.47006" lon="4.02708">
        <ele>1027.31</ele>
        <time>2023-05-29T07:51:20Z</time>
      </trkpt>
      <trkpt lat="45.46996" lon="4.02724">
        <ele>1025.86</ele>
        <time>2023-05-29T07:51:31Z</time>
      </trkpt>
      <trkpt lat="45.46981" lon="4.02746">
        <ele>1023.94</ele>
        <time>2023-05-29T07:51:45Z</time>
      </trkpt>
      <trkpt lat="45.46969" lon="4.02775">
        <ele>1022.02</ele>
        <time>2023-05-29T07:51:59Z</time>
      </trkpt>
      <trkpt lat="45.46952" lon="4.02807">
        <ele>1015.77</ele>
        <time>2023-05-29T07:52:16Z</time>
      </trkpt>
      <trkpt lat="45.46939" lon="4.02832">
        <ele>1010.96</ele>
        <time>2023-05-29T07:52:31Z</time>
      </trkpt>
      <trkpt lat="45.46938" lon="4.02833">
        <ele>1010.48</ele>
        <time>2023-05-29T07:52:32Z</time>
      </trkpt>
      <trkpt lat="45.46937" lon="4.02834">
        <ele>1010.48</ele>
        <time>2023-05-29T07:52:33Z</time>
      </trkpt>
      <trkpt lat="45.46936" lon="4.02836">
        <ele>1010</ele>
        <time>2023-05-29T07:52:34Z</time>
      </trkpt>
      <trkpt lat="45.46935" lon="4.02837">
        <ele>1010</ele>
        <time>2023-05-29T07:52:35Z</time>
      </trkpt>
      <trkpt lat="45.46921" lon="4.02868">
        <ele>1007.6</ele>
        <time>2023-05-29T07:52:52Z</time>
      </trkpt>
      <trkpt lat="45.46907" lon="4.02901">
        <ele>1008.08</ele>
        <time>2023-05-29T07:53:10Z</time>
      </trkpt>
      <trkpt lat="45.46901" lon="4.02942">
        <ele>1007.12</ele>
        <time>2023-05-29T07:53:29Z</time>
      </trkpt>
      <trkpt lat="45.46906" lon="4.02983">
        <ele>1006.64</ele>
        <time>2023-05-29T07:53:47Z</time>
      </trkpt>
      <trkpt lat="45.46901" lon="4.03022">
        <ele>1006.64</ele>
        <time>2023-05-29T07:54:04Z</time>
      </trkpt>
      <trkpt lat="45.46897" lon="4.03061">
        <ele>1005.68</ele>
        <time>2023-05-29T07:54:21Z</time>
      </trkpt>
      <trkpt lat="45.46892" lon="4.03098">
        <ele>1006.16</ele>
        <time>2023-05-29T07:54:38Z</time>
      </trkpt>
      <trkpt lat="45.46891" lon="4.03136">
        <ele>1005.2</ele>
        <time>2023-05-29T07:54:55Z</time>
      </trkpt>
      <trkpt lat="45.46879" lon="4.03164">
        <ele>1003.75</ele>
        <time>2023-05-29T07:55:11Z</time>
      </trkpt>
      <trkpt lat="45.46866" lon="4.03177">
        <ele>1001.83</ele>
        <time>2023-05-29T07:55:23Z</time>
      </trkpt>
      <trkpt lat="45.46865" lon="4.03178">
        <ele>1001.83</ele>
        <time>2023-05-29T07:55:24Z</time>
      </trkpt>
      <trkpt lat="45.46865" lon="4.03179">
        <ele>1001.83</ele>
        <time>2023-05-29T07:55:38Z</time>
      </trkpt>
      <trkpt lat="45.46867" lon="4.0318">
        <ele>1001.83</ele>
        <time>2023-05-29T07:55:53Z</time>
      </trkpt>
      <trkpt lat="45.46868" lon="4.03176">
        <ele>1002.31</ele>
        <time>2023-05-29T07:55:58Z</time>
      </trkpt>
      <trkpt lat="45.4687" lon="4.03174">
        <ele>1002.31</ele>
        <time>2023-05-29T07:56:00Z</time>
      </trkpt>
      <trkpt lat="45.46874" lon="4.03175">
        <ele>1001.83</ele>
        <time>2023-05-29T07:56:11Z</time>
      </trkpt>
      <trkpt lat="45.46873" lon="4.03176">
        <ele>1000.87</ele>
        <time>2023-05-29T07:56:36Z</time>
      </trkpt>
      <trkpt lat="45.4687" lon="4.03179">
        <ele>1001.83</ele>
        <time>2023-05-29T07:56:58Z</time>
      </trkpt>
      <trkpt lat="45.46871" lon="4.03174">
        <ele>1003.27</ele>
        <time>2023-05-29T07:57:10Z</time>
      </trkpt>
      <trkpt lat="45.46874" lon="4.03168">
        <ele>1006.64</ele>
        <time>2023-05-29T07:57:28Z</time>
      </trkpt>
      <trkpt lat="45.46877" lon="4.03162">
        <ele>1006.16</ele>
        <time>2023-05-29T07:57:40Z</time>
      </trkpt>
      <trkpt lat="45.46894" lon="4.03135">
        <ele>1004.23</ele>
        <time>2023-05-29T07:57:58Z</time>
      </trkpt>
      <trkpt lat="45.46911" lon="4.031">
        <ele>1003.75</ele>
        <time>2023-05-29T07:58:17Z</time>
      </trkpt>
      <trkpt lat="45.46936" lon="4.03073">
        <ele>1002.79</ele>
        <time>2023-05-29T07:58:38Z</time>
      </trkpt>
      <trkpt lat="45.4696" lon="4.0305">
        <ele>1000.39</ele>
        <time>2023-05-29T07:58:57Z</time>
      </trkpt>
      <trkpt lat="45.46988" lon="4.03043">
        <ele>998.95</ele>
        <time>2023-05-29T07:59:15Z</time>
      </trkpt>
      <trkpt lat="45.47014" lon="4.03047">
        <ele>997.02</ele>
        <time>2023-05-29T07:59:31Z</time>
      </trkpt>
      <trkpt lat="45.47041" lon="4.03063">
        <ele>994.62</ele>
        <time>2023-05-29T07:59:51Z</time>
      </trkpt>
      <trkpt lat="45.47071" lon="4.03083">
        <ele>989.81</ele>
        <time>2023-05-29T08:00:13Z</time>
      </trkpt>
      <trkpt lat="45.47093" lon="4.03105">
        <ele>986.45</ele>
        <time>2023-05-29T08:00:33Z</time>
      </trkpt>
      <trkpt lat="45.47123" lon="4.03105">
        <ele>981.16</ele>
        <time>2023-05-29T08:00:54Z</time>
      </trkpt>
      <trkpt lat="45.47143" lon="4.03112">
        <ele>977.32</ele>
        <time>2023-05-29T08:01:11Z</time>
      </trkpt>
      <trkpt lat="45.47161" lon="4.03111">
        <ele>976.84</ele>
        <time>2023-05-29T08:01:23Z</time>
      </trkpt>
      <trkpt lat="45.47168" lon="4.03109">
        <ele>977.8</ele>
        <time>2023-05-29T08:01:29Z</time>
      </trkpt>
      <trkpt lat="45.47187" lon="4.03102">
        <ele>981.16</ele>
        <time>2023-05-29T08:01:43Z</time>
      </trkpt>
      <trkpt lat="45.47213" lon="4.03107">
        <ele>989.33</ele>
        <time>2023-05-29T08:01:58Z</time>
      </trkpt>
      <trkpt lat="45.47245" lon="4.0311">
        <ele>991.26</ele>
        <time>2023-05-29T08:02:16Z</time>
      </trkpt>
      <trkpt lat="45.47269" lon="4.03109">
        <ele>988.85</ele>
        <time>2023-05-29T08:02:33Z</time>
      </trkpt>
      <trkpt lat="45.47293" lon="4.03108">
        <ele>991.26</ele>
        <time>2023-05-29T08:02:49Z</time>
      </trkpt>
      <trkpt lat="45.47325" lon="4.03101">
        <ele>988.85</ele>
        <time>2023-05-29T08:03:06Z</time>
      </trkpt>
      <trkpt lat="45.47349" lon="4.03089">
        <ele>989.81</ele>
        <time>2023-05-29T08:03:25Z</time>
      </trkpt>
      <trkpt lat="45.47373" lon="4.03081">
        <ele>991.26</ele>
        <time>2023-05-29T08:03:42Z</time>
      </trkpt>
      <trkpt lat="45.47378" lon="4.03087">
        <ele>993.18</ele>
        <time>2023-05-29T08:03:47Z</time>
      </trkpt>
      <trkpt lat="45.47378" lon="4.0309">
        <ele>993.66</ele>
        <time>2023-05-29T08:03:48Z</time>
      </trkpt>
      <trkpt lat="45.47393" lon="4.03109">
        <ele>996.54</ele>
        <time>2023-05-29T08:04:04Z</time>
      </trkpt>
      <trkpt lat="45.47423" lon="4.03128">
        <ele>996.06</ele>
        <time>2023-05-29T08:04:21Z</time>
      </trkpt>
      <trkpt lat="45.47444" lon="4.03139">
        <ele>998.47</ele>
        <time>2023-05-29T08:04:35Z</time>
      </trkpt>
      <trkpt lat="45.47453" lon="4.03144">
        <ele>1001.35</ele>
        <time>2023-05-29T08:04:41Z</time>
      </trkpt>
      <trkpt lat="45.47456" lon="4.03144">
        <ele>1001.83</ele>
        <time>2023-05-29T08:04:42Z</time>
      </trkpt>
      <trkpt lat="45.47458" lon="4.03145">
        <ele>1001.83</ele>
        <time>2023-05-29T08:04:43Z</time>
      </trkpt>
      <trkpt lat="45.47471" lon="4.03152">
        <ele>1001.35</ele>
        <time>2023-05-29T08:05:01Z</time>
      </trkpt>
      <trkpt lat="45.4748" lon="4.03156">
        <ele>997.99</ele>
        <time>2023-05-29T08:05:14Z</time>
      </trkpt>
      <trkpt lat="45.47486" lon="4.0316">
        <ele>991.26</ele>
        <time>2023-05-29T08:05:30Z</time>
      </trkpt>
      <trkpt lat="45.47494" lon="4.03174">
        <ele>987.89</ele>
        <time>2023-05-29T08:05:45Z</time>
      </trkpt>
      <trkpt lat="45.47496" lon="4.03183">
        <ele>985.49</ele>
        <time>2023-05-29T08:05:50Z</time>
      </trkpt>
      <trkpt lat="45.47505" lon="4.03203">
        <ele>982.12</ele>
        <time>2023-05-29T08:06:05Z</time>
      </trkpt>
      <trkpt lat="45.47514" lon="4.03223">
        <ele>978.76</ele>
        <time>2023-05-29T08:06:22Z</time>
      </trkpt>
      <trkpt lat="45.47529" lon="4.03246">
        <ele>971.55</ele>
        <time>2023-05-29T08:06:40Z</time>
      </trkpt>
      <trkpt lat="45.47542" lon="4.03269">
        <ele>965.3</ele>
        <time>2023-05-29T08:06:53Z</time>
      </trkpt>
      <trkpt lat="45.47556" lon="4.03284">
        <ele>957.13</ele>
        <time>2023-05-29T08:07:07Z</time>
      </trkpt>
      <trkpt lat="45.4757" lon="4.03308">
        <ele>948.48</ele>
        <time>2023-05-29T08:07:25Z</time>
      </trkpt>
      <trkpt lat="45.47586" lon="4.03328">
        <ele>939.35</ele>
        <time>2023-05-29T08:07:40Z</time>
      </trkpt>
      <trkpt lat="45.47596" lon="4.03329">
        <ele>933.58</ele>
        <time>2023-05-29T08:07:56Z</time>
      </trkpt>
      <trkpt lat="45.47611" lon="4.03337">
        <ele>932.62</ele>
        <time>2023-05-29T08:08:12Z</time>
      </trkpt>
      <trkpt lat="45.47634" lon="4.03344">
        <ele>934.06</ele>
        <time>2023-05-29T08:08:28Z</time>
      </trkpt>
      <trkpt lat="45.47654" lon="4.03356">
        <ele>936.46</ele>
        <time>2023-05-29T08:08:44Z</time>
      </trkpt>
      <trkpt lat="45.47676" lon="4.03374">
        <ele>936.46</ele>
        <time>2023-05-29T08:08:59Z</time>
      </trkpt>
      <trkpt lat="45.47697" lon="4.03398">
        <ele>935.02</ele>
        <time>2023-05-29T08:09:16Z</time>
      </trkpt>
      <trkpt lat="45.47718" lon="4.03421">
        <ele>928.77</ele>
        <time>2023-05-29T08:09:31Z</time>
      </trkpt>
      <trkpt lat="45.47728" lon="4.03435">
        <ele>924.45</ele>
        <time>2023-05-29T08:09:48Z</time>
      </trkpt>
      <trkpt lat="45.47745" lon="4.03448">
        <ele>920.6</ele>
        <time>2023-05-29T08:10:05Z</time>
      </trkpt>
      <trkpt lat="45.4776" lon="4.03459">
        <ele>921.08</ele>
        <time>2023-05-29T08:10:19Z</time>
      </trkpt>
      <trkpt lat="45.47779" lon="4.03459">
        <ele>915.79</ele>
        <time>2023-05-29T08:10:36Z</time>
      </trkpt>
      <trkpt lat="45.47803" lon="4.03463">
        <ele>911.95</ele>
        <time>2023-05-29T08:10:54Z</time>
      </trkpt>
      <trkpt lat="45.47825" lon="4.03463">
        <ele>908.1</ele>
        <time>2023-05-29T08:11:11Z</time>
      </trkpt>
      <trkpt lat="45.47844" lon="4.03455">
        <ele>908.1</ele>
        <time>2023-05-29T08:11:24Z</time>
      </trkpt>
      <trkpt lat="45.47868" lon="4.03449">
        <ele>910.51</ele>
        <time>2023-05-29T08:11:39Z</time>
      </trkpt>
      <trkpt lat="45.47884" lon="4.03451">
        <ele>908.58</ele>
        <time>2023-05-29T08:11:47Z</time>
      </trkpt>
      <trkpt lat="45.47886" lon="4.03452">
        <ele>908.58</ele>
        <time>2023-05-29T08:11:48Z</time>
      </trkpt>
      <trkpt lat="45.47909" lon="4.03461">
        <ele>905.22</ele>
        <time>2023-05-29T08:12:04Z</time>
      </trkpt>
      <trkpt lat="45.47928" lon="4.03463">
        <ele>899.45</ele>
        <time>2023-05-29T08:12:21Z</time>
      </trkpt>
      <trkpt lat="45.47944" lon="4.03472">
        <ele>893.68</ele>
        <time>2023-05-29T08:12:44Z</time>
      </trkpt>
      <trkpt lat="45.47958" lon="4.03487">
        <ele>887.43</ele>
        <time>2023-05-29T08:12:55Z</time>
      </trkpt>
      <trkpt lat="45.47981" lon="4.03504">
        <ele>882.15</ele>
        <time>2023-05-29T08:13:09Z</time>
      </trkpt>
      <trkpt lat="45.47998" lon="4.03526">
        <ele>876.38</ele>
        <time>2023-05-29T08:13:22Z</time>
      </trkpt>
      <trkpt lat="45.48025" lon="4.03552">
        <ele>874.46</ele>
        <time>2023-05-29T08:13:39Z</time>
      </trkpt>
      <trkpt lat="45.48037" lon="4.03583">
        <ele>873.5</ele>
        <time>2023-05-29T08:13:53Z</time>
      </trkpt>
      <trkpt lat="45.48037" lon="4.03631">
        <ele>885.99</ele>
        <time>2023-05-29T08:14:11Z</time>
      </trkpt>
      <trkpt lat="45.48035" lon="4.03675">
        <ele>887.43</ele>
        <time>2023-05-29T08:14:30Z</time>
      </trkpt>
      <trkpt lat="45.48028" lon="4.03713">
        <ele>884.55</ele>
        <time>2023-05-29T08:14:47Z</time>
      </trkpt>
      <trkpt lat="45.48017" lon="4.03754">
        <ele>882.63</ele>
        <time>2023-05-29T08:15:06Z</time>
      </trkpt>
      <trkpt lat="45.48007" lon="4.03796">
        <ele>880.22</ele>
        <time>2023-05-29T08:15:27Z</time>
      </trkpt>
      <trkpt lat="45.47995" lon="4.03838">
        <ele>877.34</ele>
        <time>2023-05-29T08:15:47Z</time>
      </trkpt>
      <trkpt lat="45.47978" lon="4.03882">
        <ele>874.94</ele>
        <time>2023-05-29T08:16:10Z</time>
      </trkpt>
      <trkpt lat="45.47964" lon="4.0392">
        <ele>873.5</ele>
        <time>2023-05-29T08:16:30Z</time>
      </trkpt>
      <trkpt lat="45.47951" lon="4.03952">
        <ele>871.57</ele>
        <time>2023-05-29T08:16:47Z</time>
      </trkpt>
      <trkpt lat="45.47935" lon="4.03993">
        <ele>873.01</ele>
        <time>2023-05-29T08:17:07Z</time>
      </trkpt>
      <trkpt lat="45.47921" lon="4.04026">
        <ele>871.57</ele>
        <time>2023-05-29T08:17:26Z</time>
      </trkpt>
      <trkpt lat="45.47904" lon="4.04048">
        <ele>869.17</ele>
        <time>2023-05-29T08:17:43Z</time>
      </trkpt>
      <trkpt lat="45.47889" lon="4.04075">
        <ele>866.29</ele>
        <time>2023-05-29T08:17:59Z</time>
      </trkpt>
      <trkpt lat="45.47886" lon="4.04112">
        <ele>864.84</ele>
        <time>2023-05-29T08:18:16Z</time>
      </trkpt>
      <trkpt lat="45.47885" lon="4.04151">
        <ele>863.4</ele>
        <time>2023-05-29T08:18:35Z</time>
      </trkpt>
      <trkpt lat="45.47875" lon="4.04188">
        <ele>862.44</ele>
        <time>2023-05-29T08:18:54Z</time>
      </trkpt>
      <trkpt lat="45.47864" lon="4.04204">
        <ele>860.04</ele>
        <time>2023-05-29T08:19:06Z</time>
      </trkpt>
      <trkpt lat="45.47849" lon="4.04227">
        <ele>858.59</ele>
        <time>2023-05-29T08:19:22Z</time>
      </trkpt>
      <trkpt lat="45.47825" lon="4.04245">
        <ele>856.19</ele>
        <time>2023-05-29T08:19:42Z</time>
      </trkpt>
      <trkpt lat="45.47824" lon="4.04248">
        <ele>855.23</ele>
        <time>2023-05-29T08:19:44Z</time>
      </trkpt>
      <trkpt lat="45.47824" lon="4.0425">
        <ele>855.23</ele>
        <time>2023-05-29T08:19:45Z</time>
      </trkpt>
      <trkpt lat="45.47823" lon="4.04252">
        <ele>854.75</ele>
        <time>2023-05-29T08:19:46Z</time>
      </trkpt>
      <trkpt lat="45.47823" lon="4.04253">
        <ele>854.27</ele>
        <time>2023-05-29T08:19:47Z</time>
      </trkpt>
      <trkpt lat="45.47823" lon="4.04255">
        <ele>853.79</ele>
        <time>2023-05-29T08:19:48Z</time>
      </trkpt>
      <trkpt lat="45.47825" lon="4.04291">
        <ele>851.38</ele>
        <time>2023-05-29T08:20:08Z</time>
      </trkpt>
      <trkpt lat="45.47827" lon="4.04327">
        <ele>848.98</ele>
        <time>2023-05-29T08:20:24Z</time>
      </trkpt>
      <trkpt lat="45.47835" lon="4.04364">
        <ele>848.02</ele>
        <time>2023-05-29T08:20:41Z</time>
      </trkpt>
      <trkpt lat="45.47852" lon="4.04397">
        <ele>846.1</ele>
        <time>2023-05-29T08:21:01Z</time>
      </trkpt>
      <trkpt lat="45.47856" lon="4.04425">
        <ele>843.69</ele>
        <time>2023-05-29T08:21:17Z</time>
      </trkpt>
      <trkpt lat="45.47855" lon="4.04426">
        <ele>843.21</ele>
        <time>2023-05-29T08:21:18Z</time>
      </trkpt>
      <trkpt lat="45.47854" lon="4.04427">
        <ele>843.21</ele>
        <time>2023-05-29T08:21:19Z</time>
      </trkpt>
      <trkpt lat="45.4785" lon="4.04448">
        <ele>840.81</ele>
        <time>2023-05-29T08:21:34Z</time>
      </trkpt>
      <trkpt lat="45.47836" lon="4.04456">
        <ele>839.85</ele>
        <time>2023-05-29T08:21:51Z</time>
      </trkpt>
      <trkpt lat="45.47834" lon="4.04457">
        <ele>839.85</ele>
        <time>2023-05-29T08:21:53Z</time>
      </trkpt>
      <trkpt lat="45.47832" lon="4.04457">
        <ele>839.37</ele>
        <time>2023-05-29T08:21:54Z</time>
      </trkpt>
      <trkpt lat="45.47822" lon="4.04464">
        <ele>838.89</ele>
        <time>2023-05-29T08:22:02Z</time>
      </trkpt>
      <trkpt lat="45.47812" lon="4.04479">
        <ele>836</ele>
        <time>2023-05-29T08:22:16Z</time>
      </trkpt>
      <trkpt lat="45.47808" lon="4.04503">
        <ele>833.12</ele>
        <time>2023-05-29T08:22:33Z</time>
      </trkpt>
      <trkpt lat="45.47808" lon="4.04514">
        <ele>831.68</ele>
        <time>2023-05-29T08:22:40Z</time>
      </trkpt>
      <trkpt lat="45.47814" lon="4.04533">
        <ele>831.2</ele>
        <time>2023-05-29T08:22:53Z</time>
      </trkpt>
      <trkpt lat="45.47815" lon="4.04533">
        <ele>831.2</ele>
        <time>2023-05-29T08:22:54Z</time>
      </trkpt>
      <trkpt lat="45.47817" lon="4.04534">
        <ele>831.2</ele>
        <time>2023-05-29T08:22:55Z</time>
      </trkpt>
      <trkpt lat="45.47818" lon="4.04535">
        <ele>831.68</ele>
        <time>2023-05-29T08:22:56Z</time>
      </trkpt>
      <trkpt lat="45.4782" lon="4.04536">
        <ele>831.68</ele>
        <time>2023-05-29T08:22:57Z</time>
      </trkpt>
      <trkpt lat="45.47833" lon="4.04548">
        <ele>833.6</ele>
        <time>2023-05-29T08:23:10Z</time>
      </trkpt>
      <trkpt lat="45.47834" lon="4.04546">
        <ele>834.56</ele>
        <time>2023-05-29T08:23:25Z</time>
      </trkpt>
      <trkpt lat="45.47832" lon="4.04548">
        <ele>835.04</ele>
        <time>2023-05-29T08:23:54Z</time>
      </trkpt>
      <trkpt lat="45.47836" lon="4.04546">
        <ele>835.04</ele>
        <time>2023-05-29T08:24:17Z</time>
      </trkpt>
      <trkpt lat="45.47834" lon="4.04542">
        <ele>839.37</ele>
        <time>2023-05-29T08:24:40Z</time>
      </trkpt>
      <trkpt lat="45.47835" lon="4.04545">
        <ele>840.33</ele>
        <time>2023-05-29T08:24:56Z</time>
      </trkpt>
      <trkpt lat="45.47831" lon="4.04547">
        <ele>840.81</ele>
        <time>2023-05-29T08:25:10Z</time>
      </trkpt>
      <trkpt lat="45.47832" lon="4.04545">
        <ele>839.37</ele>
        <time>2023-05-29T08:25:34Z</time>
      </trkpt>
      <trkpt lat="45.47835" lon="4.04538">
        <ele>837.45</ele>
        <time>2023-05-29T08:26:05Z</time>
      </trkpt>
      <trkpt lat="45.47831" lon="4.04549">
        <ele>843.21</ele>
        <time>2023-05-29T08:26:31Z</time>
      </trkpt>
      <trkpt lat="45.47831" lon="4.0456">
        <ele>848.02</ele>
        <time>2023-05-29T08:26:58Z</time>
      </trkpt>
      <trkpt lat="45.47831" lon="4.04562">
        <ele>847.54</ele>
        <time>2023-05-29T08:27:23Z</time>
      </trkpt>
      <trkpt lat="45.47836" lon="4.04557">
        <ele>848.5</ele>
        <time>2023-05-29T08:27:34Z</time>
      </trkpt>
      <trkpt lat="45.47845" lon="4.04551">
        <ele>849.94</ele>
        <time>2023-05-29T08:27:48Z</time>
      </trkpt>
      <trkpt lat="45.4785" lon="4.04535">
        <ele>850.9</ele>
        <time>2023-05-29T08:28:07Z</time>
      </trkpt>
      <trkpt lat="45.47848" lon="4.04527">
        <ele>850.42</ele>
        <time>2023-05-29T08:28:23Z</time>
      </trkpt>
      <trkpt lat="45.47852" lon="4.04529">
        <ele>849.94</ele>
        <time>2023-05-29T08:28:53Z</time>
      </trkpt>
      <trkpt lat="45.47848" lon="4.04543">
        <ele>850.9</ele>
        <time>2023-05-29T08:30:49Z</time>
      </trkpt>
      <trkpt lat="45.47835" lon="4.04546">
        <ele>840.81</ele>
        <time>2023-05-29T08:31:04Z</time>
      </trkpt>
      <trkpt lat="45.47832" lon="4.04545">
        <ele>839.85</ele>
        <time>2023-05-29T08:31:19Z</time>
      </trkpt>
      <trkpt lat="45.47831" lon="4.04537">
        <ele>840.81</ele>
        <time>2023-05-29T08:31:40Z</time>
      </trkpt>
      <trkpt lat="45.47832" lon="4.0454">
        <ele>840.81</ele>
        <time>2023-05-29T08:32:04Z</time>
      </trkpt>
      <trkpt lat="45.47831" lon="4.04546">
        <ele>838.89</ele>
        <time>2023-05-29T08:32:24Z</time>
      </trkpt>
      <trkpt lat="45.4783" lon="4.04546">
        <ele>839.37</ele>
        <time>2023-05-29T08:32:52Z</time>
      </trkpt>
      <trkpt lat="45.47831" lon="4.04548">
        <ele>840.81</ele>
        <time>2023-05-29T08:33:12Z</time>
      </trkpt>
      <trkpt lat="45.47828" lon="4.04549">
        <ele>846.1</ele>
        <time>2023-05-29T08:33:39Z</time>
      </trkpt>
      <trkpt lat="45.4783" lon="4.04549">
        <ele>850.9</ele>
        <time>2023-05-29T08:34:08Z</time>
      </trkpt>
      <trkpt lat="45.47831" lon="4.04552">
        <ele>850.9</ele>
        <time>2023-05-29T08:34:36Z</time>
      </trkpt>
      <trkpt lat="45.47831" lon="4.04553">
        <ele>850.9</ele>
        <time>2023-05-29T08:34:56Z</time>
      </trkpt>
      <trkpt lat="45.47832" lon="4.04553">
        <ele>847.54</ele>
        <time>2023-05-29T08:35:14Z</time>
      </trkpt>
      <trkpt lat="45.47832" lon="4.0455">
        <ele>845.14</ele>
        <time>2023-05-29T08:35:27Z</time>
      </trkpt>
      <trkpt lat="45.47829" lon="4.04552">
        <ele>843.21</ele>
        <time>2023-05-29T08:35:41Z</time>
      </trkpt>
      <trkpt lat="45.4783" lon="4.04547">
        <ele>838.41</ele>
        <time>2023-05-29T08:35:59Z</time>
      </trkpt>
      <trkpt lat="45.47829" lon="4.04551">
        <ele>838.41</ele>
        <time>2023-05-29T08:36:02Z</time>
      </trkpt>
      <trkpt lat="45.47831" lon="4.04562">
        <ele>840.81</ele>
        <time>2023-05-29T08:36:23Z</time>
      </trkpt>
      <trkpt lat="45.47832" lon="4.04568">
        <ele>843.21</ele>
        <time>2023-05-29T08:36:45Z</time>
      </trkpt>
      <trkpt lat="45.47836" lon="4.04573">
        <ele>844.18</ele>
        <time>2023-05-29T08:37:05Z</time>
      </trkpt>
      <trkpt lat="45.47842" lon="4.04587">
        <ele>846.1</ele>
        <time>2023-05-29T08:37:13Z</time>
      </trkpt>
      <trkpt lat="45.47859" lon="4.04616">
        <ele>845.14</ele>
        <time>2023-05-29T08:37:30Z</time>
      </trkpt>
      <trkpt lat="45.47876" lon="4.04652">
        <ele>839.85</ele>
        <time>2023-05-29T08:37:51Z</time>
      </trkpt>
      <trkpt lat="45.47887" lon="4.04689">
        <ele>835.04</ele>
        <time>2023-05-29T08:38:12Z</time>
      </trkpt>
      <trkpt lat="45.47878" lon="4.04726">
        <ele>832.16</ele>
        <time>2023-05-29T08:38:30Z</time>
      </trkpt>
      <trkpt lat="45.47858" lon="4.04738">
        <ele>829.76</ele>
        <time>2023-05-29T08:38:47Z</time>
      </trkpt>
      <trkpt lat="45.4783" lon="4.04714">
        <ele>829.27</ele>
        <time>2023-05-29T08:39:08Z</time>
      </trkpt>
      <trkpt lat="45.47808" lon="4.04704">
        <ele>827.35</ele>
        <time>2023-05-29T08:39:25Z</time>
      </trkpt>
      <trkpt lat="45.47797" lon="4.04695">
        <ele>828.31</ele>
        <time>2023-05-29T08:39:38Z</time>
      </trkpt>
      <trkpt lat="45.47787" lon="4.04696">
        <ele>828.31</ele>
        <time>2023-05-29T08:39:53Z</time>
      </trkpt>
      <trkpt lat="45.47768" lon="4.04694">
        <ele>827.35</ele>
        <time>2023-05-29T08:40:07Z</time>
      </trkpt>
      <trkpt lat="45.47755" lon="4.04693">
        <ele>825.91</ele>
        <time>2023-05-29T08:40:16Z</time>
      </trkpt>
      <trkpt lat="45.47724" lon="4.04693">
        <ele>827.35</ele>
        <time>2023-05-29T08:40:35Z</time>
      </trkpt>
      <trkpt lat="45.47703" lon="4.04685">
        <ele>828.79</ele>
        <time>2023-05-29T08:40:49Z</time>
      </trkpt>
      <trkpt lat="45.477" lon="4.04685">
        <ele>828.79</ele>
        <time>2023-05-29T08:40:51Z</time>
      </trkpt>
      <trkpt lat="45.47674" lon="4.04682">
        <ele>829.27</ele>
        <time>2023-05-29T08:41:09Z</time>
      </trkpt>
      <trkpt lat="45.47655" lon="4.04685">
        <ele>832.64</ele>
        <time>2023-05-29T08:41:25Z</time>
      </trkpt>
      <trkpt lat="45.47625" lon="4.04686">
        <ele>832.64</ele>
        <time>2023-05-29T08:41:47Z</time>
      </trkpt>
      <trkpt lat="45.47592" lon="4.04677">
        <ele>832.16</ele>
        <time>2023-05-29T08:42:09Z</time>
      </trkpt>
      <trkpt lat="45.47564" lon="4.0468">
        <ele>833.12</ele>
        <time>2023-05-29T08:42:29Z</time>
      </trkpt>
      <trkpt lat="45.47533" lon="4.04701">
        <ele>833.12</ele>
        <time>2023-05-29T08:42:53Z</time>
      </trkpt>
      <trkpt lat="45.47507" lon="4.04724">
        <ele>834.56</ele>
        <time>2023-05-29T08:43:14Z</time>
      </trkpt>
      <trkpt lat="45.47486" lon="4.04747">
        <ele>836.96</ele>
        <time>2023-05-29T08:43:33Z</time>
      </trkpt>
      <trkpt lat="45.47462" lon="4.04771">
        <ele>838.89</ele>
        <time>2023-05-29T08:43:52Z</time>
      </trkpt>
      <trkpt lat="45.47437" lon="4.04797">
        <ele>840.33</ele>
        <time>2023-05-29T08:44:13Z</time>
      </trkpt>
      <trkpt lat="45.47416" lon="4.04825">
        <ele>839.37</ele>
        <time>2023-05-29T08:44:33Z</time>
      </trkpt>
      <trkpt lat="45.47416" lon="4.04868">
        <ele>837.45</ele>
        <time>2023-05-29T08:44:53Z</time>
      </trkpt>
      <trkpt lat="45.47412" lon="4.04922">
        <ele>835.52</ele>
        <time>2023-05-29T08:45:17Z</time>
      </trkpt>
      <trkpt lat="45.47406" lon="4.04944">
        <ele>835.52</ele>
        <time>2023-05-29T08:45:30Z</time>
      </trkpt>
      <trkpt lat="45.47393" lon="4.04985">
        <ele>834.08</ele>
        <time>2023-05-29T08:45:50Z</time>
      </trkpt>
      <trkpt lat="45.4738" lon="4.05025">
        <ele>834.56</ele>
        <time>2023-05-29T08:46:10Z</time>
      </trkpt>
      <trkpt lat="45.47366" lon="4.0506">
        <ele>832.16</ele>
        <time>2023-05-29T08:46:27Z</time>
      </trkpt>
      <trkpt lat="45.47356" lon="4.05092">
        <ele>830.24</ele>
        <time>2023-05-29T08:46:42Z</time>
      </trkpt>
      <trkpt lat="45.47345" lon="4.05133">
        <ele>829.76</ele>
        <time>2023-05-29T08:47:02Z</time>
      </trkpt>
      <trkpt lat="45.47342" lon="4.05175">
        <ele>829.76</ele>
        <time>2023-05-29T08:47:21Z</time>
      </trkpt>
      <trkpt lat="45.47342" lon="4.05218">
        <ele>825.91</ele>
        <time>2023-05-29T08:47:42Z</time>
      </trkpt>
      <trkpt lat="45.4734" lon="4.0526">
        <ele>823.99</ele>
        <time>2023-05-29T08:48:03Z</time>
      </trkpt>
      <trkpt lat="45.47337" lon="4.05304">
        <ele>821.1</ele>
        <time>2023-05-29T08:48:24Z</time>
      </trkpt>
      <trkpt lat="45.47332" lon="4.0535">
        <ele>818.22</ele>
        <time>2023-05-29T08:48:47Z</time>
      </trkpt>
      <trkpt lat="45.47324" lon="4.05399">
        <ele>815.34</ele>
        <time>2023-05-29T08:49:11Z</time>
      </trkpt>
      <trkpt lat="45.47318" lon="4.05443">
        <ele>812.93</ele>
        <time>2023-05-29T08:49:33Z</time>
      </trkpt>
      <trkpt lat="45.47304" lon="4.05478">
        <ele>810.05</ele>
        <time>2023-05-29T08:49:54Z</time>
      </trkpt>
      <trkpt lat="45.47289" lon="4.05506">
        <ele>808.13</ele>
        <time>2023-05-29T08:50:12Z</time>
      </trkpt>
      <trkpt lat="45.47275" lon="4.0554">
        <ele>805.24</ele>
        <time>2023-05-29T08:50:32Z</time>
      </trkpt>
      <trkpt lat="45.47259" lon="4.05574">
        <ele>802.36</ele>
        <time>2023-05-29T08:50:55Z</time>
      </trkpt>
      <trkpt lat="45.47245" lon="4.05606">
        <ele>798.99</ele>
        <time>2023-05-29T08:51:16Z</time>
      </trkpt>
      <trkpt lat="45.47228" lon="4.05625">
        <ele>795.63</ele>
        <time>2023-05-29T08:51:33Z</time>
      </trkpt>
      <trkpt lat="45.47208" lon="4.05637">
        <ele>794.19</ele>
        <time>2023-05-29T08:51:50Z</time>
      </trkpt>
      <trkpt lat="45.47186" lon="4.0565">
        <ele>791.78</ele>
        <time>2023-05-29T08:52:08Z</time>
      </trkpt>
      <trkpt lat="45.47174" lon="4.05668">
        <ele>790.34</ele>
        <time>2023-05-29T08:52:23Z</time>
      </trkpt>
      <trkpt lat="45.47164" lon="4.0569">
        <ele>785.53</ele>
        <time>2023-05-29T08:52:40Z</time>
      </trkpt>
      <trkpt lat="45.47155" lon="4.05713">
        <ele>780.73</ele>
        <time>2023-05-29T08:52:56Z</time>
      </trkpt>
      <trkpt lat="45.47152" lon="4.05715">
        <ele>780.25</ele>
        <time>2023-05-29T08:52:59Z</time>
      </trkpt>
      <trkpt lat="45.47151" lon="4.05715">
        <ele>780.25</ele>
        <time>2023-05-29T08:53:00Z</time>
      </trkpt>
      <trkpt lat="45.47149" lon="4.05715">
        <ele>780.25</ele>
        <time>2023-05-29T08:53:01Z</time>
      </trkpt>
      <trkpt lat="45.47148" lon="4.05715">
        <ele>780.25</ele>
        <time>2023-05-29T08:53:02Z</time>
      </trkpt>
      <trkpt lat="45.47147" lon="4.05714">
        <ele>779.77</ele>
        <time>2023-05-29T08:53:03Z</time>
      </trkpt>
      <trkpt lat="45.47145" lon="4.05714">
        <ele>779.77</ele>
        <time>2023-05-29T08:53:04Z</time>
      </trkpt>
      <trkpt lat="45.47144" lon="4.05713">
        <ele>779.77</ele>
        <time>2023-05-29T08:53:05Z</time>
      </trkpt>
      <trkpt lat="45.47143" lon="4.05712">
        <ele>779.77</ele>
        <time>2023-05-29T08:53:06Z</time>
      </trkpt>
      <trkpt lat="45.4712" lon="4.05698">
        <ele>775.44</ele>
        <time>2023-05-29T08:53:23Z</time>
      </trkpt>
      <trkpt lat="45.47096" lon="4.05688">
        <ele>769.19</ele>
        <time>2023-05-29T08:53:40Z</time>
      </trkpt>
      <trkpt lat="45.47072" lon="4.05667">
        <ele>764.87</ele>
        <time>2023-05-29T08:53:59Z</time>
      </trkpt>
      <trkpt lat="45.47058" lon="4.05644">
        <ele>761.98</ele>
        <time>2023-05-29T08:54:13Z</time>
      </trkpt>
      <trkpt lat="45.47047" lon="4.05633">
        <ele>758.14</ele>
        <time>2023-05-29T08:54:25Z</time>
      </trkpt>
      <trkpt lat="45.47042" lon="4.05629">
        <ele>755.73</ele>
        <time>2023-05-29T08:54:30Z</time>
      </trkpt>
      <trkpt lat="45.47029" lon="4.05626">
        <ele>753.81</ele>
        <time>2023-05-29T08:54:40Z</time>
      </trkpt>
      <trkpt lat="45.47028" lon="4.05627">
        <ele>753.81</ele>
        <time>2023-05-29T08:54:41Z</time>
      </trkpt>
      <trkpt lat="45.47027" lon="4.05628">
        <ele>753.33</ele>
        <time>2023-05-29T08:54:42Z</time>
      </trkpt>
      <trkpt lat="45.47025" lon="4.05629">
        <ele>752.85</ele>
        <time>2023-05-29T08:54:43Z</time>
      </trkpt>
      <trkpt lat="45.47024" lon="4.05631">
        <ele>752.85</ele>
        <time>2023-05-29T08:54:44Z</time>
      </trkpt>
      <trkpt lat="45.47023" lon="4.05633">
        <ele>752.37</ele>
        <time>2023-05-29T08:54:45Z</time>
      </trkpt>
      <trkpt lat="45.47023" lon="4.05636">
        <ele>751.89</ele>
        <time>2023-05-29T08:54:46Z</time>
      </trkpt>
      <trkpt lat="45.47023" lon="4.05639">
        <ele>751.41</ele>
        <time>2023-05-29T08:54:47Z</time>
      </trkpt>
      <trkpt lat="45.47024" lon="4.05648">
        <ele>750.93</ele>
        <time>2023-05-29T08:54:52Z</time>
      </trkpt>
      <trkpt lat="45.47025" lon="4.0565">
        <ele>750.93</ele>
        <time>2023-05-29T08:54:53Z</time>
      </trkpt>
      <trkpt lat="45.47027" lon="4.05668">
        <ele>751.89</ele>
        <time>2023-05-29T08:55:01Z</time>
      </trkpt>
      <trkpt lat="45.47012" lon="4.05705">
        <ele>750.45</ele>
        <time>2023-05-29T08:55:13Z</time>
      </trkpt>
      <trkpt lat="45.47013" lon="4.05708">
        <ele>750.93</ele>
        <time>2023-05-29T08:55:14Z</time>
      </trkpt>
      <trkpt lat="45.47019" lon="4.05749">
        <ele>754.29</ele>
        <time>2023-05-29T08:55:30Z</time>
      </trkpt>
      <trkpt lat="45.47035" lon="4.05784">
        <ele>757.66</ele>
        <time>2023-05-29T08:55:48Z</time>
      </trkpt>
      <trkpt lat="45.47051" lon="4.05814">
        <ele>760.06</ele>
        <time>2023-05-29T08:56:06Z</time>
      </trkpt>
      <trkpt lat="45.4705" lon="4.05816">
        <ele>760.06</ele>
        <time>2023-05-29T08:56:07Z</time>
      </trkpt>
      <trkpt lat="45.4705" lon="4.05818">
        <ele>760.06</ele>
        <time>2023-05-29T08:56:08Z</time>
      </trkpt>
      <trkpt lat="45.4705" lon="4.0582">
        <ele>760.06</ele>
        <time>2023-05-29T08:56:09Z</time>
      </trkpt>
      <trkpt lat="45.47049" lon="4.05822">
        <ele>760.06</ele>
        <time>2023-05-29T08:56:10Z</time>
      </trkpt>
      <trkpt lat="45.47036" lon="4.0584">
        <ele>761.02</ele>
        <time>2023-05-29T08:56:24Z</time>
      </trkpt>
      <trkpt lat="45.4701" lon="4.05853">
        <ele>766.79</ele>
        <time>2023-05-29T08:56:40Z</time>
      </trkpt>
      <trkpt lat="45.46988" lon="4.05852">
        <ele>770.63</ele>
        <time>2023-05-29T08:56:54Z</time>
      </trkpt>
      <trkpt lat="45.46967" lon="4.05834">
        <ele>773.04</ele>
        <time>2023-05-29T08:57:08Z</time>
      </trkpt>
      <trkpt lat="45.46943" lon="4.05811">
        <ele>775.44</ele>
        <time>2023-05-29T08:57:14Z</time>
      </trkpt>
      <trkpt lat="45.46884" lon="4.05768">
        <ele>781.21</ele>
        <time>2023-05-29T08:57:27Z</time>
      </trkpt>
      <trkpt lat="45.4688" lon="4.05767">
        <ele>781.21</ele>
        <time>2023-05-29T08:57:28Z</time>
      </trkpt>
      <trkpt lat="45.46875" lon="4.05766">
        <ele>781.69</ele>
        <time>2023-05-29T08:57:29Z</time>
      </trkpt>
      <trkpt lat="45.46864" lon="4.05765">
        <ele>782.65</ele>
        <time>2023-05-29T08:57:31Z</time>
      </trkpt>
      <trkpt lat="45.46858" lon="4.05764">
        <ele>783.13</ele>
        <time>2023-05-29T08:57:32Z</time>
      </trkpt>
      <trkpt lat="45.46848" lon="4.0576">
        <ele>784.57</ele>
        <time>2023-05-29T08:57:34Z</time>
      </trkpt>
      <trkpt lat="45.46834" lon="4.05748">
        <ele>786.02</ele>
        <time>2023-05-29T08:57:37Z</time>
      </trkpt>
      <trkpt lat="45.4683" lon="4.05744">
        <ele>786.5</ele>
        <time>2023-05-29T08:57:38Z</time>
      </trkpt>
      <trkpt lat="45.46826" lon="4.05741">
        <ele>786.98</ele>
        <time>2023-05-29T08:57:39Z</time>
      </trkpt>
      <trkpt lat="45.46818" lon="4.05735">
        <ele>788.42</ele>
        <time>2023-05-29T08:57:41Z</time>
      </trkpt>
      <trkpt lat="45.46801" lon="4.05728">
        <ele>791.3</ele>
        <time>2023-05-29T08:57:45Z</time>
      </trkpt>
      <trkpt lat="45.46797" lon="4.05728">
        <ele>792.26</ele>
        <time>2023-05-29T08:57:46Z</time>
      </trkpt>
      <trkpt lat="45.46793" lon="4.05728">
        <ele>792.74</ele>
        <time>2023-05-29T08:57:47Z</time>
      </trkpt>
      <trkpt lat="45.4679" lon="4.05729">
        <ele>793.71</ele>
        <time>2023-05-29T08:57:48Z</time>
      </trkpt>
      <trkpt lat="45.46786" lon="4.0573">
        <ele>794.19</ele>
        <time>2023-05-29T08:57:49Z</time>
      </trkpt>
      <trkpt lat="45.46774" lon="4.05734">
        <ele>796.59</ele>
        <time>2023-05-29T08:57:52Z</time>
      </trkpt>
      <trkpt lat="45.46768" lon="4.05734">
        <ele>797.55</ele>
        <time>2023-05-29T08:57:53Z</time>
      </trkpt>
      <trkpt lat="45.46724" lon="4.05725">
        <ele>803.8</ele>
        <time>2023-05-29T08:58:02Z</time>
      </trkpt>
      <trkpt lat="45.4672" lon="4.05723">
        <ele>804.76</ele>
        <time>2023-05-29T08:58:03Z</time>
      </trkpt>
      <trkpt lat="45.46686" lon="4.05693">
        <ele>809.57</ele>
        <time>2023-05-29T08:58:11Z</time>
      </trkpt>
      <trkpt lat="45.46682" lon="4.0569">
        <ele>810.05</ele>
        <time>2023-05-29T08:58:12Z</time>
      </trkpt>
      <trkpt lat="45.46678" lon="4.05688">
        <ele>811.01</ele>
        <time>2023-05-29T08:58:13Z</time>
      </trkpt>
      <trkpt lat="45.46674" lon="4.05686">
        <ele>811.97</ele>
        <time>2023-05-29T08:58:14Z</time>
      </trkpt>
      <trkpt lat="45.46671" lon="4.05685">
        <ele>812.45</ele>
        <time>2023-05-29T08:58:15Z</time>
      </trkpt>
      <trkpt lat="45.46668" lon="4.05684">
        <ele>813.41</ele>
        <time>2023-05-29T08:58:16Z</time>
      </trkpt>
      <trkpt lat="45.46667" lon="4.05684">
        <ele>814.37</ele>
        <time>2023-05-29T08:58:17Z</time>
      </trkpt>
      <trkpt lat="45.46665" lon="4.05683">
        <ele>814.85</ele>
        <time>2023-05-29T08:58:18Z</time>
      </trkpt>
      <trkpt lat="45.46649" lon="4.05664">
        <ele>823.99</ele>
        <time>2023-05-29T08:58:34Z</time>
      </trkpt>
      <trkpt lat="45.4663" lon="4.05649">
        <ele>829.76</ele>
        <time>2023-05-29T08:58:47Z</time>
      </trkpt>
      <trkpt lat="45.46627" lon="4.05652">
        <ele>831.68</ele>
        <time>2023-05-29T08:58:51Z</time>
      </trkpt>
      <trkpt lat="45.46625" lon="4.05652">
        <ele>832.16</ele>
        <time>2023-05-29T08:58:52Z</time>
      </trkpt>
      <trkpt lat="45.46623" lon="4.05653">
        <ele>832.64</ele>
        <time>2023-05-29T08:58:53Z</time>
      </trkpt>
      <trkpt lat="45.46621" lon="4.05653">
        <ele>832.64</ele>
        <time>2023-05-29T08:58:54Z</time>
      </trkpt>
      <trkpt lat="45.46619" lon="4.05653">
        <ele>833.12</ele>
        <time>2023-05-29T08:58:55Z</time>
      </trkpt>
      <trkpt lat="45.46617" lon="4.05653">
        <ele>833.12</ele>
        <time>2023-05-29T08:58:56Z</time>
      </trkpt>
      <trkpt lat="45.46615" lon="4.05653">
        <ele>833.6</ele>
        <time>2023-05-29T08:58:57Z</time>
      </trkpt>
      <trkpt lat="45.46614" lon="4.05652">
        <ele>834.08</ele>
        <time>2023-05-29T08:58:58Z</time>
      </trkpt>
      <trkpt lat="45.46591" lon="4.05662">
        <ele>835.04</ele>
        <time>2023-05-29T08:59:14Z</time>
      </trkpt>
      <trkpt lat="45.4659" lon="4.05661">
        <ele>834.56</ele>
        <time>2023-05-29T08:59:33Z</time>
      </trkpt>
      <trkpt lat="45.46589" lon="4.05663">
        <ele>834.56</ele>
        <time>2023-05-29T08:59:43Z</time>
      </trkpt>
      <trkpt lat="45.46588" lon="4.05663">
        <ele>834.56</ele>
        <time>2023-05-29T08:59:44Z</time>
      </trkpt>
      <trkpt lat="45.46586" lon="4.05663">
        <ele>834.08</ele>
        <time>2023-05-29T08:59:45Z</time>
      </trkpt>
      <trkpt lat="45.46585" lon="4.05664">
        <ele>834.08</ele>
        <time>2023-05-29T08:59:46Z</time>
      </trkpt>
      <trkpt lat="45.46585" lon="4.05665">
        <ele>833.6</ele>
        <time>2023-05-29T08:59:47Z</time>
      </trkpt>
      <trkpt lat="45.46585" lon="4.05666">
        <ele>833.12</ele>
        <time>2023-05-29T08:59:48Z</time>
      </trkpt>
      <trkpt lat="45.46585" lon="4.05668">
        <ele>833.12</ele>
        <time>2023-05-29T08:59:49Z</time>
      </trkpt>
      <trkpt lat="45.46585" lon="4.05669">
        <ele>832.64</ele>
        <time>2023-05-29T08:59:50Z</time>
      </trkpt>
      <trkpt lat="45.46588" lon="4.05666">
        <ele>828.31</ele>
        <time>2023-05-29T09:00:02Z</time>
      </trkpt>
      <trkpt lat="45.46587" lon="4.05667">
        <ele>826.39</ele>
        <time>2023-05-29T09:00:25Z</time>
      </trkpt>
      <trkpt lat="45.46588" lon="4.05669">
        <ele>825.43</ele>
        <time>2023-05-29T09:00:40Z</time>
      </trkpt>
      <trkpt lat="45.46589" lon="4.05681">
        <ele>824.47</ele>
        <time>2023-05-29T09:00:55Z</time>
      </trkpt>
      <trkpt lat="45.46589" lon="4.05683">
        <ele>824.47</ele>
        <time>2023-05-29T09:00:56Z</time>
      </trkpt>
      <trkpt lat="45.46581" lon="4.0571">
        <ele>820.62</ele>
        <time>2023-05-29T09:01:13Z</time>
      </trkpt>
      <trkpt lat="45.46578" lon="4.05714">
        <ele>820.14</ele>
        <time>2023-05-29T09:01:16Z</time>
      </trkpt>
      <trkpt lat="45.46542" lon="4.05738">
        <ele>823.03</ele>
        <time>2023-05-29T09:01:39Z</time>
      </trkpt>
      <trkpt lat="45.46521" lon="4.05762">
        <ele>825.91</ele>
        <time>2023-05-29T09:01:56Z</time>
      </trkpt>
      <trkpt lat="45.46505" lon="4.05794">
        <ele>829.27</ele>
        <time>2023-05-29T09:02:14Z</time>
      </trkpt>
      <trkpt lat="45.46493" lon="4.05839">
        <ele>832.16</ele>
        <time>2023-05-29T09:02:36Z</time>
      </trkpt>
      <trkpt lat="45.46489" lon="4.05884">
        <ele>831.68</ele>
        <time>2023-05-29T09:02:58Z</time>
      </trkpt>
      <trkpt lat="45.46487" lon="4.05917">
        <ele>828.79</ele>
        <time>2023-05-29T09:03:15Z</time>
      </trkpt>
      <trkpt lat="45.46487" lon="4.05923">
        <ele>827.83</ele>
        <time>2023-05-29T09:03:19Z</time>
      </trkpt>
      <trkpt lat="45.46488" lon="4.05924">
        <ele>827.83</ele>
        <time>2023-05-29T09:03:20Z</time>
      </trkpt>
      <trkpt lat="45.46489" lon="4.05926">
        <ele>827.83</ele>
        <time>2023-05-29T09:03:21Z</time>
      </trkpt>
      <trkpt lat="45.465" lon="4.05967">
        <ele>822.06</ele>
        <time>2023-05-29T09:03:41Z</time>
      </trkpt>
      <trkpt lat="45.4651" lon="4.06004">
        <ele>818.22</ele>
        <time>2023-05-29T09:03:58Z</time>
      </trkpt>
      <trkpt lat="45.46521" lon="4.06044">
        <ele>817.26</ele>
        <time>2023-05-29T09:04:18Z</time>
      </trkpt>
      <trkpt lat="45.46534" lon="4.06083">
        <ele>816.78</ele>
        <time>2023-05-29T09:04:39Z</time>
      </trkpt>
      <trkpt lat="45.46538" lon="4.06124">
        <ele>814.37</ele>
        <time>2023-05-29T09:04:57Z</time>
      </trkpt>
      <trkpt lat="45.46536" lon="4.06167">
        <ele>812.45</ele>
        <time>2023-05-29T09:05:17Z</time>
      </trkpt>
      <trkpt lat="45.46548" lon="4.06208">
        <ele>811.49</ele>
        <time>2023-05-29T09:05:34Z</time>
      </trkpt>
      <trkpt lat="45.4656" lon="4.0624">
        <ele>811.49</ele>
        <time>2023-05-29T09:05:51Z</time>
      </trkpt>
      <trkpt lat="45.4657" lon="4.06279">
        <ele>810.53</ele>
        <time>2023-05-29T09:06:09Z</time>
      </trkpt>
      <trkpt lat="45.46579" lon="4.06328">
        <ele>808.61</ele>
        <time>2023-05-29T09:06:32Z</time>
      </trkpt>
      <trkpt lat="45.46598" lon="4.06367">
        <ele>808.61</ele>
        <time>2023-05-29T09:06:52Z</time>
      </trkpt>
      <trkpt lat="45.46617" lon="4.06415">
        <ele>809.09</ele>
        <time>2023-05-29T09:07:17Z</time>
      </trkpt>
      <trkpt lat="45.46638" lon="4.0646">
        <ele>808.61</ele>
        <time>2023-05-29T09:07:43Z</time>
      </trkpt>
      <trkpt lat="45.46659" lon="4.06486">
        <ele>807.16</ele>
        <time>2023-05-29T09:08:01Z</time>
      </trkpt>
      <trkpt lat="45.46681" lon="4.06522">
        <ele>801.88</ele>
        <time>2023-05-29T09:08:24Z</time>
      </trkpt>
      <trkpt lat="45.46698" lon="4.06554">
        <ele>800.92</ele>
        <time>2023-05-29T09:08:41Z</time>
      </trkpt>
      <trkpt lat="45.46715" lon="4.06579">
        <ele>798.51</ele>
        <time>2023-05-29T09:08:59Z</time>
      </trkpt>
      <trkpt lat="45.46732" lon="4.06605">
        <ele>796.59</ele>
        <time>2023-05-29T09:09:16Z</time>
      </trkpt>
      <trkpt lat="45.46761" lon="4.06598">
        <ele>794.67</ele>
        <time>2023-05-29T09:09:35Z</time>
      </trkpt>
      <trkpt lat="45.4679" lon="4.06594">
        <ele>793.22</ele>
        <time>2023-05-29T09:09:54Z</time>
      </trkpt>
      <trkpt lat="45.46811" lon="4.0662">
        <ele>795.15</ele>
        <time>2023-05-29T09:10:12Z</time>
      </trkpt>
      <trkpt lat="45.46818" lon="4.06642">
        <ele>794.67</ele>
        <time>2023-05-29T09:10:24Z</time>
      </trkpt>
      <trkpt lat="45.46819" lon="4.06643">
        <ele>794.67</ele>
        <time>2023-05-29T09:10:25Z</time>
      </trkpt>
      <trkpt lat="45.46841" lon="4.06664">
        <ele>792.26</ele>
        <time>2023-05-29T09:10:44Z</time>
      </trkpt>
      <trkpt lat="45.46866" lon="4.06688">
        <ele>787.94</ele>
        <time>2023-05-29T09:11:06Z</time>
      </trkpt>
      <trkpt lat="45.46882" lon="4.06726">
        <ele>783.13</ele>
        <time>2023-05-29T09:11:27Z</time>
      </trkpt>
      <trkpt lat="45.46908" lon="4.06769">
        <ele>780.73</ele>
        <time>2023-05-29T09:11:52Z</time>
      </trkpt>
      <trkpt lat="45.46924" lon="4.068">
        <ele>781.21</ele>
        <time>2023-05-29T09:12:13Z</time>
      </trkpt>
      <trkpt lat="45.46919" lon="4.06808">
        <ele>783.13</ele>
        <time>2023-05-29T09:12:27Z</time>
      </trkpt>
      <trkpt lat="45.46917" lon="4.06814">
        <ele>782.65</ele>
        <time>2023-05-29T09:12:32Z</time>
      </trkpt>
      <trkpt lat="45.46898" lon="4.06834">
        <ele>776.88</ele>
        <time>2023-05-29T09:12:50Z</time>
      </trkpt>
      <trkpt lat="45.46883" lon="4.06848">
        <ele>774.48</ele>
        <time>2023-05-29T09:13:07Z</time>
      </trkpt>
      <trkpt lat="45.46865" lon="4.06864">
        <ele>770.15</ele>
        <time>2023-05-29T09:13:23Z</time>
      </trkpt>
      <trkpt lat="45.46848" lon="4.06883">
        <ele>764.87</ele>
        <time>2023-05-29T09:13:38Z</time>
      </trkpt>
      <trkpt lat="45.46847" lon="4.06884">
        <ele>764.87</ele>
        <time>2023-05-29T09:13:39Z</time>
      </trkpt>
      <trkpt lat="45.46831" lon="4.0691">
        <ele>762.94</ele>
        <time>2023-05-29T09:13:55Z</time>
      </trkpt>
      <trkpt lat="45.46801" lon="4.06893">
        <ele>761.98</ele>
        <time>2023-05-29T09:14:14Z</time>
      </trkpt>
      <trkpt lat="45.46777" lon="4.06887">
        <ele>761.02</ele>
        <time>2023-05-29T09:14:28Z</time>
      </trkpt>
      <trkpt lat="45.46753" lon="4.06914">
        <ele>759.1</ele>
        <time>2023-05-29T09:14:50Z</time>
      </trkpt>
      <trkpt lat="45.46724" lon="4.06937">
        <ele>757.66</ele>
        <time>2023-05-29T09:15:10Z</time>
      </trkpt>
      <trkpt lat="45.46691" lon="4.06956">
        <ele>755.73</ele>
        <time>2023-05-29T09:15:33Z</time>
      </trkpt>
      <trkpt lat="45.46656" lon="4.06972">
        <ele>752.37</ele>
        <time>2023-05-29T09:15:58Z</time>
      </trkpt>
      <trkpt lat="45.46624" lon="4.06974">
        <ele>750.93</ele>
        <time>2023-05-29T09:16:19Z</time>
      </trkpt>
      <trkpt lat="45.46591" lon="4.06973">
        <ele>749</ele>
        <time>2023-05-29T09:16:41Z</time>
      </trkpt>
      <trkpt lat="45.4656" lon="4.06976">
        <ele>747.56</ele>
        <time>2023-05-29T09:17:01Z</time>
      </trkpt>
      <trkpt lat="45.46534" lon="4.07001">
        <ele>748.52</ele>
        <time>2023-05-29T09:17:19Z</time>
      </trkpt>
      <trkpt lat="45.46507" lon="4.07025">
        <ele>748.04</ele>
        <time>2023-05-29T09:17:39Z</time>
      </trkpt>
      <trkpt lat="45.46476" lon="4.07033">
        <ele>749</ele>
        <time>2023-05-29T09:17:59Z</time>
      </trkpt>
      <trkpt lat="45.46464" lon="4.07034">
        <ele>749.97</ele>
        <time>2023-05-29T09:18:08Z</time>
      </trkpt>
      <trkpt lat="45.46452" lon="4.0706">
        <ele>747.08</ele>
        <time>2023-05-29T09:18:25Z</time>
      </trkpt>
      <trkpt lat="45.46422" lon="4.07075">
        <ele>742.28</ele>
        <time>2023-05-29T09:18:48Z</time>
      </trkpt>
      <trkpt lat="45.46403" lon="4.07075">
        <ele>738.91</ele>
        <time>2023-05-29T09:19:04Z</time>
      </trkpt>
      <trkpt lat="45.46384" lon="4.07079">
        <ele>737.95</ele>
        <time>2023-05-29T09:19:19Z</time>
      </trkpt>
      <trkpt lat="45.46366" lon="4.07079">
        <ele>737.95</ele>
        <time>2023-05-29T09:19:38Z</time>
      </trkpt>
      <trkpt lat="45.4634" lon="4.07075">
        <ele>736.99</ele>
        <time>2023-05-29T09:19:56Z</time>
      </trkpt>
      <trkpt lat="45.46312" lon="4.07072">
        <ele>738.91</ele>
        <time>2023-05-29T09:20:13Z</time>
      </trkpt>
      <trkpt lat="45.46301" lon="4.07068">
        <ele>742.28</ele>
        <time>2023-05-29T09:20:29Z</time>
      </trkpt>
      <trkpt lat="45.46299" lon="4.07069">
        <ele>742.76</ele>
        <time>2023-05-29T09:20:32Z</time>
      </trkpt>
      <trkpt lat="45.46298" lon="4.0707">
        <ele>742.76</ele>
        <time>2023-05-29T09:20:33Z</time>
      </trkpt>
      <trkpt lat="45.46297" lon="4.07071">
        <ele>742.76</ele>
        <time>2023-05-29T09:20:34Z</time>
      </trkpt>
      <trkpt lat="45.46295" lon="4.07081">
        <ele>742.76</ele>
        <time>2023-05-29T09:20:40Z</time>
      </trkpt>
      <trkpt lat="45.46273" lon="4.07085">
        <ele>741.79</ele>
        <time>2023-05-29T09:20:51Z</time>
      </trkpt>
      <trkpt lat="45.46259" lon="4.07091">
        <ele>749</ele>
        <time>2023-05-29T09:21:04Z</time>
      </trkpt>
      <trkpt lat="45.46243" lon="4.07097">
        <ele>759.1</ele>
        <time>2023-05-29T09:21:20Z</time>
      </trkpt>
      <trkpt lat="45.46223" lon="4.07103">
        <ele>770.15</ele>
        <time>2023-05-29T09:21:35Z</time>
      </trkpt>
      <trkpt lat="45.4621" lon="4.07114">
        <ele>781.69</ele>
        <time>2023-05-29T09:21:50Z</time>
      </trkpt>
      <trkpt lat="45.46185" lon="4.07132">
        <ele>782.65</ele>
        <time>2023-05-29T09:22:08Z</time>
      </trkpt>
      <trkpt lat="45.46187" lon="4.07135">
        <ele>782.17</ele>
        <time>2023-05-29T09:22:14Z</time>
      </trkpt>
      <trkpt lat="45.46188" lon="4.07136">
        <ele>782.17</ele>
        <time>2023-05-29T09:22:15Z</time>
      </trkpt>
      <trkpt lat="45.46206" lon="4.07149">
        <ele>775.44</ele>
        <time>2023-05-29T09:22:33Z</time>
      </trkpt>
      <trkpt lat="45.46209" lon="4.07153">
        <ele>774</ele>
        <time>2023-05-29T09:22:35Z</time>
      </trkpt>
      <trkpt lat="45.4621" lon="4.07155">
        <ele>773.52</ele>
        <time>2023-05-29T09:22:36Z</time>
      </trkpt>
      <trkpt lat="45.46212" lon="4.07157">
        <ele>773.04</ele>
        <time>2023-05-29T09:22:37Z</time>
      </trkpt>
      <trkpt lat="45.46235" lon="4.07187">
        <ele>770.63</ele>
        <time>2023-05-29T09:22:47Z</time>
      </trkpt>
      <trkpt lat="45.46249" lon="4.07209">
        <ele>770.15</ele>
        <time>2023-05-29T09:23:00Z</time>
      </trkpt>
      <trkpt lat="45.46264" lon="4.07241">
        <ele>767.75</ele>
        <time>2023-05-29T09:23:16Z</time>
      </trkpt>
      <trkpt lat="45.4628" lon="4.07273">
        <ele>765.35</ele>
        <time>2023-05-29T09:23:34Z</time>
      </trkpt>
      <trkpt lat="45.46292" lon="4.07299">
        <ele>763.42</ele>
        <time>2023-05-29T09:23:50Z</time>
      </trkpt>
      <trkpt lat="45.46309" lon="4.07329">
        <ele>760.06</ele>
        <time>2023-05-29T09:24:05Z</time>
      </trkpt>
      <trkpt lat="45.46323" lon="4.07353">
        <ele>755.73</ele>
        <time>2023-05-29T09:24:23Z</time>
      </trkpt>
      <trkpt lat="45.46334" lon="4.07383">
        <ele>752.37</ele>
        <time>2023-05-29T09:24:39Z</time>
      </trkpt>
      <trkpt lat="45.46347" lon="4.07421">
        <ele>747.56</ele>
        <time>2023-05-29T09:24:58Z</time>
      </trkpt>
      <trkpt lat="45.46358" lon="4.07459">
        <ele>739.39</ele>
        <time>2023-05-29T09:25:15Z</time>
      </trkpt>
      <trkpt lat="45.46364" lon="4.07496">
        <ele>732.18</ele>
        <time>2023-05-29T09:25:33Z</time>
      </trkpt>
      <trkpt lat="45.46369" lon="4.07519">
        <ele>729.3</ele>
        <time>2023-05-29T09:25:48Z</time>
      </trkpt>
      <trkpt lat="45.46373" lon="4.07551">
        <ele>724.49</ele>
        <time>2023-05-29T09:26:03Z</time>
      </trkpt>
      <trkpt lat="45.46377" lon="4.07592">
        <ele>722.57</ele>
        <time>2023-05-29T09:26:20Z</time>
      </trkpt>
      <trkpt lat="45.46378" lon="4.07604">
        <ele>723.05</ele>
        <time>2023-05-29T09:26:25Z</time>
      </trkpt>
      <trkpt lat="45.46379" lon="4.07607">
        <ele>724.01</ele>
        <time>2023-05-29T09:26:26Z</time>
      </trkpt>
      <trkpt lat="45.4638" lon="4.0761">
        <ele>724.49</ele>
        <time>2023-05-29T09:26:27Z</time>
      </trkpt>
      <trkpt lat="45.46381" lon="4.07612">
        <ele>725.45</ele>
        <time>2023-05-29T09:26:28Z</time>
      </trkpt>
      <trkpt lat="45.46382" lon="4.07615">
        <ele>725.93</ele>
        <time>2023-05-29T09:26:29Z</time>
      </trkpt>
      <trkpt lat="45.46382" lon="4.07617">
        <ele>726.41</ele>
        <time>2023-05-29T09:26:30Z</time>
      </trkpt>
      <trkpt lat="45.46388" lon="4.07665">
        <ele>731.7</ele>
        <time>2023-05-29T09:26:50Z</time>
      </trkpt>
      <trkpt lat="45.46391" lon="4.07689">
        <ele>735.07</ele>
        <time>2023-05-29T09:27:02Z</time>
      </trkpt>
      <trkpt lat="45.46391" lon="4.07691">
        <ele>735.55</ele>
        <time>2023-05-29T09:27:03Z</time>
      </trkpt>
      <trkpt lat="45.46394" lon="4.07726">
        <ele>744.2</ele>
        <time>2023-05-29T09:27:22Z</time>
      </trkpt>
      <trkpt lat="45.46392" lon="4.0777">
        <ele>743.72</ele>
        <time>2023-05-29T09:27:39Z</time>
      </trkpt>
      <trkpt lat="45.46391" lon="4.07816">
        <ele>741.31</ele>
        <time>2023-05-29T09:27:57Z</time>
      </trkpt>
      <trkpt lat="45.46394" lon="4.07861">
        <ele>744.68</ele>
        <time>2023-05-29T09:28:15Z</time>
      </trkpt>
      <trkpt lat="45.46392" lon="4.07876">
        <ele>744.68</ele>
        <time>2023-05-29T09:28:23Z</time>
      </trkpt>
      <trkpt lat="45.46392" lon="4.07877">
        <ele>744.68</ele>
        <time>2023-05-29T09:28:24Z</time>
      </trkpt>
      <trkpt lat="45.46391" lon="4.07879">
        <ele>744.68</ele>
        <time>2023-05-29T09:28:25Z</time>
      </trkpt>
      <trkpt lat="45.46387" lon="4.07913">
        <ele>748.52</ele>
        <time>2023-05-29T09:28:44Z</time>
      </trkpt>
      <trkpt lat="45.46383" lon="4.0795">
        <ele>752.85</ele>
        <time>2023-05-29T09:29:01Z</time>
      </trkpt>
      <trkpt lat="45.46377" lon="4.07986">
        <ele>751.41</ele>
        <time>2023-05-29T09:29:18Z</time>
      </trkpt>
      <trkpt lat="45.46366" lon="4.08016">
        <ele>747.56</ele>
        <time>2023-05-29T09:29:32Z</time>
      </trkpt>
      <trkpt lat="45.46365" lon="4.08019">
        <ele>747.08</ele>
        <time>2023-05-29T09:29:33Z</time>
      </trkpt>
      <trkpt lat="45.46342" lon="4.0805">
        <ele>741.31</ele>
        <time>2023-05-29T09:29:48Z</time>
      </trkpt>
      <trkpt lat="45.46324" lon="4.08084">
        <ele>737.95</ele>
        <time>2023-05-29T09:30:01Z</time>
      </trkpt>
      <trkpt lat="45.46307" lon="4.08109">
        <ele>738.43</ele>
        <time>2023-05-29T09:30:14Z</time>
      </trkpt>
      <trkpt lat="45.46279" lon="4.08137">
        <ele>736.51</ele>
        <time>2023-05-29T09:30:33Z</time>
      </trkpt>
      <trkpt lat="45.46274" lon="4.08153">
        <ele>735.55</ele>
        <time>2023-05-29T09:30:44Z</time>
      </trkpt>
      <trkpt lat="45.46275" lon="4.08154">
        <ele>735.55</ele>
        <time>2023-05-29T09:30:45Z</time>
      </trkpt>
      <trkpt lat="45.46279" lon="4.08179">
        <ele>733.14</ele>
        <time>2023-05-29T09:31:01Z</time>
      </trkpt>
      <trkpt lat="45.46274" lon="4.08212">
        <ele>730.26</ele>
        <time>2023-05-29T09:31:17Z</time>
      </trkpt>
      <trkpt lat="45.46277" lon="4.08235">
        <ele>728.34</ele>
        <time>2023-05-29T09:31:30Z</time>
      </trkpt>
      <trkpt lat="45.46293" lon="4.08266">
        <ele>728.34</ele>
        <time>2023-05-29T09:31:41Z</time>
      </trkpt>
      <trkpt lat="45.46297" lon="4.08271">
        <ele>726.89</ele>
        <time>2023-05-29T09:31:43Z</time>
      </trkpt>
      <trkpt lat="45.463" lon="4.08273">
        <ele>725.93</ele>
        <time>2023-05-29T09:31:44Z</time>
      </trkpt>
      <trkpt lat="45.46301" lon="4.08276">
        <ele>724.97</ele>
        <time>2023-05-29T09:31:45Z</time>
      </trkpt>
      <trkpt lat="45.46303" lon="4.08279">
        <ele>724.49</ele>
        <time>2023-05-29T09:31:46Z</time>
      </trkpt>
      <trkpt lat="45.46304" lon="4.08282">
        <ele>724.01</ele>
        <time>2023-05-29T09:31:47Z</time>
      </trkpt>
      <trkpt lat="45.46304" lon="4.08284">
        <ele>723.53</ele>
        <time>2023-05-29T09:31:48Z</time>
      </trkpt>
      <trkpt lat="45.46304" lon="4.08287">
        <ele>723.05</ele>
        <time>2023-05-29T09:31:49Z</time>
      </trkpt>
      <trkpt lat="45.46304" lon="4.0829">
        <ele>722.57</ele>
        <time>2023-05-29T09:31:50Z</time>
      </trkpt>
      <trkpt lat="45.46304" lon="4.08292">
        <ele>722.57</ele>
        <time>2023-05-29T09:31:51Z</time>
      </trkpt>
      <trkpt lat="45.46303" lon="4.08295">
        <ele>722.09</ele>
        <time>2023-05-29T09:31:52Z</time>
      </trkpt>
      <trkpt lat="45.46302" lon="4.08298">
        <ele>722.09</ele>
        <time>2023-05-29T09:31:53Z</time>
      </trkpt>
      <trkpt lat="45.46301" lon="4.083">
        <ele>721.61</ele>
        <time>2023-05-29T09:31:54Z</time>
      </trkpt>
      <trkpt lat="45.46288" lon="4.08338">
        <ele>719.68</ele>
        <time>2023-05-29T09:32:10Z</time>
      </trkpt>
      <trkpt lat="45.46284" lon="4.08374">
        <ele>716.8</ele>
        <time>2023-05-29T09:32:25Z</time>
      </trkpt>
      <trkpt lat="45.46282" lon="4.08414">
        <ele>715.36</ele>
        <time>2023-05-29T09:32:41Z</time>
      </trkpt>
      <trkpt lat="45.46276" lon="4.08448">
        <ele>711.99</ele>
        <time>2023-05-29T09:32:57Z</time>
      </trkpt>
      <trkpt lat="45.46268" lon="4.0849">
        <ele>710.55</ele>
        <time>2023-05-29T09:33:16Z</time>
      </trkpt>
      <trkpt lat="45.46269" lon="4.08499">
        <ele>708.15</ele>
        <time>2023-05-29T09:33:28Z</time>
      </trkpt>
      <trkpt lat="45.46271" lon="4.08507">
        <ele>706.71</ele>
        <time>2023-05-29T09:33:44Z</time>
      </trkpt>
      <trkpt lat="45.4627" lon="4.08513">
        <ele>707.19</ele>
        <time>2023-05-29T09:34:02Z</time>
      </trkpt>
      <trkpt lat="45.46269" lon="4.08516">
        <ele>707.19</ele>
        <time>2023-05-29T09:34:25Z</time>
      </trkpt>
      <trkpt lat="45.46269" lon="4.08517">
        <ele>707.19</ele>
        <time>2023-05-29T09:34:51Z</time>
      </trkpt>
      <trkpt lat="45.46267" lon="4.08521">
        <ele>712.47</ele>
        <time>2023-05-29T09:35:23Z</time>
      </trkpt>
      <trkpt lat="45.46264" lon="4.08525">
        <ele>710.07</ele>
        <time>2023-05-29T09:35:49Z</time>
      </trkpt>
      <trkpt lat="45.46265" lon="4.08526">
        <ele>707.67</ele>
        <time>2023-05-29T09:36:15Z</time>
      </trkpt>
      <trkpt lat="45.46263" lon="4.08528">
        <ele>708.63</ele>
        <time>2023-05-29T09:36:36Z</time>
      </trkpt>
      <trkpt lat="45.46266" lon="4.08528">
        <ele>709.59</ele>
        <time>2023-05-29T09:36:58Z</time>
      </trkpt>
      <trkpt lat="45.46263" lon="4.08549">
        <ele>708.15</ele>
        <time>2023-05-29T09:37:15Z</time>
      </trkpt>
      <trkpt lat="45.46258" lon="4.08584">
        <ele>704.78</ele>
        <time>2023-05-29T09:37:35Z</time>
      </trkpt>
      <trkpt lat="45.46238" lon="4.08608">
        <ele>701.9</ele>
        <time>2023-05-29T09:37:54Z</time>
      </trkpt>
      <trkpt lat="45.46227" lon="4.08646">
        <ele>698.53</ele>
        <time>2023-05-29T09:38:16Z</time>
      </trkpt>
      <trkpt lat="45.46222" lon="4.08677">
        <ele>696.61</ele>
        <time>2023-05-29T09:38:33Z</time>
      </trkpt>
      <trkpt lat="45.46216" lon="4.08708">
        <ele>695.17</ele>
        <time>2023-05-29T09:38:51Z</time>
      </trkpt>
      <trkpt lat="45.46215" lon="4.08743">
        <ele>693.73</ele>
        <time>2023-05-29T09:39:09Z</time>
      </trkpt>
      <trkpt lat="45.46214" lon="4.08769">
        <ele>689.88</ele>
        <time>2023-05-29T09:39:28Z</time>
      </trkpt>
      <trkpt lat="45.46211" lon="4.08796">
        <ele>689.4</ele>
        <time>2023-05-29T09:39:44Z</time>
      </trkpt>
      <trkpt lat="45.46215" lon="4.08813">
        <ele>687</ele>
        <time>2023-05-29T09:39:53Z</time>
      </trkpt>
      <trkpt lat="45.4623" lon="4.08838">
        <ele>680.75</ele>
        <time>2023-05-29T09:40:09Z</time>
      </trkpt>
      <trkpt lat="45.46252" lon="4.08845">
        <ele>678.83</ele>
        <time>2023-05-29T09:40:26Z</time>
      </trkpt>
      <trkpt lat="45.46273" lon="4.08863">
        <ele>676.42</ele>
        <time>2023-05-29T09:40:41Z</time>
      </trkpt>
      <trkpt lat="45.46302" lon="4.08897">
        <ele>674.02</ele>
        <time>2023-05-29T09:41:03Z</time>
      </trkpt>
      <trkpt lat="45.46325" lon="4.08922">
        <ele>669.7</ele>
        <time>2023-05-29T09:41:21Z</time>
      </trkpt>
      <trkpt lat="45.46333" lon="4.08933">
        <ele>668.73</ele>
        <time>2023-05-29T09:41:31Z</time>
      </trkpt>
      <trkpt lat="45.46335" lon="4.08934">
        <ele>668.73</ele>
        <time>2023-05-29T09:41:33Z</time>
      </trkpt>
      <trkpt lat="45.46351" lon="4.08933">
        <ele>665.37</ele>
        <time>2023-05-29T09:41:51Z</time>
      </trkpt>
      <trkpt lat="45.4636" lon="4.0893">
        <ele>663.93</ele>
        <time>2023-05-29T09:42:00Z</time>
      </trkpt>
      <trkpt lat="45.46361" lon="4.08929">
        <ele>663.45</ele>
        <time>2023-05-29T09:42:01Z</time>
      </trkpt>
      <trkpt lat="45.46362" lon="4.08928">
        <ele>662.97</ele>
        <time>2023-05-29T09:42:02Z</time>
      </trkpt>
      <trkpt lat="45.46388" lon="4.08927">
        <ele>657.68</ele>
        <time>2023-05-29T09:42:23Z</time>
      </trkpt>
      <trkpt lat="45.46409" lon="4.08917">
        <ele>653.83</ele>
        <time>2023-05-29T09:42:43Z</time>
      </trkpt>
      <trkpt lat="45.4641" lon="4.08916">
        <ele>653.83</ele>
        <time>2023-05-29T09:42:44Z</time>
      </trkpt>
      <trkpt lat="45.4641" lon="4.08914">
        <ele>653.83</ele>
        <time>2023-05-29T09:42:45Z</time>
      </trkpt>
      <trkpt lat="45.46411" lon="4.08912">
        <ele>653.83</ele>
        <time>2023-05-29T09:42:46Z</time>
      </trkpt>
      <trkpt lat="45.46411" lon="4.0891">
        <ele>653.35</ele>
        <time>2023-05-29T09:42:47Z</time>
      </trkpt>
      <trkpt lat="45.46411" lon="4.08908">
        <ele>653.35</ele>
        <time>2023-05-29T09:42:48Z</time>
      </trkpt>
      <trkpt lat="45.46416" lon="4.08876">
        <ele>649.03</ele>
        <time>2023-05-29T09:43:05Z</time>
      </trkpt>
      <trkpt lat="45.46433" lon="4.08849">
        <ele>647.59</ele>
        <time>2023-05-29T09:43:22Z</time>
      </trkpt>
      <trkpt lat="45.46466" lon="4.08852">
        <ele>642.78</ele>
        <time>2023-05-29T09:43:41Z</time>
      </trkpt>
      <trkpt lat="45.46493" lon="4.08859">
        <ele>641.82</ele>
        <time>2023-05-29T09:43:57Z</time>
      </trkpt>
      <trkpt lat="45.46526" lon="4.08867">
        <ele>640.38</ele>
        <time>2023-05-29T09:44:20Z</time>
      </trkpt>
      <trkpt lat="45.46557" lon="4.08888">
        <ele>639.41</ele>
        <time>2023-05-29T09:44:41Z</time>
      </trkpt>
      <trkpt lat="45.46584" lon="4.08912">
        <ele>640.86</ele>
        <time>2023-05-29T09:45:02Z</time>
      </trkpt>
      <trkpt lat="45.46596" lon="4.08933">
        <ele>642.3</ele>
        <time>2023-05-29T09:45:16Z</time>
      </trkpt>
      <trkpt lat="45.46605" lon="4.0897">
        <ele>643.74</ele>
        <time>2023-05-29T09:45:34Z</time>
      </trkpt>
      <trkpt lat="45.46606" lon="4.08974">
        <ele>643.26</ele>
        <time>2023-05-29T09:45:36Z</time>
      </trkpt>
      <trkpt lat="45.46618" lon="4.09009">
        <ele>641.82</ele>
        <time>2023-05-29T09:45:55Z</time>
      </trkpt>
      <trkpt lat="45.46629" lon="4.09053">
        <ele>638.45</ele>
        <time>2023-05-29T09:46:15Z</time>
      </trkpt>
      <trkpt lat="45.46624" lon="4.09088">
        <ele>636.05</ele>
        <time>2023-05-29T09:46:33Z</time>
      </trkpt>
      <trkpt lat="45.46628" lon="4.09117">
        <ele>632.2</ele>
        <time>2023-05-29T09:46:47Z</time>
      </trkpt>
      <trkpt lat="45.46642" lon="4.09147">
        <ele>629.32</ele>
        <time>2023-05-29T09:47:04Z</time>
      </trkpt>
      <trkpt lat="45.46662" lon="4.09176">
        <ele>628.36</ele>
        <time>2023-05-29T09:47:23Z</time>
      </trkpt>
      <trkpt lat="45.46681" lon="4.09196">
        <ele>625.47</ele>
        <time>2023-05-29T09:47:42Z</time>
      </trkpt>
      <trkpt lat="45.46676" lon="4.09197">
        <ele>624.51</ele>
        <time>2023-05-29T09:48:10Z</time>
      </trkpt>
      <trkpt lat="45.46678" lon="4.09198">
        <ele>625.96</ele>
        <time>2023-05-29T09:48:34Z</time>
      </trkpt>
      <trkpt lat="45.46679" lon="4.092">
        <ele>626.44</ele>
        <time>2023-05-29T09:48:54Z</time>
      </trkpt>
      <trkpt lat="45.4668" lon="4.09199">
        <ele>627.4</ele>
        <time>2023-05-29T09:49:07Z</time>
      </trkpt>
      <trkpt lat="45.4668" lon="4.09197">
        <ele>627.4</ele>
        <time>2023-05-29T09:49:30Z</time>
      </trkpt>
      <trkpt lat="45.4668" lon="4.092">
        <ele>626.92</ele>
        <time>2023-05-29T09:49:52Z</time>
      </trkpt>
      <trkpt lat="45.4668" lon="4.09199">
        <ele>627.4</ele>
        <time>2023-05-29T09:50:10Z</time>
      </trkpt>
      <trkpt lat="45.46679" lon="4.09197">
        <ele>625.96</ele>
        <time>2023-05-29T09:50:31Z</time>
      </trkpt>
      <trkpt lat="45.46679" lon="4.09196">
        <ele>624.51</ele>
        <time>2023-05-29T09:51:00Z</time>
      </trkpt>
      <trkpt lat="45.46679" lon="4.09198">
        <ele>625.47</ele>
        <time>2023-05-29T09:51:26Z</time>
      </trkpt>
      <trkpt lat="45.46682" lon="4.09193">
        <ele>627.4</ele>
        <time>2023-05-29T09:51:54Z</time>
      </trkpt>
      <trkpt lat="45.46682" lon="4.09195">
        <ele>627.88</ele>
        <time>2023-05-29T09:52:25Z</time>
      </trkpt>
      <trkpt lat="45.46682" lon="4.09196">
        <ele>627.4</ele>
        <time>2023-05-29T09:52:42Z</time>
      </trkpt>
      <trkpt lat="45.46681" lon="4.09196">
        <ele>627.4</ele>
        <time>2023-05-29T09:52:55Z</time>
      </trkpt>
      <trkpt lat="45.46681" lon="4.09196">
        <ele>627.4</ele>
        <time>2023-05-29T09:53:11Z</time>
      </trkpt>
      <trkpt lat="45.46682" lon="4.092">
        <ele>627.88</ele>
        <time>2023-05-29T09:53:25Z</time>
      </trkpt>
      <trkpt lat="45.46681" lon="4.09201">
        <ele>627.88</ele>
        <time>2023-05-29T09:53:43Z</time>
      </trkpt>
      <trkpt lat="45.46679" lon="4.09203">
        <ele>627.88</ele>
        <time>2023-05-29T09:54:09Z</time>
      </trkpt>
      <trkpt lat="45.46678" lon="4.09202">
        <ele>626.92</ele>
        <time>2023-05-29T09:54:29Z</time>
      </trkpt>
      <trkpt lat="45.4668" lon="4.09204">
        <ele>625.96</ele>
        <time>2023-05-29T09:54:53Z</time>
      </trkpt>
      <trkpt lat="45.46677" lon="4.09201">
        <ele>624.03</ele>
        <time>2023-05-29T09:55:12Z</time>
      </trkpt>
      <trkpt lat="45.46677" lon="4.09204">
        <ele>624.51</ele>
        <time>2023-05-29T09:55:26Z</time>
      </trkpt>
      <trkpt lat="45.46679" lon="4.09204">
        <ele>625.47</ele>
        <time>2023-05-29T09:55:46Z</time>
      </trkpt>
      <trkpt lat="45.46679" lon="4.09204">
        <ele>625.47</ele>
        <time>2023-05-29T09:55:58Z</time>
      </trkpt>
      <trkpt lat="45.46679" lon="4.09202">
        <ele>625.96</ele>
        <time>2023-05-29T09:56:15Z</time>
      </trkpt>
      <trkpt lat="45.46679" lon="4.09201">
        <ele>626.44</ele>
        <time>2023-05-29T09:56:35Z</time>
      </trkpt>
      <trkpt lat="45.46678" lon="4.09203">
        <ele>625.96</ele>
        <time>2023-05-29T09:56:57Z</time>
      </trkpt>
      <trkpt lat="45.46679" lon="4.09203">
        <ele>626.44</ele>
        <time>2023-05-29T09:57:17Z</time>
      </trkpt>
      <trkpt lat="45.46683" lon="4.09203">
        <ele>626.92</ele>
        <time>2023-05-29T09:57:44Z</time>
      </trkpt>
      <trkpt lat="45.46679" lon="4.09204">
        <ele>627.4</ele>
        <time>2023-05-29T09:58:07Z</time>
      </trkpt>
      <trkpt lat="45.46679" lon="4.09203">
        <ele>626.92</ele>
        <time>2023-05-29T09:58:29Z</time>
      </trkpt>
      <trkpt lat="45.46679" lon="4.092">
        <ele>626.44</ele>
        <time>2023-05-29T09:58:52Z</time>
      </trkpt>
      <trkpt lat="45.46677" lon="4.09201">
        <ele>624.99</ele>
        <time>2023-05-29T09:59:22Z</time>
      </trkpt>
      <trkpt lat="45.46678" lon="4.09202">
        <ele>623.55</ele>
        <time>2023-05-29T09:59:40Z</time>
      </trkpt>
      <trkpt lat="45.4668" lon="4.09202">
        <ele>623.07</ele>
        <time>2023-05-29T10:00:08Z</time>
      </trkpt>
      <trkpt lat="45.4668" lon="4.09205">
        <ele>623.55</ele>
        <time>2023-05-29T10:00:28Z</time>
      </trkpt>
      <trkpt lat="45.46681" lon="4.09202">
        <ele>626.92</ele>
        <time>2023-05-29T10:00:50Z</time>
      </trkpt>
      <trkpt lat="45.46679" lon="4.09203">
        <ele>626.44</ele>
        <time>2023-05-29T10:01:21Z</time>
      </trkpt>
      <trkpt lat="45.4668" lon="4.09201">
        <ele>625.96</ele>
        <time>2023-05-29T10:01:53Z</time>
      </trkpt>
      <trkpt lat="45.4668" lon="4.09203">
        <ele>627.88</ele>
        <time>2023-05-29T10:02:27Z</time>
      </trkpt>
      <trkpt lat="45.4668" lon="4.09202">
        <ele>628.36</ele>
        <time>2023-05-29T10:02:55Z</time>
      </trkpt>
      <trkpt lat="45.46679" lon="4.09204">
        <ele>626.92</ele>
        <time>2023-05-29T10:03:27Z</time>
      </trkpt>
      <trkpt lat="45.46679" lon="4.09197">
        <ele>625.96</ele>
        <time>2023-05-29T10:03:36Z</time>
      </trkpt>
      <trkpt lat="45.46676" lon="4.09191">
        <ele>624.51</ele>
        <time>2023-05-29T10:03:42Z</time>
      </trkpt>
      <trkpt lat="45.46675" lon="4.0919">
        <ele>624.51</ele>
        <time>2023-05-29T10:03:43Z</time>
      </trkpt>
      <trkpt lat="45.46669" lon="4.09187">
        <ele>624.51</ele>
        <time>2023-05-29T10:03:56Z</time>
      </trkpt>
      <trkpt lat="45.46666" lon="4.0919">
        <ele>625.47</ele>
        <time>2023-05-29T10:04:09Z</time>
      </trkpt>
      <trkpt lat="45.46666" lon="4.09193">
        <ele>623.55</ele>
        <time>2023-05-29T10:04:25Z</time>
      </trkpt>
      <trkpt lat="45.46666" lon="4.09194">
        <ele>621.63</ele>
        <time>2023-05-29T10:04:49Z</time>
      </trkpt>
      <trkpt lat="45.46665" lon="4.09192">
        <ele>624.51</ele>
        <time>2023-05-29T10:05:24Z</time>
      </trkpt>
      <trkpt lat="45.46669" lon="4.09186">
        <ele>627.4</ele>
        <time>2023-05-29T10:05:59Z</time>
      </trkpt>
      <trkpt lat="45.4667" lon="4.09188">
        <ele>628.84</ele>
        <time>2023-05-29T10:06:30Z</time>
      </trkpt>
      <trkpt lat="45.46663" lon="4.09187">
        <ele>628.36</ele>
        <time>2023-05-29T10:06:58Z</time>
      </trkpt>
      <trkpt lat="45.46664" lon="4.09191">
        <ele>625.96</ele>
        <time>2023-05-29T10:07:30Z</time>
      </trkpt>
      <trkpt lat="45.46663" lon="4.09192">
        <ele>627.4</ele>
        <time>2023-05-29T10:08:09Z</time>
      </trkpt>
      <trkpt lat="45.46666" lon="4.09194">
        <ele>624.99</ele>
        <time>2023-05-29T10:09:01Z</time>
      </trkpt>
      <trkpt lat="45.46667" lon="4.09196">
        <ele>620.19</ele>
        <time>2023-05-29T10:09:36Z</time>
      </trkpt>
      <trkpt lat="45.46659" lon="4.09194">
        <ele>624.03</ele>
        <time>2023-05-29T10:10:07Z</time>
      </trkpt>
      <trkpt lat="45.46661" lon="4.09195">
        <ele>628.36</ele>
        <time>2023-05-29T10:10:51Z</time>
      </trkpt>
      <trkpt lat="45.46662" lon="4.09198">
        <ele>632.2</ele>
        <time>2023-05-29T10:11:30Z</time>
      </trkpt>
      <trkpt lat="45.46659" lon="4.092">
        <ele>633.65</ele>
        <time>2023-05-29T10:12:08Z</time>
      </trkpt>
      <trkpt lat="45.46661" lon="4.09198">
        <ele>633.17</ele>
        <time>2023-05-29T10:12:52Z</time>
      </trkpt>
      <trkpt lat="45.46668" lon="4.09195">
        <ele>626.92</ele>
        <time>2023-05-29T10:13:32Z</time>
      </trkpt>
      <trkpt lat="45.46667" lon="4.09193">
        <ele>624.99</ele>
        <time>2023-05-29T10:14:06Z</time>
      </trkpt>
      <trkpt lat="45.46663" lon="4.09193">
        <ele>625.96</ele>
        <time>2023-05-29T10:14:47Z</time>
      </trkpt>
      <trkpt lat="45.46666" lon="4.09194">
        <ele>625.96</ele>
        <time>2023-05-29T10:15:35Z</time>
      </trkpt>
      <trkpt lat="45.46667" lon="4.09197">
        <ele>626.92</ele>
        <time>2023-05-29T10:16:27Z</time>
      </trkpt>
      <trkpt lat="45.46666" lon="4.092">
        <ele>626.92</ele>
        <time>2023-05-29T10:17:08Z</time>
      </trkpt>
      <trkpt lat="45.46666" lon="4.09199">
        <ele>624.51</ele>
        <time>2023-05-29T10:17:41Z</time>
      </trkpt>
      <trkpt lat="45.46662" lon="4.09192">
        <ele>626.92</ele>
        <time>2023-05-29T10:18:14Z</time>
      </trkpt>
      <trkpt lat="45.46658" lon="4.09198">
        <ele>629.8</ele>
        <time>2023-05-29T10:18:45Z</time>
      </trkpt>
      <trkpt lat="45.46661" lon="4.09199">
        <ele>625.47</ele>
        <time>2023-05-29T10:19:26Z</time>
      </trkpt>
      <trkpt lat="45.46665" lon="4.09195">
        <ele>621.15</ele>
        <time>2023-05-29T10:20:07Z</time>
      </trkpt>
      <trkpt lat="45.46665" lon="4.09191">
        <ele>625.47</ele>
        <time>2023-05-29T10:20:58Z</time>
      </trkpt>
      <trkpt lat="45.46663" lon="4.09195">
        <ele>626.92</ele>
        <time>2023-05-29T10:21:41Z</time>
      </trkpt>
      <trkpt lat="45.46664" lon="4.09197">
        <ele>629.8</ele>
        <time>2023-05-29T10:22:26Z</time>
      </trkpt>
      <trkpt lat="45.46665" lon="4.09198">
        <ele>632.2</ele>
        <time>2023-05-29T10:23:05Z</time>
      </trkpt>
      <trkpt lat="45.46664" lon="4.09196">
        <ele>632.68</ele>
        <time>2023-05-29T10:23:46Z</time>
      </trkpt>
      <trkpt lat="45.46666" lon="4.09198">
        <ele>635.09</ele>
        <time>2023-05-29T10:24:32Z</time>
      </trkpt>
      <trkpt lat="45.46664" lon="4.09194">
        <ele>630.76</ele>
        <time>2023-05-29T10:25:00Z</time>
      </trkpt>
      <trkpt lat="45.46666" lon="4.09196">
        <ele>628.84</ele>
        <time>2023-05-29T10:25:46Z</time>
      </trkpt>
      <trkpt lat="45.46664" lon="4.09196">
        <ele>629.8</ele>
        <time>2023-05-29T10:26:32Z</time>
      </trkpt>
      <trkpt lat="45.46665" lon="4.09196">
        <ele>630.76</ele>
        <time>2023-05-29T10:27:13Z</time>
      </trkpt>
      <trkpt lat="45.46664" lon="4.09195">
        <ele>625.47</ele>
        <time>2023-05-29T10:27:55Z</time>
      </trkpt>
      <trkpt lat="45.46662" lon="4.09198">
        <ele>620.67</ele>
        <time>2023-05-29T10:28:40Z</time>
      </trkpt>
      <trkpt lat="45.46665" lon="4.09197">
        <ele>625.47</ele>
        <time>2023-05-29T10:29:19Z</time>
      </trkpt>
      <trkpt lat="45.46665" lon="4.09198">
        <ele>629.8</ele>
        <time>2023-05-29T10:30:02Z</time>
      </trkpt>
      <trkpt lat="45.46666" lon="4.09199">
        <ele>633.65</ele>
        <time>2023-05-29T10:30:44Z</time>
      </trkpt>
      <trkpt lat="45.46666" lon="4.09197">
        <ele>633.17</ele>
        <time>2023-05-29T10:31:27Z</time>
      </trkpt>
      <trkpt lat="45.46665" lon="4.09197">
        <ele>629.32</ele>
        <time>2023-05-29T10:32:19Z</time>
      </trkpt>
      <trkpt lat="45.46666" lon="4.09195">
        <ele>630.76</ele>
        <time>2023-05-29T10:33:05Z</time>
      </trkpt>
      <trkpt lat="45.46666" lon="4.09195">
        <ele>629.8</ele>
        <time>2023-05-29T10:33:50Z</time>
      </trkpt>
      <trkpt lat="45.46663" lon="4.09199">
        <ele>630.76</ele>
        <time>2023-05-29T10:34:35Z</time>
      </trkpt>
      <trkpt lat="45.46663" lon="4.09195">
        <ele>632.68</ele>
        <time>2023-05-29T10:35:07Z</time>
      </trkpt>
      <trkpt lat="45.46663" lon="4.09196">
        <ele>632.2</ele>
        <time>2023-05-29T10:35:42Z</time>
      </trkpt>
      <trkpt lat="45.46664" lon="4.09197">
        <ele>633.65</ele>
        <time>2023-05-29T10:36:20Z</time>
      </trkpt>
      <trkpt lat="45.46666" lon="4.092">
        <ele>631.72</ele>
        <time>2023-05-29T10:37:06Z</time>
      </trkpt>
      <trkpt lat="45.46665" lon="4.09197">
        <ele>628.84</ele>
        <time>2023-05-29T10:37:50Z</time>
      </trkpt>
      <trkpt lat="45.46669" lon="4.09198">
        <ele>624.03</ele>
        <time>2023-05-29T10:38:40Z</time>
      </trkpt>
      <trkpt lat="45.46668" lon="4.09196">
        <ele>625.47</ele>
        <time>2023-05-29T10:39:28Z</time>
      </trkpt>
      <trkpt lat="45.46667" lon="4.09196">
        <ele>627.88</ele>
        <time>2023-05-29T10:40:15Z</time>
      </trkpt>
      <trkpt lat="45.46666" lon="4.09195">
        <ele>631.24</ele>
        <time>2023-05-29T10:41:00Z</time>
      </trkpt>
      <trkpt lat="45.46665" lon="4.09194">
        <ele>632.68</ele>
        <time>2023-05-29T10:41:52Z</time>
      </trkpt>
      <trkpt lat="45.46666" lon="4.09194">
        <ele>628.36</ele>
        <time>2023-05-29T10:42:25Z</time>
      </trkpt>
      <trkpt lat="45.46666" lon="4.09192">
        <ele>627.4</ele>
        <time>2023-05-29T10:42:59Z</time>
      </trkpt>
      <trkpt lat="45.46666" lon="4.09194">
        <ele>631.72</ele>
        <time>2023-05-29T10:43:34Z</time>
      </trkpt>
      <trkpt lat="45.46666" lon="4.09194">
        <ele>631.72</ele>
        <time>2023-05-29T10:44:21Z</time>
      </trkpt>
      <trkpt lat="45.46668" lon="4.09192">
        <ele>633.65</ele>
        <time>2023-05-29T10:45:04Z</time>
      </trkpt>
      <trkpt lat="45.46664" lon="4.09194">
        <ele>634.61</ele>
        <time>2023-05-29T10:45:47Z</time>
      </trkpt>
      <trkpt lat="45.46665" lon="4.09196">
        <ele>634.13</ele>
        <time>2023-05-29T10:46:33Z</time>
      </trkpt>
      <trkpt lat="45.46663" lon="4.09193">
        <ele>635.57</ele>
        <time>2023-05-29T10:47:19Z</time>
      </trkpt>
      <trkpt lat="45.46664" lon="4.09192">
        <ele>635.09</ele>
        <time>2023-05-29T10:48:04Z</time>
      </trkpt>
      <trkpt lat="45.46666" lon="4.09196">
        <ele>637.49</ele>
        <time>2023-05-29T10:48:44Z</time>
      </trkpt>
      <trkpt lat="45.46667" lon="4.09195">
        <ele>637.49</ele>
        <time>2023-05-29T10:49:31Z</time>
      </trkpt>
      <trkpt lat="45.46668" lon="4.09195">
        <ele>635.57</ele>
        <time>2023-05-29T10:50:15Z</time>
      </trkpt>
      <trkpt lat="45.46668" lon="4.09195">
        <ele>634.61</ele>
        <time>2023-05-29T10:51:02Z</time>
      </trkpt>
      <trkpt lat="45.46667" lon="4.09193">
        <ele>635.09</ele>
        <time>2023-05-29T10:51:49Z</time>
      </trkpt>
      <trkpt lat="45.46665" lon="4.09193">
        <ele>636.53</ele>
        <time>2023-05-29T10:52:34Z</time>
      </trkpt>
      <trkpt lat="45.46666" lon="4.09195">
        <ele>635.09</ele>
        <time>2023-05-29T10:53:15Z</time>
      </trkpt>
      <trkpt lat="45.46668" lon="4.09192">
        <ele>636.53</ele>
        <time>2023-05-29T10:53:58Z</time>
      </trkpt>
      <trkpt lat="45.46666" lon="4.09194">
        <ele>634.61</ele>
        <time>2023-05-29T10:54:32Z</time>
      </trkpt>
      <trkpt lat="45.46665" lon="4.09196">
        <ele>633.17</ele>
        <time>2023-05-29T10:54:53Z</time>
      </trkpt>
      <trkpt lat="45.46683" lon="4.09197">
        <ele>629.8</ele>
        <time>2023-05-29T11:18:59Z</time>
      </trkpt>
      <trkpt lat="45.46681" lon="4.09196">
        <ele>630.76</ele>
        <time>2023-05-29T11:19:15Z</time>
      </trkpt>
      <trkpt lat="45.46683" lon="4.09197">
        <ele>626.44</ele>
        <time>2023-05-29T11:19:36Z</time>
      </trkpt>
      <trkpt lat="45.46684" lon="4.092">
        <ele>626.92</ele>
        <time>2023-05-29T11:19:48Z</time>
      </trkpt>
      <trkpt lat="45.46683" lon="4.09199">
        <ele>628.36</ele>
        <time>2023-05-29T11:20:07Z</time>
      </trkpt>
      <trkpt lat="45.46678" lon="4.09193">
        <ele>630.28</ele>
        <time>2023-05-29T11:20:19Z</time>
      </trkpt>
      <trkpt lat="45.46677" lon="4.09192">
        <ele>630.28</ele>
        <time>2023-05-29T11:20:22Z</time>
      </trkpt>
      <trkpt lat="45.46663" lon="4.09175">
        <ele>630.28</ele>
        <time>2023-05-29T11:20:40Z</time>
      </trkpt>
      <trkpt lat="45.46652" lon="4.09166">
        <ele>631.24</ele>
        <time>2023-05-29T11:20:56Z</time>
      </trkpt>
      <trkpt lat="45.46651" lon="4.09163">
        <ele>631.72</ele>
        <time>2023-05-29T11:21:11Z</time>
      </trkpt>
      <trkpt lat="45.4665" lon="4.09162">
        <ele>633.17</ele>
        <time>2023-05-29T11:21:35Z</time>
      </trkpt>
      <trkpt lat="45.46654" lon="4.09165">
        <ele>632.68</ele>
        <time>2023-05-29T11:21:54Z</time>
      </trkpt>
      <trkpt lat="45.46641" lon="4.09147">
        <ele>633.17</ele>
        <time>2023-05-29T11:22:10Z</time>
      </trkpt>
      <trkpt lat="45.46626" lon="4.0913">
        <ele>634.13</ele>
        <time>2023-05-29T11:22:28Z</time>
      </trkpt>
      <trkpt lat="45.4662" lon="4.09133">
        <ele>634.61</ele>
        <time>2023-05-29T11:22:36Z</time>
      </trkpt>
      <trkpt lat="45.46613" lon="4.09137">
        <ele>635.09</ele>
        <time>2023-05-29T11:22:44Z</time>
      </trkpt>
      <trkpt lat="45.466" lon="4.0915">
        <ele>633.65</ele>
        <time>2023-05-29T11:22:58Z</time>
      </trkpt>
      <trkpt lat="45.46583" lon="4.09164">
        <ele>625.96</ele>
        <time>2023-05-29T11:23:15Z</time>
      </trkpt>
      <trkpt lat="45.46556" lon="4.09185">
        <ele>621.15</ele>
        <time>2023-05-29T11:23:34Z</time>
      </trkpt>
      <trkpt lat="45.46531" lon="4.09203">
        <ele>619.71</ele>
        <time>2023-05-29T11:23:49Z</time>
      </trkpt>
      <trkpt lat="45.46519" lon="4.09232">
        <ele>621.15</ele>
        <time>2023-05-29T11:24:03Z</time>
      </trkpt>
      <trkpt lat="45.46505" lon="4.09274">
        <ele>622.59</ele>
        <time>2023-05-29T11:24:19Z</time>
      </trkpt>
      <trkpt lat="45.46493" lon="4.09316">
        <ele>624.51</ele>
        <time>2023-05-29T11:24:38Z</time>
      </trkpt>
      <trkpt lat="45.46485" lon="4.09348">
        <ele>626.44</ele>
        <time>2023-05-29T11:24:54Z</time>
      </trkpt>
      <trkpt lat="45.46473" lon="4.09381">
        <ele>627.4</ele>
        <time>2023-05-29T11:25:12Z</time>
      </trkpt>
      <trkpt lat="45.46465" lon="4.09412">
        <ele>630.76</ele>
        <time>2023-05-29T11:25:29Z</time>
      </trkpt>
      <trkpt lat="45.46455" lon="4.09436">
        <ele>626.92</ele>
        <time>2023-05-29T11:25:47Z</time>
      </trkpt>
      <trkpt lat="45.46437" lon="4.0946">
        <ele>623.07</ele>
        <time>2023-05-29T11:26:04Z</time>
      </trkpt>
      <trkpt lat="45.46419" lon="4.09474">
        <ele>619.23</ele>
        <time>2023-05-29T11:26:19Z</time>
      </trkpt>
      <trkpt lat="45.46396" lon="4.09476">
        <ele>613.94</ele>
        <time>2023-05-29T11:26:36Z</time>
      </trkpt>
      <trkpt lat="45.46377" lon="4.09476">
        <ele>611.54</ele>
        <time>2023-05-29T11:26:49Z</time>
      </trkpt>
      <trkpt lat="45.4636" lon="4.09477">
        <ele>609.13</ele>
        <time>2023-05-29T11:27:04Z</time>
      </trkpt>
      <trkpt lat="45.46338" lon="4.09486">
        <ele>607.21</ele>
        <time>2023-05-29T11:27:21Z</time>
      </trkpt>
      <trkpt lat="45.46313" lon="4.0948">
        <ele>605.77</ele>
        <time>2023-05-29T11:27:39Z</time>
      </trkpt>
      <trkpt lat="45.46292" lon="4.09468">
        <ele>600.48</ele>
        <time>2023-05-29T11:27:57Z</time>
      </trkpt>
      <trkpt lat="45.46268" lon="4.09468">
        <ele>597.6</ele>
        <time>2023-05-29T11:28:14Z</time>
      </trkpt>
      <trkpt lat="45.46242" lon="4.09463">
        <ele>598.08</ele>
        <time>2023-05-29T11:28:31Z</time>
      </trkpt>
      <trkpt lat="45.46223" lon="4.09449">
        <ele>599.04</ele>
        <time>2023-05-29T11:28:45Z</time>
      </trkpt>
      <trkpt lat="45.46194" lon="4.0945">
        <ele>600</ele>
        <time>2023-05-29T11:29:01Z</time>
      </trkpt>
      <trkpt lat="45.4619" lon="4.09448">
        <ele>600.96</ele>
        <time>2023-05-29T11:29:04Z</time>
      </trkpt>
      <trkpt lat="45.46188" lon="4.09448">
        <ele>601.44</ele>
        <time>2023-05-29T11:29:05Z</time>
      </trkpt>
      <trkpt lat="45.46186" lon="4.09447">
        <ele>601.92</ele>
        <time>2023-05-29T11:29:06Z</time>
      </trkpt>
      <trkpt lat="45.4616" lon="4.09441">
        <ele>603.85</ele>
        <time>2023-05-29T11:29:22Z</time>
      </trkpt>
      <trkpt lat="45.46157" lon="4.09443">
        <ele>604.33</ele>
        <time>2023-05-29T11:29:25Z</time>
      </trkpt>
      <trkpt lat="45.46157" lon="4.09444">
        <ele>604.33</ele>
        <time>2023-05-29T11:29:26Z</time>
      </trkpt>
      <trkpt lat="45.46156" lon="4.09445">
        <ele>604.33</ele>
        <time>2023-05-29T11:29:27Z</time>
      </trkpt>
      <trkpt lat="45.46155" lon="4.09447">
        <ele>604.33</ele>
        <time>2023-05-29T11:29:28Z</time>
      </trkpt>
      <trkpt lat="45.46155" lon="4.09448">
        <ele>604.33</ele>
        <time>2023-05-29T11:29:29Z</time>
      </trkpt>
      <trkpt lat="45.46155" lon="4.0945">
        <ele>603.85</ele>
        <time>2023-05-29T11:29:30Z</time>
      </trkpt>
      <trkpt lat="45.46155" lon="4.09451">
        <ele>603.36</ele>
        <time>2023-05-29T11:29:31Z</time>
      </trkpt>
      <trkpt lat="45.46156" lon="4.09453">
        <ele>603.36</ele>
        <time>2023-05-29T11:29:33Z</time>
      </trkpt>
      <trkpt lat="45.46157" lon="4.09454">
        <ele>603.36</ele>
        <time>2023-05-29T11:29:34Z</time>
      </trkpt>
      <trkpt lat="45.46165" lon="4.09454">
        <ele>605.77</ele>
        <time>2023-05-29T11:29:41Z</time>
      </trkpt>
      <trkpt lat="45.46166" lon="4.09454">
        <ele>606.73</ele>
        <time>2023-05-29T11:29:42Z</time>
      </trkpt>
      <trkpt lat="45.4617" lon="4.09457">
        <ele>607.69</ele>
        <time>2023-05-29T11:29:46Z</time>
      </trkpt>
      <trkpt lat="45.46186" lon="4.09475">
        <ele>608.17</ele>
        <time>2023-05-29T11:30:00Z</time>
      </trkpt>
      <trkpt lat="45.46198" lon="4.09486">
        <ele>605.77</ele>
        <time>2023-05-29T11:30:15Z</time>
      </trkpt>
      <trkpt lat="45.46211" lon="4.09508">
        <ele>605.29</ele>
        <time>2023-05-29T11:30:27Z</time>
      </trkpt>
      <trkpt lat="45.46226" lon="4.09545">
        <ele>605.77</ele>
        <time>2023-05-29T11:30:43Z</time>
      </trkpt>
      <trkpt lat="45.46239" lon="4.09588">
        <ele>606.73</ele>
        <time>2023-05-29T11:31:01Z</time>
      </trkpt>
      <trkpt lat="45.46243" lon="4.09613">
        <ele>605.29</ele>
        <time>2023-05-29T11:31:16Z</time>
      </trkpt>
      <trkpt lat="45.46247" lon="4.09643">
        <ele>601.92</ele>
        <time>2023-05-29T11:31:31Z</time>
      </trkpt>
      <trkpt lat="45.46248" lon="4.09644">
        <ele>601.92</ele>
        <time>2023-05-29T11:31:32Z</time>
      </trkpt>
      <trkpt lat="45.46262" lon="4.0965">
        <ele>604.81</ele>
        <time>2023-05-29T11:31:44Z</time>
      </trkpt>
      <trkpt lat="45.46278" lon="4.09661">
        <ele>610.57</ele>
        <time>2023-05-29T11:31:57Z</time>
      </trkpt>
      <trkpt lat="45.46291" lon="4.09678">
        <ele>616.34</ele>
        <time>2023-05-29T11:32:11Z</time>
      </trkpt>
      <trkpt lat="45.46301" lon="4.09694">
        <ele>616.82</ele>
        <time>2023-05-29T11:32:19Z</time>
      </trkpt>
      <trkpt lat="45.4632" lon="4.09706">
        <ele>622.11</ele>
        <time>2023-05-29T11:32:36Z</time>
      </trkpt>
      <trkpt lat="45.46322" lon="4.09707">
        <ele>622.59</ele>
        <time>2023-05-29T11:32:38Z</time>
      </trkpt>
      <trkpt lat="45.46345" lon="4.09725">
        <ele>622.11</ele>
        <time>2023-05-29T11:32:54Z</time>
      </trkpt>
      <trkpt lat="45.46361" lon="4.09761">
        <ele>627.4</ele>
        <time>2023-05-29T11:33:08Z</time>
      </trkpt>
      <trkpt lat="45.46366" lon="4.09806">
        <ele>629.32</ele>
        <time>2023-05-29T11:33:23Z</time>
      </trkpt>
      <trkpt lat="45.46356" lon="4.09839">
        <ele>632.2</ele>
        <time>2023-05-29T11:33:39Z</time>
      </trkpt>
      <trkpt lat="45.46349" lon="4.09879">
        <ele>633.65</ele>
        <time>2023-05-29T11:33:55Z</time>
      </trkpt>
      <trkpt lat="45.46347" lon="4.09923">
        <ele>636.05</ele>
        <time>2023-05-29T11:34:12Z</time>
      </trkpt>
      <trkpt lat="45.46338" lon="4.09962">
        <ele>638.45</ele>
        <time>2023-05-29T11:34:26Z</time>
      </trkpt>
      <trkpt lat="45.46323" lon="4.09996">
        <ele>640.38</ele>
        <time>2023-05-29T11:34:43Z</time>
      </trkpt>
      <trkpt lat="45.46313" lon="4.10025">
        <ele>641.34</ele>
        <time>2023-05-29T11:34:57Z</time>
      </trkpt>
      <trkpt lat="45.463" lon="4.10063">
        <ele>641.82</ele>
        <time>2023-05-29T11:35:11Z</time>
      </trkpt>
      <trkpt lat="45.46292" lon="4.101">
        <ele>640.86</ele>
        <time>2023-05-29T11:35:27Z</time>
      </trkpt>
      <trkpt lat="45.46274" lon="4.10124">
        <ele>639.89</ele>
        <time>2023-05-29T11:35:42Z</time>
      </trkpt>
      <trkpt lat="45.46246" lon="4.10142">
        <ele>638.45</ele>
        <time>2023-05-29T11:36:00Z</time>
      </trkpt>
      <trkpt lat="45.46222" lon="4.10167">
        <ele>635.09</ele>
        <time>2023-05-29T11:36:16Z</time>
      </trkpt>
      <trkpt lat="45.46203" lon="4.10192">
        <ele>632.68</ele>
        <time>2023-05-29T11:36:31Z</time>
      </trkpt>
      <trkpt lat="45.46191" lon="4.10203">
        <ele>629.8</ele>
        <time>2023-05-29T11:36:43Z</time>
      </trkpt>
      <trkpt lat="45.46169" lon="4.10213">
        <ele>629.32</ele>
        <time>2023-05-29T11:36:57Z</time>
      </trkpt>
      <trkpt lat="45.46153" lon="4.10211">
        <ele>632.68</ele>
        <time>2023-05-29T11:37:09Z</time>
      </trkpt>
      <trkpt lat="45.46124" lon="4.10215">
        <ele>636.53</ele>
        <time>2023-05-29T11:37:16Z</time>
      </trkpt>
      <trkpt lat="45.46118" lon="4.10216">
        <ele>637.01</ele>
        <time>2023-05-29T11:37:17Z</time>
      </trkpt>
      <trkpt lat="45.46113" lon="4.10219">
        <ele>637.49</ele>
        <time>2023-05-29T11:37:18Z</time>
      </trkpt>
      <trkpt lat="45.46109" lon="4.10221">
        <ele>637.49</ele>
        <time>2023-05-29T11:37:19Z</time>
      </trkpt>
      <trkpt lat="45.46106" lon="4.10224">
        <ele>637.97</ele>
        <time>2023-05-29T11:37:20Z</time>
      </trkpt>
      <trkpt lat="45.4606" lon="4.10288">
        <ele>636.05</ele>
        <time>2023-05-29T11:37:32Z</time>
      </trkpt>
      <trkpt lat="45.46057" lon="4.10294">
        <ele>635.57</ele>
        <time>2023-05-29T11:37:33Z</time>
      </trkpt>
      <trkpt lat="45.46049" lon="4.10305">
        <ele>635.57</ele>
        <time>2023-05-29T11:37:35Z</time>
      </trkpt>
      <trkpt lat="45.46045" lon="4.10309">
        <ele>635.57</ele>
        <time>2023-05-29T11:37:36Z</time>
      </trkpt>
      <trkpt lat="45.46041" lon="4.10313">
        <ele>636.05</ele>
        <time>2023-05-29T11:37:37Z</time>
      </trkpt>
      <trkpt lat="45.46037" lon="4.10316">
        <ele>636.05</ele>
        <time>2023-05-29T11:37:38Z</time>
      </trkpt>
      <trkpt lat="45.46033" lon="4.10319">
        <ele>636.53</ele>
        <time>2023-05-29T11:37:39Z</time>
      </trkpt>
      <trkpt lat="45.46004" lon="4.10339">
        <ele>640.38</ele>
        <time>2023-05-29T11:37:47Z</time>
      </trkpt>
      <trkpt lat="45.45991" lon="4.10348">
        <ele>642.3</ele>
        <time>2023-05-29T11:37:50Z</time>
      </trkpt>
      <trkpt lat="45.45987" lon="4.10351">
        <ele>642.78</ele>
        <time>2023-05-29T11:37:51Z</time>
      </trkpt>
      <trkpt lat="45.45963" lon="4.10363">
        <ele>643.26</ele>
        <time>2023-05-29T11:37:55Z</time>
      </trkpt>
      <trkpt lat="45.45957" lon="4.10366">
        <ele>643.26</ele>
        <time>2023-05-29T11:37:56Z</time>
      </trkpt>
      <trkpt lat="45.45944" lon="4.10374">
        <ele>642.78</ele>
        <time>2023-05-29T11:37:58Z</time>
      </trkpt>
      <trkpt lat="45.45938" lon="4.10378">
        <ele>642.78</ele>
        <time>2023-05-29T11:37:59Z</time>
      </trkpt>
      <trkpt lat="45.459" lon="4.10398">
        <ele>642.78</ele>
        <time>2023-05-29T11:38:05Z</time>
      </trkpt>
      <trkpt lat="45.45894" lon="4.104">
        <ele>642.3</ele>
        <time>2023-05-29T11:38:06Z</time>
      </trkpt>
      <trkpt lat="45.45857" lon="4.104">
        <ele>641.34</ele>
        <time>2023-05-29T11:38:12Z</time>
      </trkpt>
      <trkpt lat="45.45823" lon="4.10398">
        <ele>643.26</ele>
        <time>2023-05-29T11:38:20Z</time>
      </trkpt>
      <trkpt lat="45.45822" lon="4.104">
        <ele>643.74</ele>
        <time>2023-05-29T11:38:21Z</time>
      </trkpt>
      <trkpt lat="45.45821" lon="4.10402">
        <ele>643.74</ele>
        <time>2023-05-29T11:38:22Z</time>
      </trkpt>
      <trkpt lat="45.45821" lon="4.10404">
        <ele>644.22</ele>
        <time>2023-05-29T11:38:23Z</time>
      </trkpt>
      <trkpt lat="45.4582" lon="4.10406">
        <ele>644.22</ele>
        <time>2023-05-29T11:38:24Z</time>
      </trkpt>
      <trkpt lat="45.45816" lon="4.10445">
        <ele>646.62</ele>
        <time>2023-05-29T11:38:36Z</time>
      </trkpt>
      <trkpt lat="45.45807" lon="4.10489">
        <ele>650.47</ele>
        <time>2023-05-29T11:38:54Z</time>
      </trkpt>
      <trkpt lat="45.45791" lon="4.10522">
        <ele>653.35</ele>
        <time>2023-05-29T11:39:11Z</time>
      </trkpt>
      <trkpt lat="45.45785" lon="4.10529">
        <ele>651.91</ele>
        <time>2023-05-29T11:39:25Z</time>
      </trkpt>
      <trkpt lat="45.45782" lon="4.10529">
        <ele>651.43</ele>
        <time>2023-05-29T11:39:28Z</time>
      </trkpt>
      <trkpt lat="45.45781" lon="4.1053">
        <ele>651.43</ele>
        <time>2023-05-29T11:39:29Z</time>
      </trkpt>
      <trkpt lat="45.4578" lon="4.10531">
        <ele>651.43</ele>
        <time>2023-05-29T11:39:30Z</time>
      </trkpt>
      <trkpt lat="45.45779" lon="4.10532">
        <ele>651.43</ele>
        <time>2023-05-29T11:39:31Z</time>
      </trkpt>
      <trkpt lat="45.45778" lon="4.10535">
        <ele>651.43</ele>
        <time>2023-05-29T11:39:33Z</time>
      </trkpt>
      <trkpt lat="45.45786" lon="4.1056">
        <ele>649.99</ele>
        <time>2023-05-29T11:39:49Z</time>
      </trkpt>
      <trkpt lat="45.45798" lon="4.10596">
        <ele>648.55</ele>
        <time>2023-05-29T11:40:08Z</time>
      </trkpt>
      <trkpt lat="45.45803" lon="4.10631">
        <ele>648.07</ele>
        <time>2023-05-29T11:40:21Z</time>
      </trkpt>
      <trkpt lat="45.45805" lon="4.10643">
        <ele>647.59</ele>
        <time>2023-05-29T11:40:27Z</time>
      </trkpt>
      <trkpt lat="45.45804" lon="4.10645">
        <ele>647.59</ele>
        <time>2023-05-29T11:40:28Z</time>
      </trkpt>
      <trkpt lat="45.45804" lon="4.10647">
        <ele>648.07</ele>
        <time>2023-05-29T11:40:29Z</time>
      </trkpt>
      <trkpt lat="45.45804" lon="4.10649">
        <ele>648.07</ele>
        <time>2023-05-29T11:40:30Z</time>
      </trkpt>
      <trkpt lat="45.45803" lon="4.10651">
        <ele>647.59</ele>
        <time>2023-05-29T11:40:31Z</time>
      </trkpt>
      <trkpt lat="45.45802" lon="4.10653">
        <ele>648.07</ele>
        <time>2023-05-29T11:40:32Z</time>
      </trkpt>
      <trkpt lat="45.45801" lon="4.10655">
        <ele>647.59</ele>
        <time>2023-05-29T11:40:33Z</time>
      </trkpt>
      <trkpt lat="45.45783" lon="4.10675">
        <ele>646.14</ele>
        <time>2023-05-29T11:40:48Z</time>
      </trkpt>
      <trkpt lat="45.45754" lon="4.10671">
        <ele>642.78</ele>
        <time>2023-05-29T11:41:05Z</time>
      </trkpt>
      <trkpt lat="45.45724" lon="4.10663">
        <ele>643.74</ele>
        <time>2023-05-29T11:41:23Z</time>
      </trkpt>
      <trkpt lat="45.45696" lon="4.1066">
        <ele>641.82</ele>
        <time>2023-05-29T11:41:41Z</time>
      </trkpt>
      <trkpt lat="45.45667" lon="4.10671">
        <ele>641.82</ele>
        <time>2023-05-29T11:42:00Z</time>
      </trkpt>
      <trkpt lat="45.45638" lon="4.10687">
        <ele>638.45</ele>
        <time>2023-05-29T11:42:21Z</time>
      </trkpt>
      <trkpt lat="45.45634" lon="4.10691">
        <ele>638.45</ele>
        <time>2023-05-29T11:42:25Z</time>
      </trkpt>
      <trkpt lat="45.45635" lon="4.10726">
        <ele>636.05</ele>
        <time>2023-05-29T11:42:42Z</time>
      </trkpt>
      <trkpt lat="45.45639" lon="4.10761">
        <ele>631.72</ele>
        <time>2023-05-29T11:42:59Z</time>
      </trkpt>
      <trkpt lat="45.45639" lon="4.10801">
        <ele>628.84</ele>
        <time>2023-05-29T11:43:18Z</time>
      </trkpt>
      <trkpt lat="45.4563" lon="4.10829">
        <ele>626.92</ele>
        <time>2023-05-29T11:43:33Z</time>
      </trkpt>
      <trkpt lat="45.45621" lon="4.10864">
        <ele>627.88</ele>
        <time>2023-05-29T11:43:51Z</time>
      </trkpt>
      <trkpt lat="45.45607" lon="4.10895">
        <ele>626.92</ele>
        <time>2023-05-29T11:44:08Z</time>
      </trkpt>
      <trkpt lat="45.4559" lon="4.10929">
        <ele>624.03</ele>
        <time>2023-05-29T11:44:27Z</time>
      </trkpt>
      <trkpt lat="45.45575" lon="4.10959">
        <ele>621.15</ele>
        <time>2023-05-29T11:44:44Z</time>
      </trkpt>
      <trkpt lat="45.45559" lon="4.10988">
        <ele>619.71</ele>
        <time>2023-05-29T11:45:02Z</time>
      </trkpt>
      <trkpt lat="45.45557" lon="4.10989">
        <ele>618.75</ele>
        <time>2023-05-29T11:45:04Z</time>
      </trkpt>
      <trkpt lat="45.45534" lon="4.11008">
        <ele>614.9</ele>
        <time>2023-05-29T11:45:21Z</time>
      </trkpt>
      <trkpt lat="45.45523" lon="4.11036">
        <ele>612.5</ele>
        <time>2023-05-29T11:45:36Z</time>
      </trkpt>
      <trkpt lat="45.45508" lon="4.11067">
        <ele>609.13</ele>
        <time>2023-05-29T11:45:52Z</time>
      </trkpt>
      <trkpt lat="45.45495" lon="4.11102">
        <ele>608.65</ele>
        <time>2023-05-29T11:46:09Z</time>
      </trkpt>
      <trkpt lat="45.45494" lon="4.11109">
        <ele>608.17</ele>
        <time>2023-05-29T11:46:13Z</time>
      </trkpt>
      <trkpt lat="45.45493" lon="4.11112">
        <ele>608.17</ele>
        <time>2023-05-29T11:46:14Z</time>
      </trkpt>
      <trkpt lat="45.45492" lon="4.11113">
        <ele>608.17</ele>
        <time>2023-05-29T11:46:15Z</time>
      </trkpt>
      <trkpt lat="45.45491" lon="4.11114">
        <ele>608.17</ele>
        <time>2023-05-29T11:46:16Z</time>
      </trkpt>
      <trkpt lat="45.45489" lon="4.11116">
        <ele>608.17</ele>
        <time>2023-05-29T11:46:17Z</time>
      </trkpt>
      <trkpt lat="45.45463" lon="4.11126">
        <ele>610.09</ele>
        <time>2023-05-29T11:46:30Z</time>
      </trkpt>
      <trkpt lat="45.45439" lon="4.11108">
        <ele>612.98</ele>
        <time>2023-05-29T11:46:44Z</time>
      </trkpt>
      <trkpt lat="45.45435" lon="4.1109">
        <ele>613.46</ele>
        <time>2023-05-29T11:46:52Z</time>
      </trkpt>
      <trkpt lat="45.45434" lon="4.11087">
        <ele>613.46</ele>
        <time>2023-05-29T11:46:53Z</time>
      </trkpt>
      <trkpt lat="45.45433" lon="4.11085">
        <ele>613.46</ele>
        <time>2023-05-29T11:46:54Z</time>
      </trkpt>
      <trkpt lat="45.45432" lon="4.11082">
        <ele>613.94</ele>
        <time>2023-05-29T11:46:55Z</time>
      </trkpt>
      <trkpt lat="45.45431" lon="4.11079">
        <ele>613.94</ele>
        <time>2023-05-29T11:46:56Z</time>
      </trkpt>
      <trkpt lat="45.45423" lon="4.11053">
        <ele>617.3</ele>
        <time>2023-05-29T11:47:07Z</time>
      </trkpt>
      <trkpt lat="45.45422" lon="4.11051">
        <ele>617.3</ele>
        <time>2023-05-29T11:47:08Z</time>
      </trkpt>
      <trkpt lat="45.45403" lon="4.11022">
        <ele>622.59</ele>
        <time>2023-05-29T11:47:26Z</time>
      </trkpt>
      <trkpt lat="45.45381" lon="4.11001">
        <ele>624.99</ele>
        <time>2023-05-29T11:47:39Z</time>
      </trkpt>
      <trkpt lat="45.45362" lon="4.10977">
        <ele>628.84</ele>
        <time>2023-05-29T11:47:54Z</time>
      </trkpt>
      <trkpt lat="45.4534" lon="4.10952">
        <ele>631.24</ele>
        <time>2023-05-29T11:48:09Z</time>
      </trkpt>
      <trkpt lat="45.45322" lon="4.10943">
        <ele>632.2</ele>
        <time>2023-05-29T11:48:23Z</time>
      </trkpt>
      <trkpt lat="45.45301" lon="4.10934">
        <ele>637.01</ele>
        <time>2023-05-29T11:48:38Z</time>
      </trkpt>
      <trkpt lat="45.45274" lon="4.10924">
        <ele>642.78</ele>
        <time>2023-05-29T11:48:56Z</time>
      </trkpt>
      <trkpt lat="45.45252" lon="4.10916">
        <ele>647.59</ele>
        <time>2023-05-29T11:49:11Z</time>
      </trkpt>
      <trkpt lat="45.45214" lon="4.10906">
        <ele>654.31</ele>
        <time>2023-05-29T11:49:31Z</time>
      </trkpt>
      <trkpt lat="45.45184" lon="4.10897">
        <ele>649.03</ele>
        <time>2023-05-29T11:49:47Z</time>
      </trkpt>
      <trkpt lat="45.45161" lon="4.10896">
        <ele>646.62</ele>
        <time>2023-05-29T11:49:59Z</time>
      </trkpt>
      <trkpt lat="45.45135" lon="4.10895">
        <ele>649.51</ele>
        <time>2023-05-29T11:50:16Z</time>
      </trkpt>
      <trkpt lat="45.45116" lon="4.10886">
        <ele>651.43</ele>
        <time>2023-05-29T11:50:28Z</time>
      </trkpt>
      <trkpt lat="45.45115" lon="4.10884">
        <ele>651.43</ele>
        <time>2023-05-29T11:50:29Z</time>
      </trkpt>
      <trkpt lat="45.45114" lon="4.10883">
        <ele>650.95</ele>
        <time>2023-05-29T11:50:30Z</time>
      </trkpt>
      <trkpt lat="45.45112" lon="4.10882">
        <ele>650.95</ele>
        <time>2023-05-29T11:50:31Z</time>
      </trkpt>
      <trkpt lat="45.45111" lon="4.10881">
        <ele>650.95</ele>
        <time>2023-05-29T11:50:32Z</time>
      </trkpt>
      <trkpt lat="45.4511" lon="4.1088">
        <ele>650.47</ele>
        <time>2023-05-29T11:50:33Z</time>
      </trkpt>
      <trkpt lat="45.45107" lon="4.10877">
        <ele>650.95</ele>
        <time>2023-05-29T11:50:35Z</time>
      </trkpt>
      <trkpt lat="45.45106" lon="4.10876">
        <ele>650.95</ele>
        <time>2023-05-29T11:50:36Z</time>
      </trkpt>
      <trkpt lat="45.45105" lon="4.10875">
        <ele>650.95</ele>
        <time>2023-05-29T11:50:37Z</time>
      </trkpt>
      <trkpt lat="45.45103" lon="4.10874">
        <ele>650.95</ele>
        <time>2023-05-29T11:50:38Z</time>
      </trkpt>
      <trkpt lat="45.45102" lon="4.10872">
        <ele>650.95</ele>
        <time>2023-05-29T11:50:39Z</time>
      </trkpt>
      <trkpt lat="45.45101" lon="4.10871">
        <ele>650.95</ele>
        <time>2023-05-29T11:50:40Z</time>
      </trkpt>
      <trkpt lat="45.45078" lon="4.10843">
        <ele>655.28</ele>
        <time>2023-05-29T11:50:58Z</time>
      </trkpt>
      <trkpt lat="45.45055" lon="4.10827">
        <ele>658.64</ele>
        <time>2023-05-29T11:51:13Z</time>
      </trkpt>
      <trkpt lat="45.45027" lon="4.10805">
        <ele>661.04</ele>
        <time>2023-05-29T11:51:28Z</time>
      </trkpt>
      <trkpt lat="45.45009" lon="4.10778">
        <ele>662.97</ele>
        <time>2023-05-29T11:51:44Z</time>
      </trkpt>
      <trkpt lat="45.44988" lon="4.10753">
        <ele>664.89</ele>
        <time>2023-05-29T11:52:00Z</time>
      </trkpt>
      <trkpt lat="45.44965" lon="4.10723">
        <ele>667.29</ele>
        <time>2023-05-29T11:52:18Z</time>
      </trkpt>
      <trkpt lat="45.44943" lon="4.10695">
        <ele>670.18</ele>
        <time>2023-05-29T11:52:36Z</time>
      </trkpt>
      <trkpt lat="45.44919" lon="4.10664">
        <ele>672.1</ele>
        <time>2023-05-29T11:52:55Z</time>
      </trkpt>
      <trkpt lat="45.44893" lon="4.1063">
        <ele>674.98</ele>
        <time>2023-05-29T11:53:16Z</time>
      </trkpt>
      <trkpt lat="45.44869" lon="4.10599">
        <ele>679.31</ele>
        <time>2023-05-29T11:53:35Z</time>
      </trkpt>
      <trkpt lat="45.4485" lon="4.10573">
        <ele>679.31</ele>
        <time>2023-05-29T11:53:52Z</time>
      </trkpt>
      <trkpt lat="45.44827" lon="4.10544">
        <ele>681.71</ele>
        <time>2023-05-29T11:54:10Z</time>
      </trkpt>
      <trkpt lat="45.44801" lon="4.10523">
        <ele>683.63</ele>
        <time>2023-05-29T11:54:30Z</time>
      </trkpt>
      <trkpt lat="45.44786" lon="4.10538">
        <ele>683.63</ele>
        <time>2023-05-29T11:54:42Z</time>
      </trkpt>
      <trkpt lat="45.44762" lon="4.10557">
        <ele>681.23</ele>
        <time>2023-05-29T11:54:57Z</time>
      </trkpt>
      <trkpt lat="45.44743" lon="4.10574">
        <ele>680.27</ele>
        <time>2023-05-29T11:55:11Z</time>
      </trkpt>
      <trkpt lat="45.44726" lon="4.10611">
        <ele>680.75</ele>
        <time>2023-05-29T11:55:31Z</time>
      </trkpt>
      <trkpt lat="45.44712" lon="4.10642">
        <ele>679.31</ele>
        <time>2023-05-29T11:55:48Z</time>
      </trkpt>
      <trkpt lat="45.44705" lon="4.10676">
        <ele>676.42</ele>
        <time>2023-05-29T11:56:05Z</time>
      </trkpt>
      <trkpt lat="45.44695" lon="4.10699">
        <ele>673.54</ele>
        <time>2023-05-29T11:56:18Z</time>
      </trkpt>
      <trkpt lat="45.44694" lon="4.10701">
        <ele>673.06</ele>
        <time>2023-05-29T11:56:19Z</time>
      </trkpt>
      <trkpt lat="45.44693" lon="4.10702">
        <ele>672.58</ele>
        <time>2023-05-29T11:56:20Z</time>
      </trkpt>
      <trkpt lat="45.44681" lon="4.10729">
        <ele>670.66</ele>
        <time>2023-05-29T11:56:35Z</time>
      </trkpt>
      <trkpt lat="45.44679" lon="4.10733">
        <ele>670.66</ele>
        <time>2023-05-29T11:56:38Z</time>
      </trkpt>
      <trkpt lat="45.44678" lon="4.10735">
        <ele>670.66</ele>
        <time>2023-05-29T11:56:39Z</time>
      </trkpt>
      <trkpt lat="45.44677" lon="4.10737">
        <ele>671.14</ele>
        <time>2023-05-29T11:56:40Z</time>
      </trkpt>
      <trkpt lat="45.44665" lon="4.10771">
        <ele>669.7</ele>
        <time>2023-05-29T11:56:56Z</time>
      </trkpt>
      <trkpt lat="45.44661" lon="4.10787">
        <ele>668.73</ele>
        <time>2023-05-29T11:57:03Z</time>
      </trkpt>
      <trkpt lat="45.44655" lon="4.10818">
        <ele>664.41</ele>
        <time>2023-05-29T11:57:17Z</time>
      </trkpt>
      <trkpt lat="45.44649" lon="4.10848">
        <ele>662.01</ele>
        <time>2023-05-29T11:57:31Z</time>
      </trkpt>
      <trkpt lat="45.44649" lon="4.1085">
        <ele>662.01</ele>
        <time>2023-05-29T11:57:32Z</time>
      </trkpt>
      <trkpt lat="45.44642" lon="4.10879">
        <ele>662.01</ele>
        <time>2023-05-29T11:57:45Z</time>
      </trkpt>
      <trkpt lat="45.44642" lon="4.10881">
        <ele>662.01</ele>
        <time>2023-05-29T11:57:46Z</time>
      </trkpt>
      <trkpt lat="45.4464" lon="4.10887">
        <ele>662.97</ele>
        <time>2023-05-29T11:57:50Z</time>
      </trkpt>
      <trkpt lat="45.4463" lon="4.10919">
        <ele>663.45</ele>
        <time>2023-05-29T11:58:03Z</time>
      </trkpt>
      <trkpt lat="45.44625" lon="4.1094">
        <ele>664.89</ele>
        <time>2023-05-29T11:58:12Z</time>
      </trkpt>
      <trkpt lat="45.44635" lon="4.10981">
        <ele>665.37</ele>
        <time>2023-05-29T11:58:27Z</time>
      </trkpt>
      <trkpt lat="45.44654" lon="4.11028">
        <ele>662.97</ele>
        <time>2023-05-29T11:58:40Z</time>
      </trkpt>
      <trkpt lat="45.44672" lon="4.11072">
        <ele>661.04</ele>
        <time>2023-05-29T11:58:52Z</time>
      </trkpt>
      <trkpt lat="45.44687" lon="4.111">
        <ele>661.04</ele>
        <time>2023-05-29T11:59:07Z</time>
      </trkpt>
      <trkpt lat="45.44709" lon="4.11145">
        <ele>660.56</ele>
        <time>2023-05-29T11:59:31Z</time>
      </trkpt>
      <trkpt lat="45.44717" lon="4.11169">
        <ele>659.12</ele>
        <time>2023-05-29T11:59:43Z</time>
      </trkpt>
      <trkpt lat="45.44716" lon="4.1117">
        <ele>659.12</ele>
        <time>2023-05-29T11:59:44Z</time>
      </trkpt>
      <trkpt lat="45.44716" lon="4.11171">
        <ele>659.12</ele>
        <time>2023-05-29T11:59:45Z</time>
      </trkpt>
      <trkpt lat="45.44714" lon="4.11172">
        <ele>658.64</ele>
        <time>2023-05-29T11:59:46Z</time>
      </trkpt>
      <trkpt lat="45.44713" lon="4.11173">
        <ele>658.64</ele>
        <time>2023-05-29T11:59:47Z</time>
      </trkpt>
      <trkpt lat="45.44712" lon="4.11174">
        <ele>658.16</ele>
        <time>2023-05-29T11:59:48Z</time>
      </trkpt>
      <trkpt lat="45.4471" lon="4.11175">
        <ele>658.16</ele>
        <time>2023-05-29T11:59:49Z</time>
      </trkpt>
      <trkpt lat="45.44686" lon="4.11198">
        <ele>659.12</ele>
        <time>2023-05-29T12:00:06Z</time>
      </trkpt>
      <trkpt lat="45.44664" lon="4.11221">
        <ele>661.04</ele>
        <time>2023-05-29T12:00:22Z</time>
      </trkpt>
      <trkpt lat="45.44639" lon="4.11245">
        <ele>662.49</ele>
        <time>2023-05-29T12:00:39Z</time>
      </trkpt>
      <trkpt lat="45.44613" lon="4.11271">
        <ele>664.89</ele>
        <time>2023-05-29T12:00:58Z</time>
      </trkpt>
      <trkpt lat="45.44587" lon="4.11286">
        <ele>667.29</ele>
        <time>2023-05-29T12:01:16Z</time>
      </trkpt>
      <trkpt lat="45.44559" lon="4.11296">
        <ele>668.73</ele>
        <time>2023-05-29T12:01:34Z</time>
      </trkpt>
      <trkpt lat="45.44537" lon="4.11312">
        <ele>670.66</ele>
        <time>2023-05-29T12:01:51Z</time>
      </trkpt>
      <trkpt lat="45.44513" lon="4.11329">
        <ele>669.7</ele>
        <time>2023-05-29T12:02:09Z</time>
      </trkpt>
      <trkpt lat="45.4449" lon="4.11347">
        <ele>668.25</ele>
        <time>2023-05-29T12:02:27Z</time>
      </trkpt>
      <trkpt lat="45.44465" lon="4.11355">
        <ele>667.77</ele>
        <time>2023-05-29T12:02:45Z</time>
      </trkpt>
      <trkpt lat="45.44464" lon="4.11356">
        <ele>667.77</ele>
        <time>2023-05-29T12:02:46Z</time>
      </trkpt>
      <trkpt lat="45.44463" lon="4.11357">
        <ele>667.29</ele>
        <time>2023-05-29T12:02:47Z</time>
      </trkpt>
      <trkpt lat="45.44461" lon="4.11357">
        <ele>667.29</ele>
        <time>2023-05-29T12:02:48Z</time>
      </trkpt>
      <trkpt lat="45.4446" lon="4.11357">
        <ele>667.29</ele>
        <time>2023-05-29T12:02:49Z</time>
      </trkpt>
      <trkpt lat="45.44458" lon="4.11356">
        <ele>667.29</ele>
        <time>2023-05-29T12:02:50Z</time>
      </trkpt>
      <trkpt lat="45.44431" lon="4.11349">
        <ele>665.85</ele>
        <time>2023-05-29T12:03:09Z</time>
      </trkpt>
      <trkpt lat="45.44406" lon="4.11358">
        <ele>663.45</ele>
        <time>2023-05-29T12:03:27Z</time>
      </trkpt>
      <trkpt lat="45.44381" lon="4.11361">
        <ele>662.49</ele>
        <time>2023-05-29T12:03:44Z</time>
      </trkpt>
      <trkpt lat="45.44355" lon="4.11379">
        <ele>661.04</ele>
        <time>2023-05-29T12:04:02Z</time>
      </trkpt>
      <trkpt lat="45.44334" lon="4.11405">
        <ele>662.97</ele>
        <time>2023-05-29T12:04:20Z</time>
      </trkpt>
      <trkpt lat="45.44305" lon="4.11417">
        <ele>666.81</ele>
        <time>2023-05-29T12:04:39Z</time>
      </trkpt>
      <trkpt lat="45.44297" lon="4.11439">
        <ele>668.25</ele>
        <time>2023-05-29T12:04:52Z</time>
      </trkpt>
      <trkpt lat="45.44299" lon="4.1146">
        <ele>668.25</ele>
        <time>2023-05-29T12:05:05Z</time>
      </trkpt>
      <trkpt lat="45.44296" lon="4.11495">
        <ele>665.37</ele>
        <time>2023-05-29T12:05:21Z</time>
      </trkpt>
      <trkpt lat="45.44291" lon="4.1152">
        <ele>662.01</ele>
        <time>2023-05-29T12:05:33Z</time>
      </trkpt>
      <trkpt lat="45.44285" lon="4.11555">
        <ele>661.04</ele>
        <time>2023-05-29T12:05:48Z</time>
      </trkpt>
      <trkpt lat="45.44272" lon="4.11595">
        <ele>660.08</ele>
        <time>2023-05-29T12:06:05Z</time>
      </trkpt>
      <trkpt lat="45.44259" lon="4.1163">
        <ele>658.64</ele>
        <time>2023-05-29T12:06:22Z</time>
      </trkpt>
      <trkpt lat="45.44251" lon="4.11655">
        <ele>657.2</ele>
        <time>2023-05-29T12:06:36Z</time>
      </trkpt>
      <trkpt lat="45.44244" lon="4.11689">
        <ele>655.28</ele>
        <time>2023-05-29T12:06:52Z</time>
      </trkpt>
      <trkpt lat="45.44238" lon="4.1173">
        <ele>654.31</ele>
        <time>2023-05-29T12:07:09Z</time>
      </trkpt>
      <trkpt lat="45.44238" lon="4.11774">
        <ele>652.87</ele>
        <time>2023-05-29T12:07:28Z</time>
      </trkpt>
      <trkpt lat="45.44239" lon="4.11806">
        <ele>650.47</ele>
        <time>2023-05-29T12:07:42Z</time>
      </trkpt>
      <trkpt lat="45.44237" lon="4.11829">
        <ele>649.03</ele>
        <time>2023-05-29T12:07:52Z</time>
      </trkpt>
      <trkpt lat="45.44235" lon="4.1183">
        <ele>649.03</ele>
        <time>2023-05-29T12:07:53Z</time>
      </trkpt>
      <trkpt lat="45.44233" lon="4.11831">
        <ele>648.55</ele>
        <time>2023-05-29T12:07:54Z</time>
      </trkpt>
      <trkpt lat="45.44211" lon="4.11844">
        <ele>649.99</ele>
        <time>2023-05-29T12:08:07Z</time>
      </trkpt>
      <trkpt lat="45.44186" lon="4.11856">
        <ele>649.99</ele>
        <time>2023-05-29T12:08:22Z</time>
      </trkpt>
      <trkpt lat="45.44168" lon="4.11868">
        <ele>648.07</ele>
        <time>2023-05-29T12:08:35Z</time>
      </trkpt>
      <trkpt lat="45.44168" lon="4.1187">
        <ele>648.07</ele>
        <time>2023-05-29T12:08:36Z</time>
      </trkpt>
      <trkpt lat="45.44168" lon="4.11873">
        <ele>648.07</ele>
        <time>2023-05-29T12:08:37Z</time>
      </trkpt>
      <trkpt lat="45.44169" lon="4.11876">
        <ele>648.07</ele>
        <time>2023-05-29T12:08:38Z</time>
      </trkpt>
      <trkpt lat="45.4417" lon="4.11879">
        <ele>648.07</ele>
        <time>2023-05-29T12:08:39Z</time>
      </trkpt>
      <trkpt lat="45.44171" lon="4.11882">
        <ele>648.07</ele>
        <time>2023-05-29T12:08:40Z</time>
      </trkpt>
      <trkpt lat="45.44184" lon="4.11922">
        <ele>647.59</ele>
        <time>2023-05-29T12:08:56Z</time>
      </trkpt>
      <trkpt lat="45.44194" lon="4.11957">
        <ele>646.14</ele>
        <time>2023-05-29T12:09:10Z</time>
      </trkpt>
      <trkpt lat="45.44206" lon="4.11991">
        <ele>645.66</ele>
        <time>2023-05-29T12:09:26Z</time>
      </trkpt>
      <trkpt lat="45.44216" lon="4.12027">
        <ele>645.66</ele>
        <time>2023-05-29T12:09:42Z</time>
      </trkpt>
      <trkpt lat="45.44223" lon="4.12066">
        <ele>646.62</ele>
        <time>2023-05-29T12:09:58Z</time>
      </trkpt>
      <trkpt lat="45.44229" lon="4.12102">
        <ele>648.55</ele>
        <time>2023-05-29T12:10:14Z</time>
      </trkpt>
      <trkpt lat="45.4422" lon="4.1215">
        <ele>648.55</ele>
        <time>2023-05-29T12:10:32Z</time>
      </trkpt>
      <trkpt lat="45.44213" lon="4.12185">
        <ele>648.55</ele>
        <time>2023-05-29T12:10:46Z</time>
      </trkpt>
      <trkpt lat="45.44203" lon="4.12231">
        <ele>649.03</ele>
        <time>2023-05-29T12:11:07Z</time>
      </trkpt>
      <trkpt lat="45.44208" lon="4.12269">
        <ele>649.51</ele>
        <time>2023-05-29T12:11:24Z</time>
      </trkpt>
      <trkpt lat="45.44232" lon="4.12302">
        <ele>649.51</ele>
        <time>2023-05-29T12:11:45Z</time>
      </trkpt>
      <trkpt lat="45.44252" lon="4.12335">
        <ele>649.99</ele>
        <time>2023-05-29T12:12:03Z</time>
      </trkpt>
      <trkpt lat="45.44274" lon="4.12368">
        <ele>648.55</ele>
        <time>2023-05-29T12:12:21Z</time>
      </trkpt>
      <trkpt lat="45.44294" lon="4.12409">
        <ele>649.03</ele>
        <time>2023-05-29T12:12:41Z</time>
      </trkpt>
      <trkpt lat="45.44299" lon="4.12417">
        <ele>648.55</ele>
        <time>2023-05-29T12:12:56Z</time>
      </trkpt>
      <trkpt lat="45.44299" lon="4.12418">
        <ele>647.59</ele>
        <time>2023-05-29T12:13:13Z</time>
      </trkpt>
      <trkpt lat="45.443" lon="4.12417">
        <ele>647.1</ele>
        <time>2023-05-29T12:13:33Z</time>
      </trkpt>
      <trkpt lat="45.44298" lon="4.12419">
        <ele>647.59</ele>
        <time>2023-05-29T12:13:44Z</time>
      </trkpt>
      <trkpt lat="45.44298" lon="4.12421">
        <ele>647.1</ele>
        <time>2023-05-29T12:13:57Z</time>
      </trkpt>
      <trkpt lat="45.443" lon="4.12421">
        <ele>648.07</ele>
        <time>2023-05-29T12:14:11Z</time>
      </trkpt>
      <trkpt lat="45.44302" lon="4.12427">
        <ele>648.07</ele>
        <time>2023-05-29T12:14:23Z</time>
      </trkpt>
      <trkpt lat="45.44301" lon="4.12427">
        <ele>647.59</ele>
        <time>2023-05-29T12:14:46Z</time>
      </trkpt>
      <trkpt lat="45.44311" lon="4.12445">
        <ele>646.62</ele>
        <time>2023-05-29T12:15:00Z</time>
      </trkpt>
      <trkpt lat="45.44322" lon="4.1247">
        <ele>644.22</ele>
        <time>2023-05-29T12:15:17Z</time>
      </trkpt>
      <trkpt lat="45.44332" lon="4.12502">
        <ele>643.74</ele>
        <time>2023-05-29T12:15:36Z</time>
      </trkpt>
      <trkpt lat="45.4434" lon="4.12527">
        <ele>642.78</ele>
        <time>2023-05-29T12:15:51Z</time>
      </trkpt>
      <trkpt lat="45.44348" lon="4.12548">
        <ele>643.74</ele>
        <time>2023-05-29T12:16:06Z</time>
      </trkpt>
      <trkpt lat="45.44358" lon="4.12578">
        <ele>644.22</ele>
        <time>2023-05-29T12:16:22Z</time>
      </trkpt>
      <trkpt lat="45.44372" lon="4.12608">
        <ele>642.78</ele>
        <time>2023-05-29T12:16:42Z</time>
      </trkpt>
      <trkpt lat="45.44385" lon="4.12638">
        <ele>642.3</ele>
        <time>2023-05-29T12:17:00Z</time>
      </trkpt>
      <trkpt lat="45.44399" lon="4.12662">
        <ele>642.78</ele>
        <time>2023-05-29T12:17:17Z</time>
      </trkpt>
      <trkpt lat="45.44416" lon="4.12694">
        <ele>641.82</ele>
        <time>2023-05-29T12:17:38Z</time>
      </trkpt>
      <trkpt lat="45.44433" lon="4.12721">
        <ele>642.78</ele>
        <time>2023-05-29T12:17:58Z</time>
      </trkpt>
      <trkpt lat="45.44454" lon="4.12748">
        <ele>641.82</ele>
        <time>2023-05-29T12:18:19Z</time>
      </trkpt>
      <trkpt lat="45.44469" lon="4.12769">
        <ele>642.3</ele>
        <time>2023-05-29T12:18:35Z</time>
      </trkpt>
      <trkpt lat="45.44488" lon="4.12789">
        <ele>642.78</ele>
        <time>2023-05-29T12:18:54Z</time>
      </trkpt>
      <trkpt lat="45.44509" lon="4.12812">
        <ele>642.3</ele>
        <time>2023-05-29T12:19:13Z</time>
      </trkpt>
      <trkpt lat="45.4453" lon="4.12828">
        <ele>641.34</ele>
        <time>2023-05-29T12:19:31Z</time>
      </trkpt>
      <trkpt lat="45.44553" lon="4.12844">
        <ele>641.82</ele>
        <time>2023-05-29T12:19:50Z</time>
      </trkpt>
      <trkpt lat="45.44575" lon="4.12859">
        <ele>643.26</ele>
        <time>2023-05-29T12:20:09Z</time>
      </trkpt>
      <trkpt lat="45.44594" lon="4.12874">
        <ele>641.82</ele>
        <time>2023-05-29T12:20:26Z</time>
      </trkpt>
      <trkpt lat="45.44615" lon="4.12887">
        <ele>644.22</ele>
        <time>2023-05-29T12:20:43Z</time>
      </trkpt>
      <trkpt lat="45.44634" lon="4.12894">
        <ele>642.3</ele>
        <time>2023-05-29T12:20:58Z</time>
      </trkpt>
      <trkpt lat="45.44641" lon="4.129">
        <ele>641.82</ele>
        <time>2023-05-29T12:21:06Z</time>
      </trkpt>
      <trkpt lat="45.4464" lon="4.1291">
        <ele>641.34</ele>
        <time>2023-05-29T12:21:12Z</time>
      </trkpt>
      <trkpt lat="45.44634" lon="4.12939">
        <ele>640.86</ele>
        <time>2023-05-29T12:21:28Z</time>
      </trkpt>
      <trkpt lat="45.44627" lon="4.12966">
        <ele>639.41</ele>
        <time>2023-05-29T12:21:43Z</time>
      </trkpt>
      <trkpt lat="45.44621" lon="4.1299">
        <ele>637.49</ele>
        <time>2023-05-29T12:21:57Z</time>
      </trkpt>
      <trkpt lat="45.44616" lon="4.13015">
        <ele>635.09</ele>
        <time>2023-05-29T12:22:10Z</time>
      </trkpt>
      <trkpt lat="45.44605" lon="4.13041">
        <ele>634.13</ele>
        <time>2023-05-29T12:22:26Z</time>
      </trkpt>
      <trkpt lat="45.44596" lon="4.13062">
        <ele>635.57</ele>
        <time>2023-05-29T12:22:39Z</time>
      </trkpt>
      <trkpt lat="45.44596" lon="4.13064">
        <ele>636.05</ele>
        <time>2023-05-29T12:22:40Z</time>
      </trkpt>
      <trkpt lat="45.44595" lon="4.13065">
        <ele>636.05</ele>
        <time>2023-05-29T12:22:41Z</time>
      </trkpt>
      <trkpt lat="45.44595" lon="4.13067">
        <ele>636.05</ele>
        <time>2023-05-29T12:22:42Z</time>
      </trkpt>
      <trkpt lat="45.44594" lon="4.13069">
        <ele>636.05</ele>
        <time>2023-05-29T12:22:43Z</time>
      </trkpt>
      <trkpt lat="45.44588" lon="4.13094">
        <ele>634.61</ele>
        <time>2023-05-29T12:22:58Z</time>
      </trkpt>
      <trkpt lat="45.44586" lon="4.13107">
        <ele>632.2</ele>
        <time>2023-05-29T12:23:05Z</time>
      </trkpt>
      <trkpt lat="45.44586" lon="4.13108">
        <ele>632.2</ele>
        <time>2023-05-29T12:23:06Z</time>
      </trkpt>
      <trkpt lat="45.44585" lon="4.1311">
        <ele>632.2</ele>
        <time>2023-05-29T12:23:08Z</time>
      </trkpt>
      <trkpt lat="45.44585" lon="4.13112">
        <ele>632.2</ele>
        <time>2023-05-29T12:23:09Z</time>
      </trkpt>
      <trkpt lat="45.44585" lon="4.13114">
        <ele>632.2</ele>
        <time>2023-05-29T12:23:10Z</time>
      </trkpt>
      <trkpt lat="45.4458" lon="4.1312">
        <ele>631.72</ele>
        <time>2023-05-29T12:23:15Z</time>
      </trkpt>
      <trkpt lat="45.44578" lon="4.1312">
        <ele>631.72</ele>
        <time>2023-05-29T12:23:16Z</time>
      </trkpt>
      <trkpt lat="45.44572" lon="4.13119">
        <ele>630.76</ele>
        <time>2023-05-29T12:23:20Z</time>
      </trkpt>
      <trkpt lat="45.44571" lon="4.13118">
        <ele>630.28</ele>
        <time>2023-05-29T12:23:21Z</time>
      </trkpt>
      <trkpt lat="45.4457" lon="4.13117">
        <ele>629.8</ele>
        <time>2023-05-29T12:23:22Z</time>
      </trkpt>
      <trkpt lat="45.44568" lon="4.13115">
        <ele>629.32</ele>
        <time>2023-05-29T12:23:23Z</time>
      </trkpt>
      <trkpt lat="45.44567" lon="4.13114">
        <ele>629.32</ele>
        <time>2023-05-29T12:23:24Z</time>
      </trkpt>
      <trkpt lat="45.44566" lon="4.13113">
        <ele>628.84</ele>
        <time>2023-05-29T12:23:25Z</time>
      </trkpt>
      <trkpt lat="45.44565" lon="4.13112">
        <ele>628.84</ele>
        <time>2023-05-29T12:23:26Z</time>
      </trkpt>
      <trkpt lat="45.44564" lon="4.1311">
        <ele>628.36</ele>
        <time>2023-05-29T12:23:27Z</time>
      </trkpt>
      <trkpt lat="45.44564" lon="4.13109">
        <ele>627.88</ele>
        <time>2023-05-29T12:23:28Z</time>
      </trkpt>
      <trkpt lat="45.44566" lon="4.1309">
        <ele>630.28</ele>
        <time>2023-05-29T12:23:44Z</time>
      </trkpt>
      <trkpt lat="45.44566" lon="4.13084">
        <ele>631.72</ele>
        <time>2023-05-29T12:24:04Z</time>
      </trkpt>
      <trkpt lat="45.44567" lon="4.13081">
        <ele>631.24</ele>
        <time>2023-05-29T12:24:20Z</time>
      </trkpt>
      <trkpt lat="45.44568" lon="4.13084">
        <ele>633.17</ele>
        <time>2023-05-29T12:24:37Z</time>
      </trkpt>
      <trkpt lat="45.44568" lon="4.13085">
        <ele>634.61</ele>
        <time>2023-05-29T12:24:57Z</time>
      </trkpt>
      <trkpt lat="45.44569" lon="4.13086">
        <ele>636.05</ele>
        <time>2023-05-29T12:25:10Z</time>
      </trkpt>
      <trkpt lat="45.44569" lon="4.13085">
        <ele>635.57</ele>
        <time>2023-05-29T12:25:26Z</time>
      </trkpt>
      <trkpt lat="45.44569" lon="4.13081">
        <ele>636.53</ele>
        <time>2023-05-29T12:25:42Z</time>
      </trkpt>
      <trkpt lat="45.44569" lon="4.1308">
        <ele>635.57</ele>
        <time>2023-05-29T12:25:59Z</time>
      </trkpt>
      <trkpt lat="45.4457" lon="4.13081">
        <ele>634.13</ele>
        <time>2023-05-29T12:26:12Z</time>
      </trkpt>
      <trkpt lat="45.44566" lon="4.13082">
        <ele>634.61</ele>
        <time>2023-05-29T12:26:34Z</time>
      </trkpt>
      <trkpt lat="45.44568" lon="4.13079">
        <ele>634.13</ele>
        <time>2023-05-29T12:26:47Z</time>
      </trkpt>
      <trkpt lat="45.44569" lon="4.13078">
        <ele>632.2</ele>
        <time>2023-05-29T12:27:09Z</time>
      </trkpt>
      <trkpt lat="45.44567" lon="4.13077">
        <ele>631.72</ele>
        <time>2023-05-29T12:27:22Z</time>
      </trkpt>
      <trkpt lat="45.44566" lon="4.13076">
        <ele>631.72</ele>
        <time>2023-05-29T12:27:38Z</time>
      </trkpt>
      <trkpt lat="45.44566" lon="4.13075">
        <ele>631.24</ele>
        <time>2023-05-29T12:27:51Z</time>
      </trkpt>
      <trkpt lat="45.44567" lon="4.13073">
        <ele>630.28</ele>
        <time>2023-05-29T12:28:09Z</time>
      </trkpt>
      <trkpt lat="45.44571" lon="4.13079">
        <ele>627.4</ele>
        <time>2023-05-29T12:28:23Z</time>
      </trkpt>
      <trkpt lat="45.44571" lon="4.13081">
        <ele>628.84</ele>
        <time>2023-05-29T12:28:39Z</time>
      </trkpt>
      <trkpt lat="45.44568" lon="4.13085">
        <ele>633.17</ele>
        <time>2023-05-29T12:28:50Z</time>
      </trkpt>
      <trkpt lat="45.44569" lon="4.13082">
        <ele>637.01</ele>
        <time>2023-05-29T12:29:05Z</time>
      </trkpt>
      <trkpt lat="45.44568" lon="4.13078">
        <ele>635.09</ele>
        <time>2023-05-29T12:29:16Z</time>
      </trkpt>
      <trkpt lat="45.44566" lon="4.13077">
        <ele>633.17</ele>
        <time>2023-05-29T12:29:29Z</time>
      </trkpt>
      <trkpt lat="45.44564" lon="4.13079">
        <ele>637.49</ele>
        <time>2023-05-29T12:29:55Z</time>
      </trkpt>
      <trkpt lat="45.44566" lon="4.13079">
        <ele>637.49</ele>
        <time>2023-05-29T12:30:07Z</time>
      </trkpt>
      <trkpt lat="45.44564" lon="4.13079">
        <ele>637.97</ele>
        <time>2023-05-29T12:30:21Z</time>
      </trkpt>
      <trkpt lat="45.44564" lon="4.13074">
        <ele>636.05</ele>
        <time>2023-05-29T12:30:31Z</time>
      </trkpt>
      <trkpt lat="45.4457" lon="4.13078">
        <ele>635.09</ele>
        <time>2023-05-29T12:30:41Z</time>
      </trkpt>
      <trkpt lat="45.44573" lon="4.13079">
        <ele>634.13</ele>
        <time>2023-05-29T12:30:52Z</time>
      </trkpt>
      <trkpt lat="45.4457" lon="4.13082">
        <ele>632.68</ele>
        <time>2023-05-29T12:31:03Z</time>
      </trkpt>
      <trkpt lat="45.44568" lon="4.13081">
        <ele>634.61</ele>
        <time>2023-05-29T12:31:22Z</time>
      </trkpt>
      <trkpt lat="45.44569" lon="4.13078">
        <ele>634.13</ele>
        <time>2023-05-29T12:31:35Z</time>
      </trkpt>
      <trkpt lat="45.44567" lon="4.13075">
        <ele>632.2</ele>
        <time>2023-05-29T12:31:45Z</time>
      </trkpt>
      <trkpt lat="45.44569" lon="4.13074">
        <ele>630.28</ele>
        <time>2023-05-29T12:32:09Z</time>
      </trkpt>
      <trkpt lat="45.44567" lon="4.13078">
        <ele>632.2</ele>
        <time>2023-05-29T12:32:28Z</time>
      </trkpt>
    </trkseg>
  </trk>
</gpx>